<?xml version='1.0' encoding='UTF-8'?><gpx version="1.1" creator="JPX - https://github.com/jenetics/jpx" xmlns="http://www.topografix.com/GPX/1/1"><trk><trkseg><trkpt lat="42.75393165019552" lon="2.6743716931056865"><ele>104.0</ele><time>2026-03-29T17:48:10.999Z</time></trkpt><trkpt lat="42.75400959704945" lon="2.674331664280803"><ele>104.0</ele><time>2026-03-29T17:48:12.999Z</time></trkpt><trkpt lat="42.754075647302955" lon="2.674285909507109"><ele>104.0</ele><time>2026-03-29T17:48:34Z</time></trkpt><trkpt lat="42.7541843388167" lon="2.6741884193645595"><ele>104.0</ele><time>2026-03-29T17:48:36Z</time></trkpt><trkpt lat="42.75423328379262" lon="2.6741328316036173"><ele>104.0</ele><time>2026-03-29T17:48:37Z</time></trkpt><trkpt lat="42.75431985460747" lon="2.674007360818732"><ele>103.4</ele><time>2026-03-29T17:48:39Z</time></trkpt><trkpt lat="42.754388370360736" lon="2.6738774889926264"><ele>102.80000000000001</ele><time>2026-03-29T17:48:41Z</time></trkpt><trkpt lat="42.75443682683011" lon="2.6737314434366657"><ele>102.19999999999999</ele><time>2026-03-29T17:48:43Z</time></trkpt><trkpt lat="42.754473262068196" lon="2.673656926656442"><ele>101.6</ele><time>2026-03-29T17:48:44Z</time></trkpt><trkpt lat="42.75452386233809" lon="2.673579246593157"><ele>101.0</ele><time>2026-03-29T17:48:45Z</time></trkpt><trkpt lat="42.754602040301215" lon="2.673506417860882"><ele>101.0</ele><time>2026-03-29T17:48:46Z</time></trkpt><trkpt lat="42.75469450546763" lon="2.673452752386994"><ele>101.0</ele><time>2026-03-29T17:48:47Z</time></trkpt><trkpt lat="42.754814730762334" lon="2.6734899012679016"><ele>101.0</ele><time>2026-03-29T17:48:48Z</time></trkpt><trkpt lat="42.75495806358059" lon="2.6735626226624776"><ele>101.0</ele><time>2026-03-29T17:48:49Z</time></trkpt><trkpt lat="42.75513471281238" lon="2.6736606311294344"><ele>100.25</ele><time>2026-03-29T17:48:50Z</time></trkpt><trkpt lat="42.755269566950936" lon="2.6737161059674435"><ele>99.5</ele><time>2026-03-29T17:48:51Z</time></trkpt><trkpt lat="42.75537371844107" lon="2.673732277819227"><ele>98.75</ele><time>2026-03-29T17:48:52Z</time></trkpt><trkpt lat="42.75547484396919" lon="2.6736989536462286"><ele>98.0</ele><time>2026-03-29T17:48:53Z</time></trkpt><trkpt lat="42.755573315620765" lon="2.673606089328478"><ele>97.75</ele><time>2026-03-29T17:48:54Z</time></trkpt><trkpt lat="42.755609144927966" lon="2.6734007399409845"><ele>97.5</ele><time>2026-03-29T17:48:55Z</time></trkpt><trkpt lat="42.75566261169633" lon="2.6732642009509435"><ele>97.25</ele><time>2026-03-29T17:48:56Z</time></trkpt><trkpt lat="42.755715278353016" lon="2.6731279378213912"><ele>97.0</ele><time>2026-03-29T17:48:57Z</time></trkpt><trkpt lat="42.755790930584524" lon="2.6729322046397566"><ele>97.75</ele><time>2026-03-29T17:48:58Z</time></trkpt><trkpt lat="42.75586503413339" lon="2.6727404783274604"><ele>98.5</ele><time>2026-03-29T17:48:59Z</time></trkpt><trkpt lat="42.75591662397279" lon="2.67260732337745"><ele>99.25</ele><time>2026-03-29T17:49:00Z</time></trkpt><trkpt lat="42.75596302586561" lon="2.672487991716853"><ele>100.0</ele><time>2026-03-29T17:49:01Z</time></trkpt><trkpt lat="42.75600777398373" lon="2.672372913034577"><ele>100.0</ele><time>2026-03-29T17:49:02Z</time></trkpt><trkpt lat="42.7560527318835" lon="2.6722572948783756"><ele>100.0</ele><time>2026-03-29T17:49:03Z</time></trkpt><trkpt lat="42.75610225517986" lon="2.6721299358799953"><ele>100.0</ele><time>2026-03-29T17:49:04Z</time></trkpt><trkpt lat="42.756153680192995" lon="2.671997686244387"><ele>100.0</ele><time>2026-03-29T17:49:05Z</time></trkpt><trkpt lat="42.75621377771921" lon="2.6718431335327715"><ele>100.0</ele><time>2026-03-29T17:49:06Z</time></trkpt><trkpt lat="42.756296960512515" lon="2.671631292550332"><ele>100.0</ele><time>2026-03-29T17:49:07Z</time></trkpt><trkpt lat="42.75636766889897" lon="2.671454231150736"><ele>100.0</ele><time>2026-03-29T17:49:08Z</time></trkpt><trkpt lat="42.75643389939221" lon="2.671282636199087"><ele>100.0</ele><time>2026-03-29T17:49:09Z</time></trkpt><trkpt lat="42.756523868786715" lon="2.671051967937655"><ele>100.33333333333334</ele><time>2026-03-29T17:49:10Z</time></trkpt><trkpt lat="42.75661838698003" lon="2.670801702293789"><ele>100.66666666666666</ele><time>2026-03-29T17:49:11Z</time></trkpt><trkpt lat="42.75671340294061" lon="2.6705509230075832"><ele>101.0</ele><time>2026-03-29T17:49:12Z</time></trkpt><trkpt lat="42.75681018336019" lon="2.6702980619015078"><ele>100.66666666666666</ele><time>2026-03-29T17:49:13Z</time></trkpt><trkpt lat="42.756882788537695" lon="2.6700754138967073"><ele>100.33333333333334</ele><time>2026-03-29T17:49:14Z</time></trkpt><trkpt lat="42.75698740416512" lon="2.669913822571717"><ele>100.0</ele><time>2026-03-29T17:49:15Z</time></trkpt><trkpt lat="42.757101417812464" lon="2.6697659919416212"><ele>100.0</ele><time>2026-03-29T17:49:16Z</time></trkpt><trkpt lat="42.75725641916352" lon="2.6695977556592023"><ele>100.0</ele><time>2026-03-29T17:49:17Z</time></trkpt><trkpt lat="42.757427803153334" lon="2.6694183221446157"><ele>100.0</ele><time>2026-03-29T17:49:18Z</time></trkpt><trkpt lat="42.757577221986224" lon="2.669255949965167"><ele>99.66666666666667</ele><time>2026-03-29T17:49:19Z</time></trkpt><trkpt lat="42.75772581145121" lon="2.6690962544969707"><ele>99.33333333333334</ele><time>2026-03-29T17:49:20Z</time></trkpt><trkpt lat="42.757876345579255" lon="2.668933024048255"><ele>99.0</ele><time>2026-03-29T17:49:21Z</time></trkpt><trkpt lat="42.7580087155717" lon="2.6687305544727957"><ele>99.66666666666666</ele><time>2026-03-29T17:49:22Z</time></trkpt><trkpt lat="42.75813042867697" lon="2.6685247093200926"><ele>100.33333333333333</ele><time>2026-03-29T17:49:23Z</time></trkpt><trkpt lat="42.758235822616236" lon="2.6683067116983796"><ele>101.0</ele><time>2026-03-29T17:49:24Z</time></trkpt><trkpt lat="42.75834703085081" lon="2.66814413480152"><ele>101.0</ele><time>2026-03-29T17:49:25Z</time></trkpt><trkpt lat="42.75843602590772" lon="2.6680002255865856"><ele>101.0</ele><time>2026-03-29T17:49:26Z</time></trkpt><trkpt lat="42.758545669715126" lon="2.667906980449909"><ele>101.0</ele><time>2026-03-29T17:49:27Z</time></trkpt><trkpt lat="42.75863917709354" lon="2.667806891804702"><ele>101.0</ele><time>2026-03-29T17:49:28Z</time></trkpt><trkpt lat="42.75872568931606" lon="2.667715200458398"><ele>100.33333333333333</ele><time>2026-03-29T17:49:29Z</time></trkpt><trkpt lat="42.75880645905974" lon="2.6676292374607087"><ele>99.66666666666666</ele><time>2026-03-29T17:49:30Z</time></trkpt><trkpt lat="42.75888009900799" lon="2.667546381624629"><ele>99.0</ele><time>2026-03-29T17:49:31Z</time></trkpt><trkpt lat="42.75893420801853" lon="2.6674577365781227"><ele>98.33333333333334</ele><time>2026-03-29T17:49:32Z</time></trkpt><trkpt lat="42.75899375395376" lon="2.6673924172317385"><ele>97.66666666666667</ele><time>2026-03-29T17:49:33Z</time></trkpt><trkpt lat="42.759042232140644" lon="2.6673248787787207"><ele>97.0</ele><time>2026-03-29T17:49:34Z</time></trkpt><trkpt lat="42.759099194514654" lon="2.6672793247699973"><ele>97.0</ele><time>2026-03-29T17:49:35Z</time></trkpt><trkpt lat="42.75918334764173" lon="2.6671757304491606"><ele>97.0</ele><time>2026-03-29T17:49:37Z</time></trkpt><trkpt lat="42.75927380590436" lon="2.6670580900254675"><ele>97.0</ele><time>2026-03-29T17:49:39Z</time></trkpt><trkpt lat="42.75933213207793" lon="2.666985457780542"><ele>97.0</ele><time>2026-03-29T17:49:40Z</time></trkpt><trkpt lat="42.75942046324972" lon="2.666875105118569"><ele>97.0</ele><time>2026-03-29T17:49:41Z</time></trkpt><trkpt lat="42.75953444391661" lon="2.6667293865860033"><ele>96.6</ele><time>2026-03-29T17:49:42Z</time></trkpt><trkpt lat="42.75960984062852" lon="2.6666379097180295"><ele>96.19999999999999</ele><time>2026-03-29T17:49:43Z</time></trkpt><trkpt lat="42.759659453468025" lon="2.666556684247582"><ele>95.8</ele><time>2026-03-29T17:49:44Z</time></trkpt><trkpt lat="42.759732550885104" lon="2.666520033193541"><ele>95.4</ele><time>2026-03-29T17:49:45Z</time></trkpt><trkpt lat="42.75981967872756" lon="2.666439008798179"><ele>95.0</ele><time>2026-03-29T17:49:46Z</time></trkpt><trkpt lat="42.759960294048405" lon="2.6664522645941653"><ele>95.0</ele><time>2026-03-29T17:49:47Z</time></trkpt><trkpt lat="42.760114862343634" lon="2.6664410992695746"><ele>95.0</ele><time>2026-03-29T17:49:48Z</time></trkpt><trkpt lat="42.760315533934936" lon="2.6664409495513763"><ele>95.0</ele><time>2026-03-29T17:49:49Z</time></trkpt><trkpt lat="42.76049949403971" lon="2.666434116370575"><ele>94.66666666666667</ele><time>2026-03-29T17:49:50Z</time></trkpt><trkpt lat="42.76066519662614" lon="2.666399365801913"><ele>94.33333333333333</ele><time>2026-03-29T17:49:51Z</time></trkpt><trkpt lat="42.76079550495336" lon="2.666307703468407"><ele>94.0</ele><time>2026-03-29T17:49:52Z</time></trkpt><trkpt lat="42.760924298672236" lon="2.6661977184144785"><ele>94.0</ele><time>2026-03-29T17:49:53Z</time></trkpt><trkpt lat="42.76105897805472" lon="2.666076307340959"><ele>94.0</ele><time>2026-03-29T17:49:54Z</time></trkpt><trkpt lat="42.761176289694575" lon="2.6659422361962943"><ele>94.0</ele><time>2026-03-29T17:49:55Z</time></trkpt><trkpt lat="42.76127967761139" lon="2.6658059741763602"><ele>94.0</ele><time>2026-03-29T17:49:56Z</time></trkpt><trkpt lat="42.7613509685329" lon="2.6656738329160947"><ele>94.0</ele><time>2026-03-29T17:49:57Z</time></trkpt><trkpt lat="42.76140432288684" lon="2.665577757727033"><ele>94.0</ele><time>2026-03-29T17:49:58Z</time></trkpt><trkpt lat="42.76144228600598" lon="2.6654572494534845"><ele>94.0</ele><time>2026-03-29T17:49:59Z</time></trkpt><trkpt lat="42.76150147192952" lon="2.665348769747225"><ele>94.0</ele><time>2026-03-29T17:50:00Z</time></trkpt><trkpt lat="42.76154836524805" lon="2.6652419968404084"><ele>94.4</ele><time>2026-03-29T17:50:01Z</time></trkpt><trkpt lat="42.76159571368191" lon="2.66513458162869"><ele>94.80000000000001</ele><time>2026-03-29T17:50:02Z</time></trkpt><trkpt lat="42.761648634460244" lon="2.6650189487832447"><ele>95.19999999999999</ele><time>2026-03-29T17:50:03Z</time></trkpt><trkpt lat="42.76170017087703" lon="2.6649063408148734"><ele>95.6</ele><time>2026-03-29T17:50:04Z</time></trkpt><trkpt lat="42.76175910937949" lon="2.6647775591544107"><ele>96.0</ele><time>2026-03-29T17:50:05Z</time></trkpt><trkpt lat="42.76183665838448" lon="2.664618166174022"><ele>96.0</ele><time>2026-03-29T17:50:06Z</time></trkpt><trkpt lat="42.76193586062544" lon="2.6644464538168746"><ele>96.0</ele><time>2026-03-29T17:50:07Z</time></trkpt><trkpt lat="42.76204118190695" lon="2.6642904209406963"><ele>96.0</ele><time>2026-03-29T17:50:08Z</time></trkpt><trkpt lat="42.76216840857863" lon="2.6641580301281933"><ele>96.0</ele><time>2026-03-29T17:50:09Z</time></trkpt><trkpt lat="42.762309536637524" lon="2.6640542565385372"><ele>96.0</ele><time>2026-03-29T17:50:10Z</time></trkpt><trkpt lat="42.76247898192301" lon="2.663983504766059"><ele>96.0</ele><time>2026-03-29T17:50:11Z</time></trkpt><trkpt lat="42.76268551718577" lon="2.663908620853807"><ele>96.33333333333334</ele><time>2026-03-29T17:50:12Z</time></trkpt><trkpt lat="42.76289270111186" lon="2.663839731012803"><ele>96.66666666666667</ele><time>2026-03-29T17:50:13Z</time></trkpt><trkpt lat="42.76307231598229" lon="2.6637131543660812"><ele>97.0</ele><time>2026-03-29T17:50:14Z</time></trkpt><trkpt lat="42.763253193829634" lon="2.6635544196822845"><ele>97.0</ele><time>2026-03-29T17:50:15Z</time></trkpt><trkpt lat="42.76341954745442" lon="2.6633366955518842"><ele>97.0</ele><time>2026-03-29T17:50:16Z</time></trkpt><trkpt lat="42.76357702311056" lon="2.663075927263724"><ele>95.5</ele><time>2026-03-29T17:50:17Z</time></trkpt><trkpt lat="42.76375665595559" lon="2.662794796563422"><ele>94.0</ele><time>2026-03-29T17:50:18Z</time></trkpt><trkpt lat="42.763874815306934" lon="2.662471766445315"><ele>94.0</ele><time>2026-03-29T17:50:19Z</time></trkpt><trkpt lat="42.7639864271075" lon="2.662146474300416"><ele>94.0</ele><time>2026-03-29T17:50:20Z</time></trkpt><trkpt lat="42.76407593373472" lon="2.6618703690507592"><ele>95.33333333333333</ele><time>2026-03-29T17:50:21Z</time></trkpt><trkpt lat="42.764176379817656" lon="2.6616203176156157"><ele>96.66666666666666</ele><time>2026-03-29T17:50:22Z</time></trkpt><trkpt lat="42.76430814280977" lon="2.6613745525880455"><ele>98.0</ele><time>2026-03-29T17:50:23Z</time></trkpt><trkpt lat="42.764450737592085" lon="2.661153623040724"><ele>96.5</ele><time>2026-03-29T17:50:24Z</time></trkpt><trkpt lat="42.76460231816731" lon="2.6609301740387883"><ele>95.0</ele><time>2026-03-29T17:50:25Z</time></trkpt><trkpt lat="42.7647415549163" lon="2.660680021796715"><ele>95.0</ele><time>2026-03-29T17:50:26Z</time></trkpt><trkpt lat="42.764890038148884" lon="2.660415083537436"><ele>95.0</ele><time>2026-03-29T17:50:27Z</time></trkpt><trkpt lat="42.76500336179752" lon="2.6601872961646627"><ele>95.0</ele><time>2026-03-29T17:50:28Z</time></trkpt><trkpt lat="42.76509813669056" lon="2.659971583055472"><ele>94.5</ele><time>2026-03-29T17:50:29Z</time></trkpt><trkpt lat="42.7652537585705" lon="2.659775104893482"><ele>94.0</ele><time>2026-03-29T17:50:30Z</time></trkpt><trkpt lat="42.76545479097404" lon="2.659567917668875"><ele>95.66666666666666</ele><time>2026-03-29T17:50:31Z</time></trkpt><trkpt lat="42.76564661005358" lon="2.6593757526783373"><ele>97.33333333333333</ele><time>2026-03-29T17:50:32Z</time></trkpt><trkpt lat="42.76577693296538" lon="2.6592130333185326"><ele>99.0</ele><time>2026-03-29T17:50:33Z</time></trkpt><trkpt lat="42.765880265518106" lon="2.6590679857777997"><ele>99.0</ele><time>2026-03-29T17:50:34Z</time></trkpt><trkpt lat="42.76596443099953" lon="2.6589089552859777"><ele>99.0</ele><time>2026-03-29T17:50:35Z</time></trkpt><trkpt lat="42.76602477141342" lon="2.658684719699096"><ele>99.0</ele><time>2026-03-29T17:50:36Z</time></trkpt><trkpt lat="42.76607392105358" lon="2.6584498764332216"><ele>98.75</ele><time>2026-03-29T17:50:37Z</time></trkpt><trkpt lat="42.76615321881108" lon="2.658324099706463"><ele>98.5</ele><time>2026-03-29T17:50:38Z</time></trkpt><trkpt lat="42.76622744150904" lon="2.6582022624316566"><ele>98.25</ele><time>2026-03-29T17:50:39Z</time></trkpt><trkpt lat="42.766302144934414" lon="2.6580688093084195"><ele>98.0</ele><time>2026-03-29T17:50:40Z</time></trkpt><trkpt lat="42.76640238707426" lon="2.657954198323407"><ele>98.0</ele><time>2026-03-29T17:50:41Z</time></trkpt><trkpt lat="42.766501653176" lon="2.6578388977452247"><ele>98.0</ele><time>2026-03-29T17:50:42Z</time></trkpt><trkpt lat="42.76661385253023" lon="2.6577393868404684"><ele>98.0</ele><time>2026-03-29T17:50:43Z</time></trkpt><trkpt lat="42.76673171358063" lon="2.657648785286833"><ele>98.0</ele><time>2026-03-29T17:50:44Z</time></trkpt><trkpt lat="42.76686220569717" lon="2.657575400359942"><ele>97.66666666666666</ele><time>2026-03-29T17:50:45Z</time></trkpt><trkpt lat="42.76702354690901" lon="2.6575099678913086"><ele>97.33333333333334</ele><time>2026-03-29T17:50:46Z</time></trkpt><trkpt lat="42.76718603214331" lon="2.6574574311386967"><ele>97.0</ele><time>2026-03-29T17:50:47Z</time></trkpt><trkpt lat="42.76732852546951" lon="2.6573750154259415"><ele>97.0</ele><time>2026-03-29T17:50:48Z</time></trkpt><trkpt lat="42.767484955012165" lon="2.657253162303724"><ele>97.0</ele><time>2026-03-29T17:50:49Z</time></trkpt><trkpt lat="42.76767017140787" lon="2.6570742671149064"><ele>97.0</ele><time>2026-03-29T17:50:50Z</time></trkpt><trkpt lat="42.76785297431633" lon="2.6569020701199157"><ele>97.25</ele><time>2026-03-29T17:50:51Z</time></trkpt><trkpt lat="42.768014798538495" lon="2.6567876143014235"><ele>97.5</ele><time>2026-03-29T17:50:52Z</time></trkpt><trkpt lat="42.76811907803226" lon="2.656667366084127"><ele>97.75</ele><time>2026-03-29T17:50:53Z</time></trkpt><trkpt lat="42.76821921140037" lon="2.6565815505012083"><ele>98.0</ele><time>2026-03-29T17:50:54Z</time></trkpt><trkpt lat="42.76830548379997" lon="2.6565013821016956"><ele>98.0</ele><time>2026-03-29T17:50:55Z</time></trkpt><trkpt lat="42.76838477679396" lon="2.656411620908772"><ele>98.0</ele><time>2026-03-29T17:50:56Z</time></trkpt><trkpt lat="42.76845310318012" lon="2.6563238716213724"><ele>98.0</ele><time>2026-03-29T17:50:57Z</time></trkpt><trkpt lat="42.76850671030311" lon="2.6562100636955277"><ele>98.0</ele><time>2026-03-29T17:50:58Z</time></trkpt><trkpt lat="42.76857887975971" lon="2.6560985371089334"><ele>98.0</ele><time>2026-03-29T17:50:59Z</time></trkpt><trkpt lat="42.76862039360276" lon="2.6559471802312262"><ele>97.75</ele><time>2026-03-29T17:51:00Z</time></trkpt><trkpt lat="42.76867927917431" lon="2.655795532014961"><ele>97.5</ele><time>2026-03-29T17:51:01Z</time></trkpt><trkpt lat="42.76874165559681" lon="2.655643263334196"><ele>97.25</ele><time>2026-03-29T17:51:02Z</time></trkpt><trkpt lat="42.7688104644376" lon="2.655482431624974"><ele>97.0</ele><time>2026-03-29T17:51:03Z</time></trkpt><trkpt lat="42.768866599122184" lon="2.6553469371063425"><ele>98.39999999999999</ele><time>2026-03-29T17:51:04Z</time></trkpt><trkpt lat="42.768902863724996" lon="2.655240591506896"><ele>99.8</ele><time>2026-03-29T17:51:05Z</time></trkpt><trkpt lat="42.7689174559028" lon="2.6551397689845353"><ele>101.2</ele><time>2026-03-29T17:51:06Z</time></trkpt><trkpt lat="42.768893151923805" lon="2.65505058592526"><ele>102.6</ele><time>2026-03-29T17:51:07Z</time></trkpt><trkpt lat="42.768815042426255" lon="2.6549804498679928"><ele>104.0</ele><time>2026-03-29T17:51:08Z</time></trkpt><trkpt lat="42.76871006923796" lon="2.6548698723113136"><ele>104.0</ele><time>2026-03-29T17:51:09Z</time></trkpt><trkpt lat="42.768619470397255" lon="2.6547612619458194"><ele>104.0</ele><time>2026-03-29T17:51:10Z</time></trkpt><trkpt lat="42.76856827578122" lon="2.654649202880851"><ele>104.0</ele><time>2026-03-29T17:51:11Z</time></trkpt><trkpt lat="42.76851522781075" lon="2.6545468550885474"><ele>104.0</ele><time>2026-03-29T17:51:12Z</time></trkpt><trkpt lat="42.76846495368176" lon="2.654432893599702"><ele>104.0</ele><time>2026-03-29T17:51:13Z</time></trkpt><trkpt lat="42.76840258340174" lon="2.6543277853963794"><ele>105.25</ele><time>2026-03-29T17:51:14Z</time></trkpt><trkpt lat="42.76833408227725" lon="2.6542182096434375"><ele>106.5</ele><time>2026-03-29T17:51:15Z</time></trkpt><trkpt lat="42.76825601905164" lon="2.654107405727809"><ele>107.75</ele><time>2026-03-29T17:51:16Z</time></trkpt><trkpt lat="42.76819453112051" lon="2.6539885423914225"><ele>109.0</ele><time>2026-03-29T17:51:17Z</time></trkpt><trkpt lat="42.7680743415494" lon="2.6538755783321535"><ele>109.0</ele><time>2026-03-29T17:51:18Z</time></trkpt><trkpt lat="42.76794555151284" lon="2.65371021307489"><ele>109.0</ele><time>2026-03-29T17:51:19Z</time></trkpt><trkpt lat="42.7678178557843" lon="2.6535689985082995"><ele>109.0</ele><time>2026-03-29T17:51:20Z</time></trkpt><trkpt lat="42.767699306003976" lon="2.6534209812570517"><ele>110.0</ele><time>2026-03-29T17:51:21Z</time></trkpt><trkpt lat="42.76759451637619" lon="2.653290820059052"><ele>111.0</ele><time>2026-03-29T17:51:22Z</time></trkpt><trkpt lat="42.767485531453886" lon="2.6531977038916685"><ele>112.0</ele><time>2026-03-29T17:51:23Z</time></trkpt><trkpt lat="42.76736269095965" lon="2.653123836703682"><ele>113.0</ele><time>2026-03-29T17:51:24Z</time></trkpt><trkpt lat="42.76722948737817" lon="2.653058117793357"><ele>113.0</ele><time>2026-03-29T17:51:25Z</time></trkpt><trkpt lat="42.76713663084644" lon="2.6529885110428006"><ele>113.00000000000001</ele><time>2026-03-29T17:51:26Z</time></trkpt><trkpt lat="42.76709923347775" lon="2.65289319304167"><ele>113.00000000000001</ele><time>2026-03-29T17:51:27Z</time></trkpt><trkpt lat="42.7671236099843" lon="2.652759831903528"><ele>113.0</ele><time>2026-03-29T17:51:28Z</time></trkpt><trkpt lat="42.7671192215391" lon="2.652590242557732"><ele>113.0</ele><time>2026-03-29T17:51:29Z</time></trkpt><trkpt lat="42.76712285581252" lon="2.652402550694967"><ele>113.80000000000001</ele><time>2026-03-29T17:51:30Z</time></trkpt><trkpt lat="42.76712819974411" lon="2.6522080474277896"><ele>114.60000000000001</ele><time>2026-03-29T17:51:31Z</time></trkpt><trkpt lat="42.76713111077318" lon="2.652039562152695"><ele>115.39999999999999</ele><time>2026-03-29T17:51:32Z</time></trkpt><trkpt lat="42.76713351521026" lon="2.651901275390649"><ele>116.19999999999999</ele><time>2026-03-29T17:51:33Z</time></trkpt><trkpt lat="42.7671319108726" lon="2.6517917633172505"><ele>117.0</ele><time>2026-03-29T17:51:34Z</time></trkpt><trkpt lat="42.767131899674276" lon="2.651673864448008"><ele>117.19999999999999</ele><time>2026-03-29T17:51:36Z</time></trkpt><trkpt lat="42.76715053511547" lon="2.65159124618449"><ele>117.39999999999999</ele><time>2026-03-29T17:51:40Z</time></trkpt><trkpt lat="42.767164115857526" lon="2.6515026046875363"><ele>117.60000000000001</ele><time>2026-03-29T17:51:41Z</time></trkpt><trkpt lat="42.76719222414733" lon="2.6513703612625523"><ele>117.80000000000001</ele><time>2026-03-29T17:51:42Z</time></trkpt><trkpt lat="42.76722285077928" lon="2.651283939436581"><ele>118.0</ele><time>2026-03-29T17:51:43Z</time></trkpt><trkpt lat="42.767151328101946" lon="2.6511054760710517"><ele>118.2</ele><time>2026-03-29T17:51:45Z</time></trkpt><trkpt lat="42.767095859490766" lon="2.6510248082561643"><ele>118.4</ele><time>2026-03-29T17:51:46Z</time></trkpt><trkpt lat="42.767010826209265" lon="2.6508870077723947"><ele>118.60000000000001</ele><time>2026-03-29T17:51:47Z</time></trkpt><trkpt lat="42.76692642875739" lon="2.6507161258507987"><ele>118.80000000000001</ele><time>2026-03-29T17:51:48Z</time></trkpt><trkpt lat="42.76688270167004" lon="2.650618243006571"><ele>119.0</ele><time>2026-03-29T17:51:49Z</time></trkpt><trkpt lat="42.7668392328645" lon="2.650537526780854"><ele>119.0</ele><time>2026-03-29T17:51:51Z</time></trkpt><trkpt lat="42.76676475029573" lon="2.6504896964624898"><ele>119.0</ele><time>2026-03-29T17:51:55Z</time></trkpt><trkpt lat="42.76670452801171" lon="2.650311851714065"><ele>119.0</ele><time>2026-03-29T17:51:57Z</time></trkpt><trkpt lat="42.76669267246003" lon="2.6501649596599326"><ele>119.0</ele><time>2026-03-29T17:51:58Z</time></trkpt><trkpt lat="42.76667618753902" lon="2.650031411050646"><ele>119.0</ele><time>2026-03-29T17:51:59Z</time></trkpt><trkpt lat="42.76664901615126" lon="2.649900814308975"><ele>118.75</ele><time>2026-03-29T17:52:00Z</time></trkpt><trkpt lat="42.76659133101927" lon="2.649790760021767"><ele>118.5</ele><time>2026-03-29T17:52:01Z</time></trkpt><trkpt lat="42.76649677878756" lon="2.6496985923604877"><ele>118.25</ele><time>2026-03-29T17:52:02Z</time></trkpt><trkpt lat="42.766390035439365" lon="2.6496017320982643"><ele>118.0</ele><time>2026-03-29T17:52:03Z</time></trkpt><trkpt lat="42.76629003225998" lon="2.649477844696654"><ele>116.60000000000001</ele><time>2026-03-29T17:52:04Z</time></trkpt><trkpt lat="42.7661931941349" lon="2.6493227100796717"><ele>115.20000000000002</ele><time>2026-03-29T17:52:05Z</time></trkpt><trkpt lat="42.766117221520894" lon="2.6491773220422012"><ele>113.8</ele><time>2026-03-29T17:52:06Z</time></trkpt><trkpt lat="42.76607956929666" lon="2.6490540553326487"><ele>112.4</ele><time>2026-03-29T17:52:07Z</time></trkpt><trkpt lat="42.76608795823266" lon="2.648962273183844"><ele>111.0</ele><time>2026-03-29T17:52:08Z</time></trkpt><trkpt lat="42.7660960950502" lon="2.648853586789444"><ele>116.0</ele><time>2026-03-29T17:52:09Z</time></trkpt><trkpt lat="42.76600840135904" lon="2.6487343515560275"><ele>121.0</ele><time>2026-03-29T17:52:11Z</time></trkpt><trkpt lat="42.7658705596326" lon="2.6487868995520016"><ele>126.0</ele><time>2026-03-29T17:52:13Z</time></trkpt><trkpt lat="42.76580904826369" lon="2.6487227952949977"><ele>131.0</ele><time>2026-03-29T17:52:16Z</time></trkpt><trkpt lat="42.76579837555949" lon="2.6486309659192377"><ele>136.0</ele><time>2026-03-29T17:52:17Z</time></trkpt><trkpt lat="42.76577307594754" lon="2.6485269479439038"><ele>136.0</ele><time>2026-03-29T17:52:18Z</time></trkpt><trkpt lat="42.765729797995334" lon="2.6484583514876747"><ele>136.0</ele><time>2026-03-29T17:52:19Z</time></trkpt><trkpt lat="42.765672229399364" lon="2.648407751713775"><ele>136.0</ele><time>2026-03-29T17:52:20Z</time></trkpt><trkpt lat="42.76558900776512" lon="2.6483298639290123"><ele>136.0</ele><time>2026-03-29T17:52:22Z</time></trkpt><trkpt lat="42.765491185699766" lon="2.6484887092480096"><ele>136.0</ele><time>2026-03-29T17:52:24Z</time></trkpt><trkpt lat="42.76540613931415" lon="2.648494286139608"><ele>136.0</ele><time>2026-03-29T17:52:26Z</time></trkpt><trkpt lat="42.76536745116069" lon="2.6484237788547724"><ele>136.0</ele><time>2026-03-29T17:52:27Z</time></trkpt><trkpt lat="42.76524648453085" lon="2.648308014227383"><ele>136.0</ele><time>2026-03-29T17:52:29Z</time></trkpt><trkpt lat="42.7651693541314" lon="2.6482492781283713"><ele>136.0</ele><time>2026-03-29T17:52:30Z</time></trkpt><trkpt lat="42.765073446955846" lon="2.6481679084854215"><ele>136.0</ele><time>2026-03-29T17:52:32Z</time></trkpt><trkpt lat="42.764948770342606" lon="2.648136379423967"><ele>140.14285714285714</ele><time>2026-03-29T17:52:34Z</time></trkpt><trkpt lat="42.76487403209763" lon="2.6481357255518407"><ele>144.28571428571428</ele><time>2026-03-29T17:52:35Z</time></trkpt><trkpt lat="42.764815609490306" lon="2.6480908330187183"><ele>148.42857142857144</ele><time>2026-03-29T17:52:36Z</time></trkpt><trkpt lat="42.76475388021149" lon="2.648047219319845"><ele>152.57142857142856</ele><time>2026-03-29T17:52:37Z</time></trkpt><trkpt lat="42.76468544063784" lon="2.6480176438926133"><ele>156.71428571428572</ele><time>2026-03-29T17:52:38Z</time></trkpt><trkpt lat="42.764616058543616" lon="2.6479782063022554"><ele>160.85714285714286</ele><time>2026-03-29T17:52:39Z</time></trkpt><trkpt lat="42.76455577971358" lon="2.6479343315720376"><ele>165.0</ele><time>2026-03-29T17:52:40Z</time></trkpt><trkpt lat="42.76446858211221" lon="2.6478882240840456"><ele>165.0</ele><time>2026-03-29T17:52:41Z</time></trkpt><trkpt lat="42.76437586873362" lon="2.64781490721885"><ele>165.0</ele><time>2026-03-29T17:52:42Z</time></trkpt><trkpt lat="42.764295642625406" lon="2.6477635207879686"><ele>165.0</ele><time>2026-03-29T17:52:43Z</time></trkpt><trkpt lat="42.76421168288677" lon="2.647698585724121"><ele>165.0</ele><time>2026-03-29T17:52:44Z</time></trkpt><trkpt lat="42.76411345319295" lon="2.6476373767897803"><ele>165.0</ele><time>2026-03-29T17:52:45Z</time></trkpt><trkpt lat="42.76403944603826" lon="2.6475953656410742"><ele>166.5</ele><time>2026-03-29T17:52:46Z</time></trkpt><trkpt lat="42.763940603197575" lon="2.6475389668568443"><ele>168.0</ele><time>2026-03-29T17:52:48Z</time></trkpt><trkpt lat="42.763868413078384" lon="2.6474931648590023"><ele>169.5</ele><time>2026-03-29T17:52:49Z</time></trkpt><trkpt lat="42.7638070088155" lon="2.647433725786787"><ele>171.0</ele><time>2026-03-29T17:52:50Z</time></trkpt><trkpt lat="42.76372910060402" lon="2.64733857552074"><ele>172.5</ele><time>2026-03-29T17:52:51Z</time></trkpt><trkpt lat="42.76368841045472" lon="2.6472540337626778"><ele>174.0</ele><time>2026-03-29T17:52:52Z</time></trkpt><trkpt lat="42.763672313070664" lon="2.647147974576921"><ele>174.0</ele><time>2026-03-29T17:52:54Z</time></trkpt><trkpt lat="42.76366911585594" lon="2.6470370616084993"><ele>174.0</ele><time>2026-03-29T17:53:04Z</time></trkpt><trkpt lat="42.763685754636164" lon="2.6469169390608633"><ele>174.0</ele><time>2026-03-29T17:53:05Z</time></trkpt><trkpt lat="42.76367745805348" lon="2.646816780048017"><ele>174.0</ele><time>2026-03-29T17:53:06Z</time></trkpt><trkpt lat="42.76364937889897" lon="2.646713586830902"><ele>174.0</ele><time>2026-03-29T17:53:07Z</time></trkpt><trkpt lat="42.76362545324026" lon="2.6465883289699113"><ele>174.0</ele><time>2026-03-29T17:53:08Z</time></trkpt><trkpt lat="42.763637202255204" lon="2.64646846984773"><ele>174.0</ele><time>2026-03-29T17:53:09Z</time></trkpt><trkpt lat="42.76368376652199" lon="2.6463295289906283"><ele>174.0</ele><time>2026-03-29T17:53:10Z</time></trkpt><trkpt lat="42.76375366834781" lon="2.646184514798312"><ele>174.0</ele><time>2026-03-29T17:53:11Z</time></trkpt><trkpt lat="42.763787601146205" lon="2.646081729699544"><ele>174.0</ele><time>2026-03-29T17:53:12Z</time></trkpt><trkpt lat="42.76372945538978" lon="2.645993887720208"><ele>174.0</ele><time>2026-03-29T17:53:14Z</time></trkpt><trkpt lat="42.76366228050319" lon="2.6460006560796354"><ele>171.6</ele><time>2026-03-29T17:53:15Z</time></trkpt><trkpt lat="42.76358388476599" lon="2.646056068938668"><ele>169.2</ele><time>2026-03-29T17:53:16Z</time></trkpt><trkpt lat="42.76354300877006" lon="2.6461273915777133"><ele>166.79999999999998</ele><time>2026-03-29T17:53:17Z</time></trkpt><trkpt lat="42.76352126177373" lon="2.6462505961720773"><ele>164.39999999999998</ele><time>2026-03-29T17:53:18Z</time></trkpt><trkpt lat="42.76347899011046" lon="2.646390006704072"><ele>162.0</ele><time>2026-03-29T17:53:19Z</time></trkpt><trkpt lat="42.76340991972027" lon="2.646569463993667"><ele>167.8</ele><time>2026-03-29T17:53:20Z</time></trkpt><trkpt lat="42.7633371896771" lon="2.6467384584373925"><ele>173.6</ele><time>2026-03-29T17:53:21Z</time></trkpt><trkpt lat="42.76332005050424" lon="2.6468277018053534"><ele>179.4</ele><time>2026-03-29T17:53:22Z</time></trkpt><trkpt lat="42.76325094090309" lon="2.6468365000226344"><ele>185.20000000000002</ele><time>2026-03-29T17:53:25Z</time></trkpt><trkpt lat="42.76321644838234" lon="2.6467010222466913"><ele>191.0</ele><time>2026-03-29T17:53:29Z</time></trkpt><trkpt lat="42.76322884172399" lon="2.6466057376079912"><ele>191.0</ele><time>2026-03-29T17:53:30Z</time></trkpt><trkpt lat="42.76323153368209" lon="2.6464870501958537"><ele>191.0</ele><time>2026-03-29T17:53:31Z</time></trkpt><trkpt lat="42.76322377695242" lon="2.6463745489372656"><ele>191.0</ele><time>2026-03-29T17:53:32Z</time></trkpt><trkpt lat="42.76320971553603" lon="2.646262462106605"><ele>191.0</ele><time>2026-03-29T17:53:33Z</time></trkpt><trkpt lat="42.763202748758104" lon="2.646121373582285"><ele>191.0</ele><time>2026-03-29T17:53:34Z</time></trkpt><trkpt lat="42.76320614479536" lon="2.6460172248104166"><ele>191.0</ele><time>2026-03-29T17:53:35Z</time></trkpt><trkpt lat="42.76319449347838" lon="2.645912986780757"><ele>192.5</ele><time>2026-03-29T17:53:36Z</time></trkpt><trkpt lat="42.76317759725537" lon="2.645802814696936"><ele>194.0</ele><time>2026-03-29T17:53:37Z</time></trkpt><trkpt lat="42.76316430689885" lon="2.6457095292977035"><ele>195.5</ele><time>2026-03-29T17:53:38Z</time></trkpt><trkpt lat="42.76315226673915" lon="2.645616007443838"><ele>197.0</ele><time>2026-03-29T17:53:39Z</time></trkpt><trkpt lat="42.76311265541867" lon="2.6455224141710794"><ele>198.50000000000003</ele><time>2026-03-29T17:53:40Z</time></trkpt><trkpt lat="42.76307276327819" lon="2.6454321007942876"><ele>200.0</ele><time>2026-03-29T17:53:41Z</time></trkpt><trkpt lat="42.763024818300316" lon="2.645320296206143"><ele>198.50000000000003</ele><time>2026-03-29T17:53:42Z</time></trkpt><trkpt lat="42.7629853660589" lon="2.6452201751772746"><ele>197.0</ele><time>2026-03-29T17:53:43Z</time></trkpt><trkpt lat="42.76294822296942" lon="2.6451098618106172"><ele>195.5</ele><time>2026-03-29T17:53:44Z</time></trkpt><trkpt lat="42.762907477326074" lon="2.6450178872595345"><ele>194.0</ele><time>2026-03-29T17:53:45Z</time></trkpt><trkpt lat="42.762857478955" lon="2.6449261803167077"><ele>192.5</ele><time>2026-03-29T17:53:46Z</time></trkpt><trkpt lat="42.762810180942616" lon="2.6448239140944065"><ele>191.0</ele><time>2026-03-29T17:53:47Z</time></trkpt><trkpt lat="42.76275764503024" lon="2.6447268815024274"><ele>191.0</ele><time>2026-03-29T17:53:48Z</time></trkpt><trkpt lat="42.762715164800035" lon="2.6446377921517423"><ele>191.0</ele><time>2026-03-29T17:53:49Z</time></trkpt><trkpt lat="42.762664547125965" lon="2.6445473981676764"><ele>191.0</ele><time>2026-03-29T17:53:50Z</time></trkpt><trkpt lat="42.762623804265615" lon="2.6444396522602323"><ele>191.0</ele><time>2026-03-29T17:53:51Z</time></trkpt><trkpt lat="42.76257686644229" lon="2.6443429949265416"><ele>191.0</ele><time>2026-03-29T17:53:52Z</time></trkpt><trkpt lat="42.762556079738935" lon="2.6442454870434657"><ele>191.0</ele><time>2026-03-29T17:53:53Z</time></trkpt><trkpt lat="42.76250745994902" lon="2.644140926110346"><ele>194.0</ele><time>2026-03-29T17:53:54Z</time></trkpt><trkpt lat="42.76247563226324" lon="2.6440417173348423"><ele>197.0</ele><time>2026-03-29T17:53:55Z</time></trkpt><trkpt lat="42.76243349459772" lon="2.6439394329100154"><ele>200.0</ele><time>2026-03-29T17:53:55.999Z</time></trkpt><trkpt lat="42.76238911157661" lon="2.643833877375245"><ele>203.0</ele><time>2026-03-29T17:53:56.999Z</time></trkpt><trkpt lat="42.76236452918599" lon="2.6437296884451644"><ele>206.00000000000003</ele><time>2026-03-29T17:53:57.999Z</time></trkpt><trkpt lat="42.762335592494026" lon="2.643620406162563"><ele>209.0</ele><time>2026-03-29T17:53:58.999Z</time></trkpt><trkpt lat="42.7622757509511" lon="2.643512101766218"><ele>209.0</ele><time>2026-03-29T17:53:59.999Z</time></trkpt><trkpt lat="42.762222823578256" lon="2.6433800757910646"><ele>209.0</ele><time>2026-03-29T17:54:00.999Z</time></trkpt><trkpt lat="42.76216638285263" lon="2.643252565918575"><ele>209.0</ele><time>2026-03-29T17:54:01.999Z</time></trkpt><trkpt lat="42.762106299674905" lon="2.6431415819888904"><ele>209.0</ele><time>2026-03-29T17:54:02.999Z</time></trkpt><trkpt lat="42.76206577910549" lon="2.643039942024821"><ele>209.0</ele><time>2026-03-29T17:54:03.999Z</time></trkpt><trkpt lat="42.762007233691655" lon="2.64291843074436"><ele>209.00000000000003</ele><time>2026-03-29T17:54:04.999Z</time></trkpt><trkpt lat="42.76195702975669" lon="2.6428343754734938"><ele>209.0</ele><time>2026-03-29T17:54:05.999Z</time></trkpt><trkpt lat="42.76192327878428" lon="2.6427597777206024"><ele>209.0</ele><time>2026-03-29T17:54:06.999Z</time></trkpt><trkpt lat="42.76187776503682" lon="2.6426496000435655"><ele>209.0</ele><time>2026-03-29T17:54:07.999Z</time></trkpt><trkpt lat="42.76182316536002" lon="2.64260452199408"><ele>209.00000000000003</ele><time>2026-03-29T17:54:08.999Z</time></trkpt><trkpt lat="42.76175662401175" lon="2.642551594425981"><ele>209.0</ele><time>2026-03-29T17:54:09.999Z</time></trkpt><trkpt lat="42.76169260509301" lon="2.6424847481402134"><ele>214.0</ele><time>2026-03-29T17:54:10.999Z</time></trkpt><trkpt lat="42.76165246254351" lon="2.642416077811495"><ele>219.0</ele><time>2026-03-29T17:54:11.999Z</time></trkpt><trkpt lat="42.76159073722636" lon="2.64227560607489"><ele>223.99999999999997</ele><time>2026-03-29T17:54:13.999Z</time></trkpt><trkpt lat="42.76153534309272" lon="2.642186108676596"><ele>229.0</ele><time>2026-03-29T17:54:14.999Z</time></trkpt><trkpt lat="42.761477028413694" lon="2.6420085375109132"><ele>234.0</ele><time>2026-03-29T17:54:16.999Z</time></trkpt><trkpt lat="42.761443031513465" lon="2.6419073273597626"><ele>234.5</ele><time>2026-03-29T17:54:17.999Z</time></trkpt><trkpt lat="42.76141017213627" lon="2.6418138100235393"><ele>235.0</ele><time>2026-03-29T17:54:18.999Z</time></trkpt><trkpt lat="42.76137102385096" lon="2.641718918259421"><ele>235.5</ele><time>2026-03-29T17:54:19.999Z</time></trkpt><trkpt lat="42.76132632013938" lon="2.6416177062930473"><ele>236.0</ele><time>2026-03-29T17:54:20.999Z</time></trkpt><trkpt lat="42.76127218398598" lon="2.6415257350844397"><ele>236.5</ele><time>2026-03-29T17:54:21.999Z</time></trkpt><trkpt lat="42.761200436072784" lon="2.6414467463026106"><ele>237.0</ele><time>2026-03-29T17:54:22.999Z</time></trkpt><trkpt lat="42.761148594164695" lon="2.641367506263717"><ele>237.0</ele><time>2026-03-29T17:54:23.999Z</time></trkpt><trkpt lat="42.76109152783628" lon="2.6412604373332864"><ele>237.0</ele><time>2026-03-29T17:54:24.999Z</time></trkpt><trkpt lat="42.76105128014531" lon="2.641177290257867"><ele>237.0</ele><time>2026-03-29T17:54:25.999Z</time></trkpt><trkpt lat="42.761022746745695" lon="2.64109421559553"><ele>237.0</ele><time>2026-03-29T17:54:26.999Z</time></trkpt><trkpt lat="42.7609906900025" lon="2.6409702415527336"><ele>237.0</ele><time>2026-03-29T17:54:28.999Z</time></trkpt><trkpt lat="42.76098621110489" lon="2.6408748163895153"><ele>237.0</ele><time>2026-03-29T17:54:29.999Z</time></trkpt><trkpt lat="42.7609579236566" lon="2.640780833006179"><ele>236.75</ele><time>2026-03-29T17:54:30.999Z</time></trkpt><trkpt lat="42.76091867367969" lon="2.6406014361093013"><ele>236.5</ele><time>2026-03-29T17:54:32.999Z</time></trkpt><trkpt lat="42.76088533664625" lon="2.640499662115203"><ele>236.25</ele><time>2026-03-29T17:54:34Z</time></trkpt><trkpt lat="42.76083204431935" lon="2.6403463912865868"><ele>236.0</ele><time>2026-03-29T17:54:35Z</time></trkpt><trkpt lat="42.760778056066385" lon="2.640177523286115"><ele>236.0</ele><time>2026-03-29T17:54:36Z</time></trkpt><trkpt lat="42.76073672937144" lon="2.640049843033394"><ele>236.00000000000003</ele><time>2026-03-29T17:54:37Z</time></trkpt><trkpt lat="42.760689120703574" lon="2.6399384336784713"><ele>236.00000000000003</ele><time>2026-03-29T17:54:38Z</time></trkpt><trkpt lat="42.76063832105914" lon="2.639819715485579"><ele>236.0</ele><time>2026-03-29T17:54:39Z</time></trkpt><trkpt lat="42.760594692880986" lon="2.6397019653196216"><ele>236.0</ele><time>2026-03-29T17:54:40Z</time></trkpt><trkpt lat="42.760545833064164" lon="2.639572886622385"><ele>236.8</ele><time>2026-03-29T17:54:41Z</time></trkpt><trkpt lat="42.760497710272844" lon="2.639448027891817"><ele>237.60000000000002</ele><time>2026-03-29T17:54:42Z</time></trkpt><trkpt lat="42.76045389215911" lon="2.6393288359906006"><ele>238.4</ele><time>2026-03-29T17:54:43Z</time></trkpt><trkpt lat="42.76040716291454" lon="2.639207837641544"><ele>239.2</ele><time>2026-03-29T17:54:44Z</time></trkpt><trkpt lat="42.76035434090646" lon="2.639081609359243"><ele>240.0</ele><time>2026-03-29T17:54:45Z</time></trkpt><trkpt lat="42.7602951218728" lon="2.6389565751314668"><ele>240.0</ele><time>2026-03-29T17:54:46Z</time></trkpt><trkpt lat="42.7602260230652" lon="2.638832374586399"><ele>240.0</ele><time>2026-03-29T17:54:47Z</time></trkpt><trkpt lat="42.76016333000688" lon="2.638723811478849"><ele>240.0</ele><time>2026-03-29T17:54:48Z</time></trkpt><trkpt lat="42.760107320130935" lon="2.638634893423545"><ele>240.0</ele><time>2026-03-29T17:54:49Z</time></trkpt><trkpt lat="42.76004714683032" lon="2.6385348076237944"><ele>240.0</ele><time>2026-03-29T17:54:50Z</time></trkpt><trkpt lat="42.75997450925494" lon="2.6384498049530927"><ele>240.8</ele><time>2026-03-29T17:54:51Z</time></trkpt><trkpt lat="42.75989381311488" lon="2.6383541950316087"><ele>241.6</ele><time>2026-03-29T17:54:52Z</time></trkpt><trkpt lat="42.75981562182701" lon="2.6382488642804076"><ele>242.39999999999998</ele><time>2026-03-29T17:54:53Z</time></trkpt><trkpt lat="42.75973175202161" lon="2.6381621391470453"><ele>243.2</ele><time>2026-03-29T17:54:54Z</time></trkpt><trkpt lat="42.75963327873859" lon="2.6380770644498335"><ele>244.0</ele><time>2026-03-29T17:54:55Z</time></trkpt><trkpt lat="42.759536147309056" lon="2.6379750245771256"><ele>244.0</ele><time>2026-03-29T17:54:56Z</time></trkpt><trkpt lat="42.75943854961932" lon="2.63785798801327"><ele>244.0</ele><time>2026-03-29T17:54:57Z</time></trkpt><trkpt lat="42.759330121483906" lon="2.6377172115836647"><ele>244.0</ele><time>2026-03-29T17:54:58Z</time></trkpt><trkpt lat="42.75923166072036" lon="2.637595031788569"><ele>244.0</ele><time>2026-03-29T17:54:59Z</time></trkpt><trkpt lat="42.75914905391668" lon="2.637481460162445"><ele>244.0</ele><time>2026-03-29T17:55:00Z</time></trkpt><trkpt lat="42.759082351794305" lon="2.637360743860566"><ele>244.0</ele><time>2026-03-29T17:55:01Z</time></trkpt><trkpt lat="42.7590361808996" lon="2.637222903762707"><ele>244.0</ele><time>2026-03-29T17:55:02Z</time></trkpt><trkpt lat="42.75901284140387" lon="2.6370720896312614"><ele>244.0</ele><time>2026-03-29T17:55:03Z</time></trkpt><trkpt lat="42.75900798453267" lon="2.6369074692098007"><ele>244.0</ele><time>2026-03-29T17:55:04Z</time></trkpt><trkpt lat="42.75899731921951" lon="2.636732609818327"><ele>243.99999999999997</ele><time>2026-03-29T17:55:05Z</time></trkpt><trkpt lat="42.758978060328644" lon="2.636583205598953"><ele>243.99999999999997</ele><time>2026-03-29T17:55:06Z</time></trkpt><trkpt lat="42.75894730374379" lon="2.6364616149552242"><ele>244.0</ele><time>2026-03-29T17:55:07Z</time></trkpt><trkpt lat="42.758901687618774" lon="2.63634038602896"><ele>244.0</ele><time>2026-03-29T17:55:08Z</time></trkpt><trkpt lat="42.758849103269405" lon="2.6362272050987263"><ele>243.6</ele><time>2026-03-29T17:55:09Z</time></trkpt><trkpt lat="42.758798903205346" lon="2.6361158685804984"><ele>243.2</ele><time>2026-03-29T17:55:10Z</time></trkpt><trkpt lat="42.75874945410345" lon="2.6359872931241353"><ele>242.79999999999998</ele><time>2026-03-29T17:55:11Z</time></trkpt><trkpt lat="42.75869781436683" lon="2.6358527822714595"><ele>242.39999999999998</ele><time>2026-03-29T17:55:12Z</time></trkpt><trkpt lat="42.75865001119787" lon="2.635711765909993"><ele>242.0</ele><time>2026-03-29T17:55:13Z</time></trkpt><trkpt lat="42.75860341162025" lon="2.6355656395083185"><ele>242.0</ele><time>2026-03-29T17:55:14Z</time></trkpt><trkpt lat="42.7585623074989" lon="2.6354143560465855"><ele>242.0</ele><time>2026-03-29T17:55:15Z</time></trkpt><trkpt lat="42.75852975082493" lon="2.635254033165866"><ele>242.0</ele><time>2026-03-29T17:55:16Z</time></trkpt><trkpt lat="42.758498887938266" lon="2.6350944847914235"><ele>242.0</ele><time>2026-03-29T17:55:17Z</time></trkpt><trkpt lat="42.75846976999391" lon="2.6349339834625787"><ele>244.0</ele><time>2026-03-29T17:55:18Z</time></trkpt><trkpt lat="42.75842151411805" lon="2.6347812555180434"><ele>246.0</ele><time>2026-03-29T17:55:19Z</time></trkpt><trkpt lat="42.758366899910314" lon="2.6346319192528913"><ele>248.0</ele><time>2026-03-29T17:55:20Z</time></trkpt><trkpt lat="42.75832577902496" lon="2.6344801663980153"><ele>250.0</ele><time>2026-03-29T17:55:21Z</time></trkpt><trkpt lat="42.75830118915416" lon="2.634336829022877"><ele>250.25</ele><time>2026-03-29T17:55:22Z</time></trkpt><trkpt lat="42.75827085812833" lon="2.634204958047728"><ele>250.5</ele><time>2026-03-29T17:55:23Z</time></trkpt><trkpt lat="42.75820522955608" lon="2.634086479747017"><ele>250.75</ele><time>2026-03-29T17:55:24Z</time></trkpt><trkpt lat="42.75811323279867" lon="2.633971530794056"><ele>251.0</ele><time>2026-03-29T17:55:25Z</time></trkpt><trkpt lat="42.75801949463185" lon="2.6338587165761393"><ele>251.0</ele><time>2026-03-29T17:55:26Z</time></trkpt><trkpt lat="42.757941605751085" lon="2.6337422572229983"><ele>251.00000000000003</ele><time>2026-03-29T17:55:27Z</time></trkpt><trkpt lat="42.75786763740056" lon="2.633630077113367"><ele>251.00000000000003</ele><time>2026-03-29T17:55:28Z</time></trkpt><trkpt lat="42.75778699891897" lon="2.6335293943164695"><ele>251.0</ele><time>2026-03-29T17:55:29Z</time></trkpt><trkpt lat="42.75771492170214" lon="2.6334332604839923"><ele>251.0</ele><time>2026-03-29T17:55:30Z</time></trkpt><trkpt lat="42.757633265250576" lon="2.633309825225827"><ele>252.75</ele><time>2026-03-29T17:55:31Z</time></trkpt><trkpt lat="42.75756263329483" lon="2.6331766246313766"><ele>254.5</ele><time>2026-03-29T17:55:32Z</time></trkpt><trkpt lat="42.757486768355164" lon="2.633044704573847"><ele>256.25</ele><time>2026-03-29T17:55:33Z</time></trkpt><trkpt lat="42.757409264889226" lon="2.632915703268368"><ele>258.0</ele><time>2026-03-29T17:55:34Z</time></trkpt><trkpt lat="42.75733173190781" lon="2.632798767347807"><ele>258.6</ele><time>2026-03-29T17:55:35Z</time></trkpt><trkpt lat="42.757254439131856" lon="2.6326849010512627"><ele>259.20000000000005</ele><time>2026-03-29T17:55:36Z</time></trkpt><trkpt lat="42.757180529848796" lon="2.63257067803641"><ele>259.8</ele><time>2026-03-29T17:55:37Z</time></trkpt><trkpt lat="42.757113389348774" lon="2.632470702421063"><ele>260.40000000000003</ele><time>2026-03-29T17:55:38Z</time></trkpt><trkpt lat="42.75703813065374" lon="2.632366796231812"><ele>261.0</ele><time>2026-03-29T17:55:39Z</time></trkpt><trkpt lat="42.75696880461521" lon="2.6322720277616405"><ele>261.0</ele><time>2026-03-29T17:55:40Z</time></trkpt><trkpt lat="42.75690142957502" lon="2.6321788220585347"><ele>261.0</ele><time>2026-03-29T17:55:41Z</time></trkpt><trkpt lat="42.756845587061406" lon="2.632095428125714"><ele>261.0</ele><time>2026-03-29T17:55:42Z</time></trkpt><trkpt lat="42.7567714533076" lon="2.63199452226216"><ele>261.0</ele><time>2026-03-29T17:55:43Z</time></trkpt><trkpt lat="42.756701523205976" lon="2.631883913093713"><ele>261.0</ele><time>2026-03-29T17:55:44Z</time></trkpt><trkpt lat="42.756621088154766" lon="2.631778899691322"><ele>262.25</ele><time>2026-03-29T17:55:45Z</time></trkpt><trkpt lat="42.75653715753898" lon="2.6316714326095116"><ele>263.5</ele><time>2026-03-29T17:55:46Z</time></trkpt><trkpt lat="42.75645665787671" lon="2.631557476574965"><ele>264.75</ele><time>2026-03-29T17:55:47Z</time></trkpt><trkpt lat="42.75636990627379" lon="2.631437894536904"><ele>266.0</ele><time>2026-03-29T17:55:48Z</time></trkpt><trkpt lat="42.75627709929229" lon="2.631320170855764"><ele>266.0</ele><time>2026-03-29T17:55:48.999Z</time></trkpt><trkpt lat="42.75619411267396" lon="2.6312000387239993"><ele>266.0</ele><time>2026-03-29T17:55:49.999Z</time></trkpt><trkpt lat="42.756123529711424" lon="2.6310702893142017"><ele>266.0</ele><time>2026-03-29T17:55:50.999Z</time></trkpt><trkpt lat="42.756073390939505" lon="2.6309316586408773"><ele>266.0</ele><time>2026-03-29T17:55:51.999Z</time></trkpt><trkpt lat="42.75602650033384" lon="2.630793222600204"><ele>267.5</ele><time>2026-03-29T17:55:52.999Z</time></trkpt><trkpt lat="42.755962808695564" lon="2.630648675188853"><ele>269.0</ele><time>2026-03-29T17:55:53.999Z</time></trkpt><trkpt lat="42.755890441900576" lon="2.63051361148931"><ele>270.5</ele><time>2026-03-29T17:55:54.999Z</time></trkpt><trkpt lat="42.75580314519504" lon="2.6303936741881135"><ele>272.0</ele><time>2026-03-29T17:55:55.999Z</time></trkpt><trkpt lat="42.75570720539105" lon="2.630279878550345"><ele>272.0</ele><time>2026-03-29T17:55:56.999Z</time></trkpt><trkpt lat="42.755604204186604" lon="2.6301930753724045"><ele>272.0</ele><time>2026-03-29T17:55:57.999Z</time></trkpt><trkpt lat="42.75549980682238" lon="2.630126385956114"><ele>272.0</ele><time>2026-03-29T17:55:58.999Z</time></trkpt><trkpt lat="42.755402097390686" lon="2.6300603410359202"><ele>272.0</ele><time>2026-03-29T17:55:59.999Z</time></trkpt><trkpt lat="42.755307728328965" lon="2.6299746445900456"><ele>272.0</ele><time>2026-03-29T17:56:00.999Z</time></trkpt><trkpt lat="42.75522055051553" lon="2.6298641106018774"><ele>272.0</ele><time>2026-03-29T17:56:01.999Z</time></trkpt><trkpt lat="42.75513511546" lon="2.62975019530398"><ele>272.0</ele><time>2026-03-29T17:56:02.999Z</time></trkpt><trkpt lat="42.75505131698638" lon="2.6296359204374022"><ele>272.0</ele><time>2026-03-29T17:56:03.999Z</time></trkpt><trkpt lat="42.75497602096598" lon="2.629533412771481"><ele>273.2</ele><time>2026-03-29T17:56:04.999Z</time></trkpt><trkpt lat="42.75490960708669" lon="2.629443558234442"><ele>274.4</ele><time>2026-03-29T17:56:05.999Z</time></trkpt><trkpt lat="42.7548409512835" lon="2.629349505675173"><ele>275.6</ele><time>2026-03-29T17:56:06.999Z</time></trkpt><trkpt lat="42.754761369235545" lon="2.6292361567009106"><ele>276.8</ele><time>2026-03-29T17:56:07.999Z</time></trkpt><trkpt lat="42.754674824890095" lon="2.629112299573407"><ele>278.0</ele><time>2026-03-29T17:56:08.999Z</time></trkpt><trkpt lat="42.7545828950086" lon="2.6289919952550114"><ele>278.0</ele><time>2026-03-29T17:56:09.999Z</time></trkpt><trkpt lat="42.75449791592953" lon="2.6288784806680714"><ele>278.0</ele><time>2026-03-29T17:56:10.999Z</time></trkpt><trkpt lat="42.7544261822546" lon="2.6287692751962686"><ele>278.0</ele><time>2026-03-29T17:56:11.999Z</time></trkpt><trkpt lat="42.754381706666976" lon="2.628622957729294"><ele>278.0</ele><time>2026-03-29T17:56:12.999Z</time></trkpt><trkpt lat="42.75431874651049" lon="2.628487006254026"><ele>278.2</ele><time>2026-03-29T17:56:13.999Z</time></trkpt><trkpt lat="42.75428643999391" lon="2.6283247329875143"><ele>278.4</ele><time>2026-03-29T17:56:14.999Z</time></trkpt><trkpt lat="42.75428525301939" lon="2.628158703476887"><ele>278.59999999999997</ele><time>2026-03-29T17:56:15.999Z</time></trkpt><trkpt lat="42.75428696760193" lon="2.6280196604065247"><ele>278.8</ele><time>2026-03-29T17:56:16.999Z</time></trkpt><trkpt lat="42.754306679517285" lon="2.627897323492552"><ele>279.0</ele><time>2026-03-29T17:56:17.999Z</time></trkpt><trkpt lat="42.75431393526725" lon="2.6277299823405302"><ele>279.0</ele><time>2026-03-29T17:56:18.999Z</time></trkpt><trkpt lat="42.754338975165375" lon="2.6275337054345087"><ele>279.0</ele><time>2026-03-29T17:56:19.999Z</time></trkpt><trkpt lat="42.75434851938941" lon="2.627345800299025"><ele>279.0</ele><time>2026-03-29T17:56:20.999Z</time></trkpt><trkpt lat="42.754359091799536" lon="2.627177111815232"><ele>279.0</ele><time>2026-03-29T17:56:21.999Z</time></trkpt><trkpt lat="42.75436552820787" lon="2.627048431739508"><ele>279.8</ele><time>2026-03-29T17:56:22.999Z</time></trkpt><trkpt lat="42.75435126564022" lon="2.626937367956481"><ele>280.59999999999997</ele><time>2026-03-29T17:56:23.999Z</time></trkpt><trkpt lat="42.754238637834824" lon="2.6268283546923494"><ele>281.4</ele><time>2026-03-29T17:56:25.999Z</time></trkpt><trkpt lat="42.75416167774033" lon="2.6267637894458185"><ele>282.2</ele><time>2026-03-29T17:56:26.999Z</time></trkpt><trkpt lat="42.7541373961033" lon="2.626658934944416"><ele>283.0</ele><time>2026-03-29T17:56:27.999Z</time></trkpt><trkpt lat="42.754138890714316" lon="2.626529845336548"><ele>283.0</ele><time>2026-03-29T17:56:28.999Z</time></trkpt><trkpt lat="42.754140057237755" lon="2.6263660032402907"><ele>283.0</ele><time>2026-03-29T17:56:29.999Z</time></trkpt><trkpt lat="42.75414004042506" lon="2.626202872443435"><ele>283.0</ele><time>2026-03-29T17:56:30.999Z</time></trkpt><trkpt lat="42.75410494313372" lon="2.626057448349135"><ele>283.0</ele><time>2026-03-29T17:56:31.999Z</time></trkpt><trkpt lat="42.75408173686602" lon="2.625952572732745"><ele>283.0</ele><time>2026-03-29T17:56:32.999Z</time></trkpt><trkpt lat="42.75411240802011" lon="2.625823953840239"><ele>283.2</ele><time>2026-03-29T17:56:33.999Z</time></trkpt><trkpt lat="42.75415449815853" lon="2.625683070598947"><ele>283.4</ele><time>2026-03-29T17:56:34.999Z</time></trkpt><trkpt lat="42.754187315253105" lon="2.6255409482174916"><ele>283.59999999999997</ele><time>2026-03-29T17:56:35.999Z</time></trkpt><trkpt lat="42.75427827669096" lon="2.6255403067056444"><ele>283.8</ele><time>2026-03-29T17:56:36.999Z</time></trkpt><trkpt lat="42.754350010169404" lon="2.6254636342825486"><ele>284.0</ele><time>2026-03-29T17:56:37.999Z</time></trkpt><trkpt lat="42.754405793507715" lon="2.625366645672373"><ele>283.0</ele><time>2026-03-29T17:56:38.999Z</time></trkpt><trkpt lat="42.75446515502124" lon="2.6252585327141587"><ele>282.0</ele><time>2026-03-29T17:56:40Z</time></trkpt><trkpt lat="42.75450994205348" lon="2.625155261399938"><ele>281.0</ele><time>2026-03-29T17:56:41Z</time></trkpt><trkpt lat="42.75453077844894" lon="2.625055855136075"><ele>280.0</ele><time>2026-03-29T17:56:42Z</time></trkpt><trkpt lat="42.754519406229306" lon="2.624962265265363"><ele>279.0</ele><time>2026-03-29T17:56:43Z</time></trkpt><trkpt lat="42.75448560654572" lon="2.6248798104227338"><ele>278.0</ele><time>2026-03-29T17:56:44Z</time></trkpt><trkpt lat="42.75440979911689" lon="2.6248042952987984"><ele>279.25</ele><time>2026-03-29T17:56:45Z</time></trkpt><trkpt lat="42.754333496964556" lon="2.6247204810088496"><ele>280.5</ele><time>2026-03-29T17:56:46Z</time></trkpt><trkpt lat="42.75424650479716" lon="2.6246223991775466"><ele>281.75</ele><time>2026-03-29T17:56:47Z</time></trkpt><trkpt lat="42.75413988682566" lon="2.624509252782687"><ele>283.0</ele><time>2026-03-29T17:56:48Z</time></trkpt><trkpt lat="42.7540446273789" lon="2.6243987681597916"><ele>283.0</ele><time>2026-03-29T17:56:49Z</time></trkpt><trkpt lat="42.75398500852485" lon="2.6243175195933417"><ele>283.0</ele><time>2026-03-29T17:56:50Z</time></trkpt><trkpt lat="42.75395941347978" lon="2.6242352505015023"><ele>283.0</ele><time>2026-03-29T17:56:51Z</time></trkpt><trkpt lat="42.753951103364706" lon="2.62411616491626"><ele>283.0</ele><time>2026-03-29T17:56:52Z</time></trkpt><trkpt lat="42.75393862986636" lon="2.62392472955781"><ele>283.0</ele><time>2026-03-29T17:56:53Z</time></trkpt><trkpt lat="42.753923149259684" lon="2.623715014450124"><ele>282.66666666666663</ele><time>2026-03-29T17:56:54Z</time></trkpt><trkpt lat="42.75392110544696" lon="2.623501215584818"><ele>282.3333333333333</ele><time>2026-03-29T17:56:55Z</time></trkpt><trkpt lat="42.75393106570062" lon="2.6232419255282977"><ele>282.0</ele><time>2026-03-29T17:56:56Z</time></trkpt><trkpt lat="42.753931512681156" lon="2.622994266134701"><ele>282.5</ele><time>2026-03-29T17:56:57Z</time></trkpt><trkpt lat="42.753920741096756" lon="2.622808455747572"><ele>283.0</ele><time>2026-03-29T17:56:58Z</time></trkpt><trkpt lat="42.75388916281564" lon="2.622623887731788"><ele>283.5</ele><time>2026-03-29T17:56:59Z</time></trkpt><trkpt lat="42.753868240765556" lon="2.6224658820742914"><ele>284.0</ele><time>2026-03-29T17:57:00Z</time></trkpt><trkpt lat="42.7538619306303" lon="2.622328088231585"><ele>284.0</ele><time>2026-03-29T17:57:01Z</time></trkpt><trkpt lat="42.753888477466994" lon="2.6221557349749256"><ele>284.0</ele><time>2026-03-29T17:57:02Z</time></trkpt><trkpt lat="42.753904765745325" lon="2.621993729926699"><ele>284.0</ele><time>2026-03-29T17:57:03Z</time></trkpt><trkpt lat="42.753878874278854" lon="2.621864681183694"><ele>284.0</ele><time>2026-03-29T17:57:04Z</time></trkpt><trkpt lat="42.753821133491904" lon="2.6217492868810712"><ele>284.2</ele><time>2026-03-29T17:57:05Z</time></trkpt><trkpt lat="42.75374867847278" lon="2.6216240745193717"><ele>284.4</ele><time>2026-03-29T17:57:06Z</time></trkpt><trkpt lat="42.75368576884813" lon="2.6215271395988253"><ele>284.6</ele><time>2026-03-29T17:57:07Z</time></trkpt><trkpt lat="42.75360143753419" lon="2.6215212732942637"><ele>284.8</ele><time>2026-03-29T17:57:09Z</time></trkpt><trkpt lat="42.753458671653284" lon="2.6215942040558216"><ele>285.0</ele><time>2026-03-29T17:57:11Z</time></trkpt><trkpt lat="42.75339829116644" lon="2.621509085788656"><ele>286.6</ele><time>2026-03-29T17:57:12Z</time></trkpt><trkpt lat="42.75330602424903" lon="2.6214447731950763"><ele>288.2</ele><time>2026-03-29T17:57:13Z</time></trkpt><trkpt lat="42.753201106450845" lon="2.6214201294068546"><ele>289.8</ele><time>2026-03-29T17:57:14Z</time></trkpt><trkpt lat="42.75309898785845" lon="2.6214373377729374"><ele>291.4</ele><time>2026-03-29T17:57:15Z</time></trkpt><trkpt lat="42.75298486461036" lon="2.621439203177828"><ele>293.0</ele><time>2026-03-29T17:57:16Z</time></trkpt><trkpt lat="42.752880383915425" lon="2.6213766835810053"><ele>293.0</ele><time>2026-03-29T17:57:17Z</time></trkpt><trkpt lat="42.75277899429249" lon="2.621385790091511"><ele>293.0</ele><time>2026-03-29T17:57:18Z</time></trkpt><trkpt lat="42.75266029691168" lon="2.6214401038547757"><ele>293.0</ele><time>2026-03-29T17:57:19Z</time></trkpt><trkpt lat="42.75252802894642" lon="2.6214760212178083"><ele>293.0</ele><time>2026-03-29T17:57:20Z</time></trkpt><trkpt lat="42.75243118946731" lon="2.62148048860566"><ele>294.4</ele><time>2026-03-29T17:57:21Z</time></trkpt><trkpt lat="42.75236360685179" lon="2.621492065756514"><ele>295.8</ele><time>2026-03-29T17:57:22Z</time></trkpt><trkpt lat="42.752296296280456" lon="2.6215357689061904"><ele>297.2</ele><time>2026-03-29T17:57:23Z</time></trkpt><trkpt lat="42.752211809024246" lon="2.6215921099897774"><ele>298.6</ele><time>2026-03-29T17:57:24Z</time></trkpt><trkpt lat="42.75209245168628" lon="2.621661498372272"><ele>300.0</ele><time>2026-03-29T17:57:25Z</time></trkpt><trkpt lat="42.751984500640425" lon="2.6217176685860797"><ele>300.0</ele><time>2026-03-29T17:57:26Z</time></trkpt><trkpt lat="42.75189875440606" lon="2.6217387934587464"><ele>300.0</ele><time>2026-03-29T17:57:27Z</time></trkpt><trkpt lat="42.75179480605961" lon="2.6217332742219206"><ele>300.0</ele><time>2026-03-29T17:57:28Z</time></trkpt><trkpt lat="42.75165565132997" lon="2.6217264183590956"><ele>300.0</ele><time>2026-03-29T17:57:29Z</time></trkpt><trkpt lat="42.75148523572978" lon="2.6217346448600534"><ele>299.5</ele><time>2026-03-29T17:57:30Z</time></trkpt><trkpt lat="42.75132720467772" lon="2.621744733730371"><ele>299.0</ele><time>2026-03-29T17:57:31Z</time></trkpt><trkpt lat="42.75120826120307" lon="2.621746057417904"><ele>298.5</ele><time>2026-03-29T17:57:32Z</time></trkpt><trkpt lat="42.75110484635816" lon="2.621769661281813"><ele>298.0</ele><time>2026-03-29T17:57:33Z</time></trkpt><trkpt lat="42.75097856805801" lon="2.6218071067314175"><ele>297.6</ele><time>2026-03-29T17:57:34Z</time></trkpt><trkpt lat="42.75084760522413" lon="2.6218503109641387"><ele>297.20000000000005</ele><time>2026-03-29T17:57:35Z</time></trkpt><trkpt lat="42.75075152998337" lon="2.621887652190892"><ele>296.8</ele><time>2026-03-29T17:57:36Z</time></trkpt><trkpt lat="42.7506865264869" lon="2.6219285020487653"><ele>296.40000000000003</ele><time>2026-03-29T17:57:37Z</time></trkpt><trkpt lat="42.75065511955044" lon="2.62203074713948"><ele>296.0</ele><time>2026-03-29T17:57:47Z</time></trkpt><trkpt lat="42.75065706392344" lon="2.6221321326446505"><ele>299.25</ele><time>2026-03-29T17:57:48Z</time></trkpt><trkpt lat="42.750699897035126" lon="2.622297865198464"><ele>302.5</ele><time>2026-03-29T17:57:49.999Z</time></trkpt><trkpt lat="42.750729525254734" lon="2.622429891486"><ele>305.75</ele><time>2026-03-29T17:57:50.999Z</time></trkpt><trkpt lat="42.7507544384855" lon="2.6225810585168907"><ele>309.0</ele><time>2026-03-29T17:57:51.999Z</time></trkpt><trkpt lat="42.75072461617773" lon="2.6227269879648167"><ele>309.0</ele><time>2026-03-29T17:57:53.999Z</time></trkpt><trkpt lat="42.750669448152756" lon="2.6227961585695097"><ele>309.0</ele><time>2026-03-29T17:57:54.999Z</time></trkpt><trkpt lat="42.75060711114881" lon="2.6228687453176356"><ele>309.0</ele><time>2026-03-29T17:57:55.999Z</time></trkpt><trkpt lat="42.7505596634208" lon="2.622935493664534"><ele>309.0</ele><time>2026-03-29T17:57:56.999Z</time></trkpt><trkpt lat="42.750493002905955" lon="2.6230337444686893"><ele>309.0</ele><time>2026-03-29T17:57:57.999Z</time></trkpt><trkpt lat="42.750407479023615" lon="2.6231191394513047"><ele>309.0</ele><time>2026-03-29T17:57:58.999Z</time></trkpt><trkpt lat="42.750310846774205" lon="2.623170524322303"><ele>310.0</ele><time>2026-03-29T17:57:59.999Z</time></trkpt><trkpt lat="42.750200840958875" lon="2.623191167385888"><ele>311.0</ele><time>2026-03-29T17:58:01.999Z</time></trkpt><trkpt lat="42.75008040192892" lon="2.623315924291808"><ele>312.0</ele><time>2026-03-29T17:58:03.999Z</time></trkpt><trkpt lat="42.75002104948335" lon="2.62338951021625"><ele>313.0</ele><time>2026-03-29T17:58:04.999Z</time></trkpt><trkpt lat="42.7499451544615" lon="2.623519656374152"><ele>313.0</ele><time>2026-03-29T17:58:06.999Z</time></trkpt><trkpt lat="42.749929157975956" lon="2.623607108194836"><ele>313.0</ele><time>2026-03-29T17:58:07.999Z</time></trkpt><trkpt lat="42.74990184025513" lon="2.6237256968888922"><ele>313.0</ele><time>2026-03-29T17:58:08.999Z</time></trkpt><trkpt lat="42.74988869767639" lon="2.6238112509306295"><ele>313.0</ele><time>2026-03-29T17:58:09.999Z</time></trkpt><trkpt lat="42.749799697701974" lon="2.623906221659582"><ele>313.0</ele><time>2026-03-29T17:58:11.999Z</time></trkpt><trkpt lat="42.74971754315034" lon="2.6239253116873513"><ele>313.0</ele><time>2026-03-29T17:58:12.999Z</time></trkpt><trkpt lat="42.74961626044799" lon="2.623941923253221"><ele>313.0</ele><time>2026-03-29T17:58:13.999Z</time></trkpt><trkpt lat="42.749509121063795" lon="2.6239528165995325"><ele>313.0</ele><time>2026-03-29T17:58:14.999Z</time></trkpt><trkpt lat="42.74942143013269" lon="2.6239342429174015"><ele>313.0</ele><time>2026-03-29T17:58:15.999Z</time></trkpt><trkpt lat="42.74935314473987" lon="2.6238709436843775"><ele>313.0</ele><time>2026-03-29T17:58:16.999Z</time></trkpt><trkpt lat="42.74929946292643" lon="2.6237483721769483"><ele>313.0</ele><time>2026-03-29T17:58:17.999Z</time></trkpt><trkpt lat="42.749206611149205" lon="2.6236214313125057"><ele>313.0</ele><time>2026-03-29T17:58:18.999Z</time></trkpt><trkpt lat="42.749125099667644" lon="2.623516489235178"><ele>313.0</ele><time>2026-03-29T17:58:19.999Z</time></trkpt><trkpt lat="42.749058351459134" lon="2.623456240405306"><ele>313.0</ele><time>2026-03-29T17:58:20.999Z</time></trkpt><trkpt lat="42.74895494827078" lon="2.623499297842065"><ele>313.0</ele><time>2026-03-29T17:58:22.999Z</time></trkpt><trkpt lat="42.74888122299148" lon="2.623527710134348"><ele>313.0</ele><time>2026-03-29T17:58:23.999Z</time></trkpt><trkpt lat="42.74880011702566" lon="2.623539514980417"><ele>313.0</ele><time>2026-03-29T17:58:24.999Z</time></trkpt><trkpt lat="42.74871731035039" lon="2.6235257124418907"><ele>313.0</ele><time>2026-03-29T17:58:25.999Z</time></trkpt><trkpt lat="42.74864563846652" lon="2.6235043269584324"><ele>313.0</ele><time>2026-03-29T17:58:26.999Z</time></trkpt><trkpt lat="42.748611972742964" lon="2.6236040754195544"><ele>313.0</ele><time>2026-03-29T17:58:52Z</time></trkpt><trkpt lat="42.74861951983202" lon="2.6237212489333386"><ele>313.0</ele><time>2026-03-29T17:58:54Z</time></trkpt><trkpt lat="42.74863140868569" lon="2.6238324946464022"><ele>313.0</ele><time>2026-03-29T17:58:55Z</time></trkpt><trkpt lat="42.748589326506576" lon="2.6239143205183146"><ele>316.66666666666663</ele><time>2026-03-29T17:58:57Z</time></trkpt><trkpt lat="42.74849752901419" lon="2.6239250223063357"><ele>320.3333333333333</ele><time>2026-03-29T17:59:00Z</time></trkpt><trkpt lat="42.74843375866796" lon="2.62386862032238"><ele>324.0</ele><time>2026-03-29T17:59:01Z</time></trkpt><trkpt lat="42.74835594652568" lon="2.6237916619329176"><ele>327.6666666666667</ele><time>2026-03-29T17:59:02Z</time></trkpt><trkpt lat="42.74827871948358" lon="2.6237946750378445"><ele>331.33333333333337</ele><time>2026-03-29T17:59:03Z</time></trkpt><trkpt lat="42.748190428314246" lon="2.6238184345791518"><ele>335.0</ele><time>2026-03-29T17:59:04Z</time></trkpt><trkpt lat="42.74807141627267" lon="2.623879159747745"><ele>335.0</ele><time>2026-03-29T17:59:05Z</time></trkpt><trkpt lat="42.74795047027436" lon="2.6239555736638565"><ele>335.0</ele><time>2026-03-29T17:59:06Z</time></trkpt><trkpt lat="42.74785213530724" lon="2.6240239863788646"><ele>335.0</ele><time>2026-03-29T17:59:07Z</time></trkpt><trkpt lat="42.74778605352996" lon="2.624109236364866"><ele>335.0</ele><time>2026-03-29T17:59:08Z</time></trkpt><trkpt lat="42.74773010792983" lon="2.6241666021127017"><ele>335.0</ele><time>2026-03-29T17:59:09Z</time></trkpt><trkpt lat="42.74765975293769" lon="2.6242115410697022"><ele>336.0</ele><time>2026-03-29T17:59:10Z</time></trkpt><trkpt lat="42.74755534705615" lon="2.6241690766660835"><ele>337.0</ele><time>2026-03-29T17:59:12Z</time></trkpt><trkpt lat="42.74746655108963" lon="2.6241664081148777"><ele>338.0</ele><time>2026-03-29T17:59:13Z</time></trkpt><trkpt lat="42.747380950321705" lon="2.6241870428325917"><ele>339.0</ele><time>2026-03-29T17:59:14Z</time></trkpt><trkpt lat="42.747292420994086" lon="2.6241964746375936"><ele>340.0</ele><time>2026-03-29T17:59:15Z</time></trkpt><trkpt lat="42.74719320596128" lon="2.624194400458539"><ele>340.0</ele><time>2026-03-29T17:59:16Z</time></trkpt><trkpt lat="42.74710970649619" lon="2.6241506569644173"><ele>340.0</ele><time>2026-03-29T17:59:17Z</time></trkpt><trkpt lat="42.747038906576606" lon="2.6241533356787192"><ele>340.0</ele><time>2026-03-29T17:59:18Z</time></trkpt><trkpt lat="42.74694558149066" lon="2.624175200482507"><ele>340.0</ele><time>2026-03-29T17:59:20Z</time></trkpt><trkpt lat="42.74684366653644" lon="2.624312714538491"><ele>340.0</ele><time>2026-03-29T17:59:22Z</time></trkpt><trkpt lat="42.746775143782735" lon="2.6244210040002227"><ele>338.8333333333333</ele><time>2026-03-29T17:59:23Z</time></trkpt><trkpt lat="42.74671081218609" lon="2.6245046189586603"><ele>337.66666666666663</ele><time>2026-03-29T17:59:24Z</time></trkpt><trkpt lat="42.74664892333299" lon="2.624589808507122"><ele>336.5</ele><time>2026-03-29T17:59:25Z</time></trkpt><trkpt lat="42.7465862795899" lon="2.6246735878693244"><ele>335.3333333333333</ele><time>2026-03-29T17:59:26Z</time></trkpt><trkpt lat="42.74652221206179" lon="2.624755781465496"><ele>334.1666666666667</ele><time>2026-03-29T17:59:27Z</time></trkpt><trkpt lat="42.74646237386062" lon="2.6248323092127968"><ele>333.0</ele><time>2026-03-29T17:59:28Z</time></trkpt><trkpt lat="42.74640451509887" lon="2.6248993871187385"><ele>333.0</ele><time>2026-03-29T17:59:29Z</time></trkpt><trkpt lat="42.746340773132346" lon="2.624978884171406"><ele>333.0</ele><time>2026-03-29T17:59:30Z</time></trkpt><trkpt lat="42.746279676520054" lon="2.6250387171994025"><ele>333.0</ele><time>2026-03-29T17:59:31Z</time></trkpt><trkpt lat="42.74620663454863" lon="2.625044478000377"><ele>333.0</ele><time>2026-03-29T17:59:32Z</time></trkpt><trkpt lat="42.74608022139204" lon="2.625070726379701"><ele>333.0</ele><time>2026-03-29T17:59:34Z</time></trkpt><trkpt lat="42.7460265240752" lon="2.625148438577954"><ele>333.0</ele><time>2026-03-29T17:59:35Z</time></trkpt><trkpt lat="42.74598592593059" lon="2.625288015675179"><ele>332.4</ele><time>2026-03-29T17:59:36Z</time></trkpt><trkpt lat="42.745919382922914" lon="2.625448403048043"><ele>331.79999999999995</ele><time>2026-03-29T17:59:37Z</time></trkpt><trkpt lat="42.745878330262215" lon="2.6255931761909377"><ele>331.2</ele><time>2026-03-29T17:59:38Z</time></trkpt><trkpt lat="42.74584324989475" lon="2.625704477922609"><ele>330.6</ele><time>2026-03-29T17:59:39Z</time></trkpt><trkpt lat="42.745809589034394" lon="2.6257814821418037"><ele>330.0</ele><time>2026-03-29T17:59:40Z</time></trkpt><trkpt lat="42.74572565089756" lon="2.6258650942953885"><ele>330.0</ele><time>2026-03-29T17:59:41.999Z</time></trkpt><trkpt lat="42.74563144946486" lon="2.625856129673369"><ele>330.0</ele><time>2026-03-29T17:59:43.999Z</time></trkpt><trkpt lat="42.745548847417375" lon="2.6259728363027626"><ele>330.0</ele><time>2026-03-29T17:59:45.999Z</time></trkpt><trkpt lat="42.74551976816178" lon="2.6261067447960436"><ele>330.0</ele><time>2026-03-29T17:59:50.999Z</time></trkpt><trkpt lat="42.74556200981507" lon="2.6261981093904154"><ele>330.0</ele><time>2026-03-29T17:59:51.999Z</time></trkpt><trkpt lat="42.74560569193271" lon="2.626301013998213"><ele>329.25</ele><time>2026-03-29T17:59:52.999Z</time></trkpt><trkpt lat="42.74565940135686" lon="2.626485579183472"><ele>328.5</ele><time>2026-03-29T17:59:53.999Z</time></trkpt><trkpt lat="42.74567122466592" lon="2.626672212452761"><ele>327.75</ele><time>2026-03-29T17:59:54.999Z</time></trkpt><trkpt lat="42.74570719634644" lon="2.6268089586335104"><ele>327.0</ele><time>2026-03-29T17:59:55.999Z</time></trkpt><trkpt lat="42.745718511514895" lon="2.626942948911451"><ele>326.6</ele><time>2026-03-29T17:59:56.999Z</time></trkpt><trkpt lat="42.74570488129744" lon="2.6270652800706094"><ele>326.20000000000005</ele><time>2026-03-29T17:59:57.999Z</time></trkpt><trkpt lat="42.745713195142606" lon="2.627171703161181"><ele>325.8</ele><time>2026-03-29T17:59:58.999Z</time></trkpt><trkpt lat="42.74569645970494" lon="2.627269494126935"><ele>325.4</ele><time>2026-03-29T17:59:59.999Z</time></trkpt><trkpt lat="42.74568541717805" lon="2.627381339453208"><ele>325.0</ele><time>2026-03-29T18:00:00.999Z</time></trkpt><trkpt lat="42.74567012173655" lon="2.627576259887076"><ele>323.3333333333333</ele><time>2026-03-29T18:00:01.999Z</time></trkpt><trkpt lat="42.74563981179436" lon="2.62786210412439"><ele>321.6666666666667</ele><time>2026-03-29T18:00:02.999Z</time></trkpt><trkpt lat="42.74561093918191" lon="2.628145560973146"><ele>320.0</ele><time>2026-03-29T18:00:03.999Z</time></trkpt><trkpt lat="42.745594732804484" lon="2.628372237056645"><ele>320.0</ele><time>2026-03-29T18:00:04.999Z</time></trkpt><trkpt lat="42.74562242678922" lon="2.6285598540505917"><ele>320.0</ele><time>2026-03-29T18:00:05.999Z</time></trkpt><trkpt lat="42.74564344237739" lon="2.628742712631058"><ele>320.0</ele><time>2026-03-29T18:00:06.999Z</time></trkpt><trkpt lat="42.74563899851961" lon="2.6288882262205036"><ele>320.0</ele><time>2026-03-29T18:00:07.999Z</time></trkpt><trkpt lat="42.74564413788611" lon="2.6289814931411413"><ele>318.6666666666667</ele><time>2026-03-29T18:00:08.999Z</time></trkpt><trkpt lat="42.745656131330755" lon="2.6291721943542337"><ele>317.3333333333333</ele><time>2026-03-29T18:00:10.999Z</time></trkpt><trkpt lat="42.745678324414804" lon="2.629393960895291"><ele>316.0</ele><time>2026-03-29T18:00:11.999Z</time></trkpt><trkpt lat="42.74573726059781" lon="2.6296461039416243"><ele>315.3333333333333</ele><time>2026-03-29T18:00:12.999Z</time></trkpt><trkpt lat="42.74577647312945" lon="2.6298635676829853"><ele>314.6666666666667</ele><time>2026-03-29T18:00:13.999Z</time></trkpt><trkpt lat="42.74578609545564" lon="2.6300993115198676"><ele>314.0</ele><time>2026-03-29T18:00:14.999Z</time></trkpt><trkpt lat="42.745789150420954" lon="2.630322878973428"><ele>313.5</ele><time>2026-03-29T18:00:15.999Z</time></trkpt><trkpt lat="42.74579251955069" lon="2.630521939288853"><ele>313.0</ele><time>2026-03-29T18:00:16.999Z</time></trkpt><trkpt lat="42.74581260189527" lon="2.630696359353736"><ele>312.5</ele><time>2026-03-29T18:00:17.999Z</time></trkpt><trkpt lat="42.745813767363444" lon="2.630894018756142"><ele>312.0</ele><time>2026-03-29T18:00:18.999Z</time></trkpt><trkpt lat="42.74582102643562" lon="2.6310689891256764"><ele>310.75</ele><time>2026-03-29T18:00:19.999Z</time></trkpt><trkpt lat="42.74582661214036" lon="2.6312335617102436"><ele>309.5</ele><time>2026-03-29T18:00:20.999Z</time></trkpt><trkpt lat="42.74583190807525" lon="2.6313895967148992"><ele>308.25</ele><time>2026-03-29T18:00:21.999Z</time></trkpt><trkpt lat="42.74583714090156" lon="2.631543772390877"><ele>307.0</ele><time>2026-03-29T18:00:22.999Z</time></trkpt><trkpt lat="42.74585833049648" lon="2.631688679746353"><ele>307.0</ele><time>2026-03-29T18:00:23.999Z</time></trkpt><trkpt lat="42.74586127584738" lon="2.631829787432472"><ele>307.0</ele><time>2026-03-29T18:00:24.999Z</time></trkpt><trkpt lat="42.74585309306597" lon="2.6319652881111324"><ele>307.0</ele><time>2026-03-29T18:00:25.999Z</time></trkpt><trkpt lat="42.74585865353532" lon="2.632096760389629"><ele>307.0</ele><time>2026-03-29T18:00:26.999Z</time></trkpt><trkpt lat="42.74586627862607" lon="2.632234082707345"><ele>307.0</ele><time>2026-03-29T18:00:27.999Z</time></trkpt><trkpt lat="42.74587816816908" lon="2.6324062340872074"><ele>306.0</ele><time>2026-03-29T18:00:28.999Z</time></trkpt><trkpt lat="42.74591145797554" lon="2.6326016713799074"><ele>305.0</ele><time>2026-03-29T18:00:29.999Z</time></trkpt><trkpt lat="42.745964665312236" lon="2.632801845010422"><ele>304.0</ele><time>2026-03-29T18:00:30.999Z</time></trkpt><trkpt lat="42.74603840665577" lon="2.6329657376330435"><ele>303.0</ele><time>2026-03-29T18:00:31.999Z</time></trkpt><trkpt lat="42.74609629066052" lon="2.633119231250453"><ele>301.2</ele><time>2026-03-29T18:00:32.999Z</time></trkpt><trkpt lat="42.74615949291971" lon="2.6332518180038282"><ele>299.4</ele><time>2026-03-29T18:00:33.999Z</time></trkpt><trkpt lat="42.746235666348554" lon="2.633365691400655"><ele>297.59999999999997</ele><time>2026-03-29T18:00:34.999Z</time></trkpt><trkpt lat="42.74627595176164" lon="2.6334651111423146"><ele>295.8</ele><time>2026-03-29T18:00:35.999Z</time></trkpt><trkpt lat="42.746294189263345" lon="2.6335855976884477"><ele>294.0</ele><time>2026-03-29T18:00:38.999Z</time></trkpt><trkpt lat="42.746265504542194" lon="2.633762450273924"><ele>294.0</ele><time>2026-03-29T18:00:40.999Z</time></trkpt><trkpt lat="42.74626227485485" lon="2.6338862878665754"><ele>294.0</ele><time>2026-03-29T18:00:41.999Z</time></trkpt><trkpt lat="42.746288224266706" lon="2.634015297766229"><ele>294.0</ele><time>2026-03-29T18:00:42.999Z</time></trkpt><trkpt lat="42.74631769120959" lon="2.6341460216192942"><ele>294.0</ele><time>2026-03-29T18:00:43.999Z</time></trkpt><trkpt lat="42.74633691972768" lon="2.6342569939972393"><ele>294.0</ele><time>2026-03-29T18:00:44.999Z</time></trkpt><trkpt lat="42.746350944681005" lon="2.6343628829620025"><ele>294.0</ele><time>2026-03-29T18:00:45.999Z</time></trkpt><trkpt lat="42.74632035382064" lon="2.634463521938291"><ele>294.0</ele><time>2026-03-29T18:00:46.999Z</time></trkpt><trkpt lat="42.74630222740126" lon="2.634563963732787"><ele>294.0</ele><time>2026-03-29T18:00:47.999Z</time></trkpt><trkpt lat="42.74627562325871" lon="2.6346908007073546"><ele>294.0</ele><time>2026-03-29T18:00:48.999Z</time></trkpt><trkpt lat="42.746262581576225" lon="2.6348342263308946"><ele>294.0</ele><time>2026-03-29T18:00:49.999Z</time></trkpt><trkpt lat="42.7462558983828" lon="2.6349772314624738"><ele>293.8333333333333</ele><time>2026-03-29T18:00:50.999Z</time></trkpt><trkpt lat="42.746245170035834" lon="2.6351051395838474"><ele>293.6666666666667</ele><time>2026-03-29T18:00:52Z</time></trkpt><trkpt lat="42.74621804132992" lon="2.6352000109093483"><ele>293.5</ele><time>2026-03-29T18:00:53Z</time></trkpt><trkpt lat="42.746202286085875" lon="2.6353037263739174"><ele>293.33333333333337</ele><time>2026-03-29T18:00:55Z</time></trkpt><trkpt lat="42.74616324384623" lon="2.63537154751763"><ele>293.1666666666667</ele><time>2026-03-29T18:01:00Z</time></trkpt><trkpt lat="42.74608677112252" lon="2.635358523016176"><ele>293.0</ele><time>2026-03-29T18:01:01Z</time></trkpt><trkpt lat="42.745988730783935" lon="2.635381345607169"><ele>292.6</ele><time>2026-03-29T18:01:02Z</time></trkpt><trkpt lat="42.745877391108564" lon="2.6353781322901066"><ele>292.20000000000005</ele><time>2026-03-29T18:01:03Z</time></trkpt><trkpt lat="42.74579521810758" lon="2.6354133430674276"><ele>291.8</ele><time>2026-03-29T18:01:04Z</time></trkpt><trkpt lat="42.745712538461646" lon="2.6354650827324178"><ele>291.40000000000003</ele><time>2026-03-29T18:01:05Z</time></trkpt><trkpt lat="42.74562196785894" lon="2.635560588507287"><ele>291.0</ele><time>2026-03-29T18:01:06Z</time></trkpt><trkpt lat="42.74548953394785" lon="2.6356238862258667"><ele>291.0</ele><time>2026-03-29T18:01:07Z</time></trkpt><trkpt lat="42.74539410931172" lon="2.6356742229246035"><ele>291.0</ele><time>2026-03-29T18:01:08Z</time></trkpt><trkpt lat="42.74529001116364" lon="2.635723505256598"><ele>291.0</ele><time>2026-03-29T18:01:09Z</time></trkpt><trkpt lat="42.74520621834371" lon="2.6357809720571588"><ele>291.0</ele><time>2026-03-29T18:01:10Z</time></trkpt><trkpt lat="42.745156162878125" lon="2.6358420507859974"><ele>291.0</ele><time>2026-03-29T18:01:11Z</time></trkpt><trkpt lat="42.74516113275635" lon="2.6359843448300526"><ele>290.40000000000003</ele><time>2026-03-29T18:01:12Z</time></trkpt><trkpt lat="42.745191312904645" lon="2.6361102976418285"><ele>289.8</ele><time>2026-03-29T18:01:13Z</time></trkpt><trkpt lat="42.74525909242386" lon="2.63624916481707"><ele>289.20000000000005</ele><time>2026-03-29T18:01:14Z</time></trkpt><trkpt lat="42.74526580115592" lon="2.636411748000899"><ele>288.6</ele><time>2026-03-29T18:01:15Z</time></trkpt><trkpt lat="42.745232430539765" lon="2.6365509125356246"><ele>288.0</ele><time>2026-03-29T18:01:16Z</time></trkpt><trkpt lat="42.74520690725563" lon="2.636755230682695"><ele>290.25</ele><time>2026-03-29T18:01:17Z</time></trkpt><trkpt lat="42.74521222630315" lon="2.63699233297245"><ele>292.5</ele><time>2026-03-29T18:01:18Z</time></trkpt><trkpt lat="42.74520456424321" lon="2.6372032809435018"><ele>294.75</ele><time>2026-03-29T18:01:19Z</time></trkpt><trkpt lat="42.74520257042183" lon="2.6373568508266474"><ele>297.0</ele><time>2026-03-29T18:01:20Z</time></trkpt><trkpt lat="42.74515455178048" lon="2.637473676683684"><ele>297.0</ele><time>2026-03-29T18:01:21Z</time></trkpt><trkpt lat="42.7451086333466" lon="2.637552446949547"><ele>297.0</ele><time>2026-03-29T18:01:22Z</time></trkpt><trkpt lat="42.74503570259367" lon="2.6375796770431243"><ele>297.0</ele><time>2026-03-29T18:01:23Z</time></trkpt><trkpt lat="42.744973589437706" lon="2.637621426747605"><ele>297.0</ele><time>2026-03-29T18:01:26Z</time></trkpt><trkpt lat="42.74490704506068" lon="2.637663869259106"><ele>297.0</ele><time>2026-03-29T18:01:27Z</time></trkpt><trkpt lat="42.744799695196555" lon="2.6377189163340553"><ele>297.0</ele><time>2026-03-29T18:01:28Z</time></trkpt><trkpt lat="42.74465941401199" lon="2.637775720064669"><ele>296.8</ele><time>2026-03-29T18:01:29Z</time></trkpt><trkpt lat="42.744513682932414" lon="2.637852994395635"><ele>296.6</ele><time>2026-03-29T18:01:30Z</time></trkpt><trkpt lat="42.744401166529975" lon="2.6379058514704754"><ele>296.40000000000003</ele><time>2026-03-29T18:01:31Z</time></trkpt><trkpt lat="42.74432416317148" lon="2.637930499165522"><ele>296.2</ele><time>2026-03-29T18:01:32Z</time></trkpt><trkpt lat="42.74424020776302" lon="2.6379828736865125"><ele>296.0</ele><time>2026-03-29T18:01:33Z</time></trkpt><trkpt lat="42.74416793942661" lon="2.6380319649526647"><ele>296.0</ele><time>2026-03-29T18:01:34Z</time></trkpt><trkpt lat="42.74408876307718" lon="2.6381069577389464"><ele>296.0</ele><time>2026-03-29T18:01:35Z</time></trkpt><trkpt lat="42.74401256417928" lon="2.6381921125324412"><ele>296.0</ele><time>2026-03-29T18:01:36.001Z</time></trkpt><trkpt lat="42.74396105701214" lon="2.6382727141650695"><ele>296.0</ele><time>2026-03-29T18:01:37.001Z</time></trkpt><trkpt lat="42.74392569935607" lon="2.6383716408676334"><ele>296.0</ele><time>2026-03-29T18:01:38.001Z</time></trkpt><trkpt lat="42.7439361472684" lon="2.6385308867012727"><ele>294.0</ele><time>2026-03-29T18:01:39.001Z</time></trkpt><trkpt lat="42.74392942240694" lon="2.638725184702302"><ele>292.0</ele><time>2026-03-29T18:01:40.001Z</time></trkpt><trkpt lat="42.74391455861546" lon="2.6389330048818738"><ele>290.0</ele><time>2026-03-29T18:01:41.001Z</time></trkpt><trkpt lat="42.74389715970087" lon="2.6391308055014706"><ele>288.0</ele><time>2026-03-29T18:01:42.001Z</time></trkpt><trkpt lat="42.74387917278191" lon="2.639308650618742"><ele>287.25</ele><time>2026-03-29T18:01:43Z</time></trkpt><trkpt lat="42.74385584718777" lon="2.6394737080429"><ele>286.5</ele><time>2026-03-29T18:01:44Z</time></trkpt><trkpt lat="42.74383057023764" lon="2.6396467938568335"><ele>285.75</ele><time>2026-03-29T18:01:45Z</time></trkpt><trkpt lat="42.743802462722144" lon="2.639818774258838"><ele>285.0</ele><time>2026-03-29T18:01:46Z</time></trkpt><trkpt lat="42.74379411373386" lon="2.6399824991253413"><ele>285.0</ele><time>2026-03-29T18:01:47Z</time></trkpt><trkpt lat="42.74383573158811" lon="2.640166266786297"><ele>285.0</ele><time>2026-03-29T18:01:48Z</time></trkpt><trkpt lat="42.74383954726026" lon="2.6403266715248357"><ele>285.0</ele><time>2026-03-29T18:01:49Z</time></trkpt><trkpt lat="42.74383184469257" lon="2.6404755694103272"><ele>285.0</ele><time>2026-03-29T18:01:50Z</time></trkpt><trkpt lat="42.74379570711317" lon="2.6405911018844845"><ele>284.0</ele><time>2026-03-29T18:01:51Z</time></trkpt><trkpt lat="42.743732456569106" lon="2.640702934182433"><ele>283.0</ele><time>2026-03-29T18:01:52Z</time></trkpt><trkpt lat="42.743665033279896" lon="2.6407798783537886"><ele>282.0</ele><time>2026-03-29T18:01:53Z</time></trkpt><trkpt lat="42.743599452065574" lon="2.6408234476306034"><ele>281.0</ele><time>2026-03-29T18:01:54Z</time></trkpt><trkpt lat="42.7434684704069" lon="2.6409167051537454"><ele>280.0</ele><time>2026-03-29T18:01:55Z</time></trkpt><trkpt lat="42.74331638956475" lon="2.64100673877133"><ele>281.6</ele><time>2026-03-29T18:01:56Z</time></trkpt><trkpt lat="42.74320037552957" lon="2.6410881290950785"><ele>283.2</ele><time>2026-03-29T18:01:57Z</time></trkpt><trkpt lat="42.7431137345361" lon="2.6411750196412194"><ele>284.8</ele><time>2026-03-29T18:01:58Z</time></trkpt><trkpt lat="42.743047002170904" lon="2.641280161302893"><ele>286.4</ele><time>2026-03-29T18:01:59Z</time></trkpt><trkpt lat="42.74300343438741" lon="2.6413611475355094"><ele>288.0</ele><time>2026-03-29T18:02:00Z</time></trkpt><trkpt lat="42.743030249111875" lon="2.6414710759366926"><ele>288.0</ele><time>2026-03-29T18:02:01Z</time></trkpt><trkpt lat="42.743106496025156" lon="2.6415656739604096"><ele>288.0</ele><time>2026-03-29T18:02:02Z</time></trkpt><trkpt lat="42.743203547852765" lon="2.6416207639033673"><ele>288.0</ele><time>2026-03-29T18:02:03Z</time></trkpt><trkpt lat="42.74331859927728" lon="2.641576603302791"><ele>288.0</ele><time>2026-03-29T18:02:04Z</time></trkpt><trkpt lat="42.74344676703864" lon="2.6416204950009177"><ele>287.2</ele><time>2026-03-29T18:02:05Z</time></trkpt><trkpt lat="42.74357979116115" lon="2.6416728103683935"><ele>286.4</ele><time>2026-03-29T18:02:06Z</time></trkpt><trkpt lat="42.743656492464005" lon="2.6417330662646688"><ele>285.59999999999997</ele><time>2026-03-29T18:02:07Z</time></trkpt><trkpt lat="42.74369904878419" lon="2.641816018773624"><ele>284.8</ele><time>2026-03-29T18:02:08Z</time></trkpt><trkpt lat="42.74374827043085" lon="2.641967450627811"><ele>284.0</ele><time>2026-03-29T18:02:09Z</time></trkpt><trkpt lat="42.74384273759475" lon="2.642149800530267"><ele>284.0</ele><time>2026-03-29T18:02:10Z</time></trkpt><trkpt lat="42.743905674390994" lon="2.6422905799868235"><ele>284.0</ele><time>2026-03-29T18:02:11Z</time></trkpt><trkpt lat="42.74394645124424" lon="2.642401428212664"><ele>284.0</ele><time>2026-03-29T18:02:12Z</time></trkpt><trkpt lat="42.7439300274222" lon="2.6424928699312025"><ele>284.0</ele><time>2026-03-29T18:02:13Z</time></trkpt><trkpt lat="42.743900882989955" lon="2.642609605241949"><ele>284.0</ele><time>2026-03-29T18:02:14Z</time></trkpt><trkpt lat="42.743828712395164" lon="2.642727240286238"><ele>285.6666666666667</ele><time>2026-03-29T18:02:15Z</time></trkpt><trkpt lat="42.74372184429556" lon="2.6428487444396245"><ele>287.3333333333333</ele><time>2026-03-29T18:02:16Z</time></trkpt><trkpt lat="42.7435888700183" lon="2.643005332374814"><ele>289.0</ele><time>2026-03-29T18:02:17Z</time></trkpt><trkpt lat="42.74349626489105" lon="2.6431560792668227"><ele>289.0</ele><time>2026-03-29T18:02:18Z</time></trkpt><trkpt lat="42.74342214560796" lon="2.6432591198424995"><ele>289.0</ele><time>2026-03-29T18:02:19Z</time></trkpt><trkpt lat="42.74339527661206" lon="2.643395735645119"><ele>289.0</ele><time>2026-03-29T18:02:20Z</time></trkpt><trkpt lat="42.743398447408374" lon="2.643557583265838"><ele>289.0</ele><time>2026-03-29T18:02:21Z</time></trkpt><trkpt lat="42.74335177205064" lon="2.643790552248543"><ele>288.3333333333333</ele><time>2026-03-29T18:02:22Z</time></trkpt><trkpt lat="42.74332259804189" lon="2.6440428058643435"><ele>287.6666666666667</ele><time>2026-03-29T18:02:23Z</time></trkpt><trkpt lat="42.74329105683385" lon="2.6442986581562304"><ele>287.0</ele><time>2026-03-29T18:02:24Z</time></trkpt><trkpt lat="42.74327416523592" lon="2.6445382674860536"><ele>285.5</ele><time>2026-03-29T18:02:25Z</time></trkpt><trkpt lat="42.743255721484836" lon="2.6447165662516574"><ele>284.0</ele><time>2026-03-29T18:02:26Z</time></trkpt><trkpt lat="42.74323626015827" lon="2.644835121941919"><ele>282.5</ele><time>2026-03-29T18:02:27Z</time></trkpt><trkpt lat="42.743143155714954" lon="2.6449447805069286"><ele>281.0</ele><time>2026-03-29T18:02:29Z</time></trkpt><trkpt lat="42.7430177454487" lon="2.6449461453093894"><ele>281.0</ele><time>2026-03-29T18:02:30Z</time></trkpt><trkpt lat="42.74290273199474" lon="2.645042133850824"><ele>281.0</ele><time>2026-03-29T18:02:31Z</time></trkpt><trkpt lat="42.742816198100655" lon="2.6451266517749072"><ele>281.0</ele><time>2026-03-29T18:02:32Z</time></trkpt><trkpt lat="42.742766998837304" lon="2.645217739057322"><ele>281.0</ele><time>2026-03-29T18:02:33Z</time></trkpt><trkpt lat="42.742758934491754" lon="2.6453141931996"><ele>281.0</ele><time>2026-03-29T18:02:34Z</time></trkpt><trkpt lat="42.74280292348854" lon="2.6453994190767705"><ele>280.75</ele><time>2026-03-29T18:02:35Z</time></trkpt><trkpt lat="42.74288878398712" lon="2.6454790543188627"><ele>280.5</ele><time>2026-03-29T18:02:36Z</time></trkpt><trkpt lat="42.74300674368579" lon="2.6455832383419886"><ele>280.25</ele><time>2026-03-29T18:02:37Z</time></trkpt><trkpt lat="42.74314538378563" lon="2.6457063302191792"><ele>280.0</ele><time>2026-03-29T18:02:38Z</time></trkpt><trkpt lat="42.74324198622218" lon="2.645820467452517"><ele>280.0</ele><time>2026-03-29T18:02:39Z</time></trkpt><trkpt lat="42.74331353570269" lon="2.645958233717597"><ele>280.0</ele><time>2026-03-29T18:02:40Z</time></trkpt><trkpt lat="42.74330694889028" lon="2.6461399311092695"><ele>280.0</ele><time>2026-03-29T18:02:42Z</time></trkpt><trkpt lat="42.743307671803976" lon="2.646325723373246"><ele>280.0</ele><time>2026-03-29T18:02:43Z</time></trkpt><trkpt lat="42.743288847702075" lon="2.646509032669948"><ele>280.66666666666663</ele><time>2026-03-29T18:02:44Z</time></trkpt><trkpt lat="42.74324434936163" lon="2.646702387801984"><ele>281.3333333333333</ele><time>2026-03-29T18:02:45Z</time></trkpt><trkpt lat="42.743164890630744" lon="2.646922152516939"><ele>282.0</ele><time>2026-03-29T18:02:46Z</time></trkpt><trkpt lat="42.743144714593214" lon="2.6471706680894753"><ele>282.0</ele><time>2026-03-29T18:02:47Z</time></trkpt><trkpt lat="42.7430900914713" lon="2.647421628210819"><ele>282.0</ele><time>2026-03-29T18:02:48Z</time></trkpt><trkpt lat="42.74307101590208" lon="2.6476420735192683"><ele>282.0</ele><time>2026-03-29T18:02:49Z</time></trkpt><trkpt lat="42.74304736588569" lon="2.6477837225274508"><ele>282.1666666666667</ele><time>2026-03-29T18:02:50Z</time></trkpt><trkpt lat="42.742983018594735" lon="2.6478527150831965"><ele>282.3333333333333</ele><time>2026-03-29T18:02:51Z</time></trkpt><trkpt lat="42.74295770821884" lon="2.647935675704628"><ele>282.5</ele><time>2026-03-29T18:02:52Z</time></trkpt><trkpt lat="42.742870642879275" lon="2.6479685344131627"><ele>282.66666666666663</ele><time>2026-03-29T18:02:55Z</time></trkpt><trkpt lat="42.74280173537597" lon="2.6479592652300328"><ele>282.8333333333333</ele><time>2026-03-29T18:03:04.001Z</time></trkpt><trkpt lat="42.74272560019275" lon="2.647952596874279"><ele>283.0</ele><time>2026-03-29T18:03:05.001Z</time></trkpt><trkpt lat="42.7426160360819" lon="2.6479500603418145"><ele>283.5</ele><time>2026-03-29T18:03:06.001Z</time></trkpt><trkpt lat="42.74246682026724" lon="2.6479529875378227"><ele>284.0</ele><time>2026-03-29T18:03:07.001Z</time></trkpt><trkpt lat="42.74234103836415" lon="2.6479948142435625"><ele>284.5</ele><time>2026-03-29T18:03:08.001Z</time></trkpt><trkpt lat="42.742220703005444" lon="2.6480127940620286"><ele>285.0</ele><time>2026-03-29T18:03:09.001Z</time></trkpt><trkpt lat="42.74211368735089" lon="2.6480207500733797"><ele>285.0</ele><time>2026-03-29T18:03:10.001Z</time></trkpt><trkpt lat="42.74197954873442" lon="2.648036584722441"><ele>285.0</ele><time>2026-03-29T18:03:11.001Z</time></trkpt><trkpt lat="42.74184545830224" lon="2.6480853065455854"><ele>285.0</ele><time>2026-03-29T18:03:12.001Z</time></trkpt><trkpt lat="42.74173187366282" lon="2.648134080138238"><ele>285.0</ele><time>2026-03-29T18:03:13.001Z</time></trkpt><trkpt lat="42.74161313607713" lon="2.648206709087273"><ele>285.3333333333333</ele><time>2026-03-29T18:03:14.001Z</time></trkpt><trkpt lat="42.741519069929936" lon="2.6482416893806695"><ele>285.6666666666667</ele><time>2026-03-29T18:03:15.001Z</time></trkpt><trkpt lat="42.74144898888447" lon="2.648254522551418"><ele>286.0</ele><time>2026-03-29T18:03:16.001Z</time></trkpt><trkpt lat="42.74136988888264" lon="2.6482512071476805"><ele>286.33333333333337</ele><time>2026-03-29T18:03:17.001Z</time></trkpt><trkpt lat="42.741310236677" lon="2.648180234900023"><ele>286.6666666666667</ele><time>2026-03-29T18:03:18.001Z</time></trkpt><trkpt lat="42.74124369698031" lon="2.6480832547153974"><ele>287.0</ele><time>2026-03-29T18:03:19.001Z</time></trkpt><trkpt lat="42.741155029130056" lon="2.647983116514031"><ele>287.0</ele><time>2026-03-29T18:03:20.001Z</time></trkpt><trkpt lat="42.74109233913331" lon="2.647908556254314"><ele>287.0</ele><time>2026-03-29T18:03:21.001Z</time></trkpt><trkpt lat="42.74102717843386" lon="2.6478739127421114"><ele>287.0</ele><time>2026-03-29T18:03:22.001Z</time></trkpt><trkpt lat="42.74096277836323" lon="2.647888578596999"><ele>287.0</ele><time>2026-03-29T18:03:23.001Z</time></trkpt><trkpt lat="42.74089084976593" lon="2.647961917486765"><ele>287.0</ele><time>2026-03-29T18:03:24.001Z</time></trkpt><trkpt lat="42.74082057697592" lon="2.6480576376153016"><ele>287.0</ele><time>2026-03-29T18:03:25.001Z</time></trkpt><trkpt lat="42.74082286237763" lon="2.648218200743885"><ele>287.5</ele><time>2026-03-29T18:03:26.001Z</time></trkpt><trkpt lat="42.74079166837816" lon="2.648373524589631"><ele>288.0</ele><time>2026-03-29T18:03:27.001Z</time></trkpt><trkpt lat="42.74080641854405" lon="2.64856057971377"><ele>288.5</ele><time>2026-03-29T18:03:28.001Z</time></trkpt><trkpt lat="42.74079599989103" lon="2.6487263879792553"><ele>289.0</ele><time>2026-03-29T18:03:29.001Z</time></trkpt><trkpt lat="42.74074433033732" lon="2.648850701358497"><ele>289.0</ele><time>2026-03-29T18:03:30.001Z</time></trkpt><trkpt lat="42.740688943328" lon="2.648969767946971"><ele>289.0</ele><time>2026-03-29T18:03:31.001Z</time></trkpt><trkpt lat="42.74062092461721" lon="2.649150941343908"><ele>289.0</ele><time>2026-03-29T18:03:32.001Z</time></trkpt><trkpt lat="42.740518570606156" lon="2.649311109895358"><ele>289.0</ele><time>2026-03-29T18:03:33.001Z</time></trkpt><trkpt lat="42.74043483897878" lon="2.6494564805182703"><ele>288.0</ele><time>2026-03-29T18:03:34.001Z</time></trkpt><trkpt lat="42.74037740219809" lon="2.6495526059175467"><ele>287.0</ele><time>2026-03-29T18:03:35.001Z</time></trkpt><trkpt lat="42.74030344080776" lon="2.649653491228997"><ele>286.0</ele><time>2026-03-29T18:03:36.001Z</time></trkpt><trkpt lat="42.740209099504895" lon="2.649732135970313"><ele>285.0</ele><time>2026-03-29T18:03:37.001Z</time></trkpt><trkpt lat="42.74008096246306" lon="2.649827348742225"><ele>285.0</ele><time>2026-03-29T18:03:38.001Z</time></trkpt><trkpt lat="42.73997552379888" lon="2.6498422896178737"><ele>285.0</ele><time>2026-03-29T18:03:39.001Z</time></trkpt><trkpt lat="42.73990498031118" lon="2.649836502194817"><ele>285.0</ele><time>2026-03-29T18:03:40.001Z</time></trkpt><trkpt lat="42.73981048502933" lon="2.6498306477041895"><ele>285.0</ele><time>2026-03-29T18:03:41.001Z</time></trkpt><trkpt lat="42.73969923505781" lon="2.6498035838784757"><ele>285.0</ele><time>2026-03-29T18:03:42.001Z</time></trkpt><trkpt lat="42.73959566529764" lon="2.649775026878596"><ele>285.0</ele><time>2026-03-29T18:03:43.001Z</time></trkpt><trkpt lat="42.73949897242793" lon="2.649720913860312"><ele>285.0</ele><time>2026-03-29T18:03:44.001Z</time></trkpt><trkpt lat="42.739420458574436" lon="2.649648477747989"><ele>285.0</ele><time>2026-03-29T18:03:45Z</time></trkpt><trkpt lat="42.73929960266754" lon="2.649559423309952"><ele>285.0</ele><time>2026-03-29T18:03:46Z</time></trkpt><trkpt lat="42.73918085761657" lon="2.6495250974811873"><ele>285.6</ele><time>2026-03-29T18:03:47Z</time></trkpt><trkpt lat="42.73909785741766" lon="2.6494619685333562"><ele>286.2</ele><time>2026-03-29T18:03:48Z</time></trkpt><trkpt lat="42.73901715918826" lon="2.6493945771031293"><ele>286.8</ele><time>2026-03-29T18:03:49Z</time></trkpt><trkpt lat="42.73894284099021" lon="2.649279284672134"><ele>287.4</ele><time>2026-03-29T18:03:50Z</time></trkpt><trkpt lat="42.73885079414973" lon="2.649141204382776"><ele>288.0</ele><time>2026-03-29T18:03:51Z</time></trkpt><trkpt lat="42.738752569742985" lon="2.6490621724953654"><ele>288.0</ele><time>2026-03-29T18:03:52Z</time></trkpt><trkpt lat="42.73865023049886" lon="2.648997692449969"><ele>288.0</ele><time>2026-03-29T18:03:53Z</time></trkpt><trkpt lat="42.73858440430931" lon="2.6489549501723517"><ele>288.0</ele><time>2026-03-29T18:03:54Z</time></trkpt><trkpt lat="42.73846661802085" lon="2.648888902758652"><ele>288.0</ele><time>2026-03-29T18:03:56Z</time></trkpt><trkpt lat="42.73839909524043" lon="2.6488392991645324"><ele>288.0</ele><time>2026-03-29T18:03:57Z</time></trkpt><trkpt lat="42.73830078331917" lon="2.648777481959465"><ele>288.2</ele><time>2026-03-29T18:03:58Z</time></trkpt><trkpt lat="42.73822268290463" lon="2.648707087883934"><ele>288.4</ele><time>2026-03-29T18:03:59Z</time></trkpt><trkpt lat="42.738145656671016" lon="2.648618782586558"><ele>288.59999999999997</ele><time>2026-03-29T18:04:00Z</time></trkpt><trkpt lat="42.73807095230892" lon="2.6485158519889183"><ele>288.8</ele><time>2026-03-29T18:04:01Z</time></trkpt><trkpt lat="42.737993098814876" lon="2.648387961654222"><ele>289.0</ele><time>2026-03-29T18:04:02Z</time></trkpt><trkpt lat="42.73794488216083" lon="2.6483053658841422"><ele>289.0</ele><time>2026-03-29T18:04:03Z</time></trkpt><trkpt lat="42.73789937201129" lon="2.648374884586334"><ele>289.0</ele><time>2026-03-29T18:04:16Z</time></trkpt><trkpt lat="42.73781802066903" lon="2.648451227573366"><ele>289.0</ele><time>2026-03-29T18:04:18Z</time></trkpt><trkpt lat="42.73771481354234" lon="2.648332056527108"><ele>289.0</ele><time>2026-03-29T18:04:20Z</time></trkpt><trkpt lat="42.73765516502772" lon="2.6482778084127454"><ele>289.0</ele><time>2026-03-29T18:04:21Z</time></trkpt><trkpt lat="42.73759485111497" lon="2.648200141413474"><ele>287.75</ele><time>2026-03-29T18:04:22Z</time></trkpt><trkpt lat="42.7374755028157" lon="2.6480626591316287"><ele>286.5</ele><time>2026-03-29T18:04:23Z</time></trkpt><trkpt lat="42.737353397674305" lon="2.64791667633932"><ele>285.25</ele><time>2026-03-29T18:04:24Z</time></trkpt><trkpt lat="42.737257385471835" lon="2.647805634752193"><ele>284.0</ele><time>2026-03-29T18:04:25Z</time></trkpt><trkpt lat="42.73717581118417" lon="2.6477123155225657"><ele>284.0</ele><time>2026-03-29T18:04:26Z</time></trkpt><trkpt lat="42.73710499781294" lon="2.647630454153994"><ele>284.0</ele><time>2026-03-29T18:04:27Z</time></trkpt><trkpt lat="42.737046565148944" lon="2.6475515873201845"><ele>284.0</ele><time>2026-03-29T18:04:28Z</time></trkpt><trkpt lat="42.73699493342371" lon="2.647482422526674"><ele>284.0</ele><time>2026-03-29T18:04:29Z</time></trkpt><trkpt lat="42.736955614496836" lon="2.647402675625931"><ele>284.0</ele><time>2026-03-29T18:04:30Z</time></trkpt><trkpt lat="42.73688894526625" lon="2.647356131933596"><ele>284.0</ele><time>2026-03-29T18:04:31Z</time></trkpt><trkpt lat="42.73679609452797" lon="2.6473134602025206"><ele>281.5</ele><time>2026-03-29T18:04:32Z</time></trkpt><trkpt lat="42.73668247581105" lon="2.6472864428052083"><ele>279.0</ele><time>2026-03-29T18:04:33Z</time></trkpt><trkpt lat="42.73657693962499" lon="2.6472758487116144"><ele>276.5</ele><time>2026-03-29T18:04:34Z</time></trkpt><trkpt lat="42.73644367725898" lon="2.647267347154541"><ele>274.0</ele><time>2026-03-29T18:04:35Z</time></trkpt><trkpt lat="42.73633385070944" lon="2.6472366828464535"><ele>274.0</ele><time>2026-03-29T18:04:36Z</time></trkpt><trkpt lat="42.736263727132716" lon="2.64717181956244"><ele>274.0</ele><time>2026-03-29T18:04:37Z</time></trkpt><trkpt lat="42.73614887859354" lon="2.64710265667657"><ele>274.0</ele><time>2026-03-29T18:04:38Z</time></trkpt><trkpt lat="42.73603304565674" lon="2.647018700436174"><ele>274.0</ele><time>2026-03-29T18:04:39Z</time></trkpt><trkpt lat="42.735923862475005" lon="2.6469636240222867"><ele>274.2</ele><time>2026-03-29T18:04:40Z</time></trkpt><trkpt lat="42.73584540321299" lon="2.646925031417768"><ele>274.4</ele><time>2026-03-29T18:04:41Z</time></trkpt><trkpt lat="42.73574650810622" lon="2.646929065983589"><ele>274.6</ele><time>2026-03-29T18:04:42Z</time></trkpt><trkpt lat="42.7356490607801" lon="2.646923159828081"><ele>274.8</ele><time>2026-03-29T18:04:43Z</time></trkpt><trkpt lat="42.73565069429164" lon="2.646760268079334"><ele>275.0</ele><time>2026-03-29T18:04:45Z</time></trkpt><trkpt lat="42.735650528822276" lon="2.646618946105748"><ele>275.0</ele><time>2026-03-29T18:04:46Z</time></trkpt><trkpt lat="42.73563978959073" lon="2.646529437635594"><ele>275.0</ele><time>2026-03-29T18:04:47Z</time></trkpt><trkpt lat="42.7354527581986" lon="2.6466146205388874"><ele>275.0</ele><time>2026-03-29T18:04:50Z</time></trkpt><trkpt lat="42.735338236792515" lon="2.6467159623735035"><ele>275.0</ele><time>2026-03-29T18:04:51Z</time></trkpt><trkpt lat="42.735230473603416" lon="2.646710338620372"><ele>273.0</ele><time>2026-03-29T18:04:52Z</time></trkpt><trkpt lat="42.735144684492035" lon="2.6467266470831348"><ele>271.0</ele><time>2026-03-29T18:04:53Z</time></trkpt><trkpt lat="42.73504557391754" lon="2.6467370613908807"><ele>269.0</ele><time>2026-03-29T18:04:54Z</time></trkpt><trkpt lat="42.73495278465731" lon="2.646831985128493"><ele>267.0</ele><time>2026-03-29T18:04:55Z</time></trkpt><trkpt lat="42.73486630604339" lon="2.6469740777944346"><ele>265.0</ele><time>2026-03-29T18:04:56Z</time></trkpt><trkpt lat="42.734775549818956" lon="2.647091044412862"><ele>264.8</ele><time>2026-03-29T18:04:57Z</time></trkpt><trkpt lat="42.73470462461671" lon="2.647213261786144"><ele>264.6</ele><time>2026-03-29T18:04:58Z</time></trkpt><trkpt lat="42.73464085658997" lon="2.6473370303740946"><ele>264.4</ele><time>2026-03-29T18:04:59Z</time></trkpt><trkpt lat="42.73459529857082" lon="2.647458060517263"><ele>264.2</ele><time>2026-03-29T18:05:00Z</time></trkpt><trkpt lat="42.7345583833823" lon="2.647565526768385"><ele>264.0</ele><time>2026-03-29T18:05:01Z</time></trkpt><trkpt lat="42.73450113525479" lon="2.6476917906285786"><ele>263.25</ele><time>2026-03-29T18:05:02Z</time></trkpt><trkpt lat="42.734433282232686" lon="2.647807555593962"><ele>262.5</ele><time>2026-03-29T18:05:03.001Z</time></trkpt><trkpt lat="42.73433579902354" lon="2.6479621024191142"><ele>261.75</ele><time>2026-03-29T18:05:04.001Z</time></trkpt><trkpt lat="42.734260300958084" lon="2.648091408332078"><ele>261.0</ele><time>2026-03-29T18:05:05.001Z</time></trkpt><trkpt lat="42.7342095756402" lon="2.6482498154555976"><ele>260.25</ele><time>2026-03-29T18:05:06.001Z</time></trkpt><trkpt lat="42.73414341312745" lon="2.6484218405387256"><ele>259.5</ele><time>2026-03-29T18:05:07.001Z</time></trkpt><trkpt lat="42.73407588538086" lon="2.6485874386254076"><ele>258.75</ele><time>2026-03-29T18:05:08.001Z</time></trkpt><trkpt lat="42.734012643310955" lon="2.648728553698033"><ele>258.0</ele><time>2026-03-29T18:05:09.001Z</time></trkpt><trkpt lat="42.73393934717534" lon="2.6488777369726244"><ele>256.75</ele><time>2026-03-29T18:05:10.001Z</time></trkpt><trkpt lat="42.733855066428404" lon="2.6490531836468887"><ele>255.5</ele><time>2026-03-29T18:05:11.001Z</time></trkpt><trkpt lat="42.733775545712646" lon="2.6492173425184573"><ele>254.25</ele><time>2026-03-29T18:05:12.001Z</time></trkpt><trkpt lat="42.733723914151916" lon="2.649317330579484"><ele>253.0</ele><time>2026-03-29T18:05:13.001Z</time></trkpt><trkpt lat="42.733676312681396" lon="2.649394526193355"><ele>253.0</ele><time>2026-03-29T18:05:14.001Z</time></trkpt><trkpt lat="42.733625405042716" lon="2.6494485758780026"><ele>253.0</ele><time>2026-03-29T18:05:15.001Z</time></trkpt><trkpt lat="42.73356458126446" lon="2.649489345751576"><ele>253.0</ele><time>2026-03-29T18:05:16.001Z</time></trkpt><trkpt lat="42.733446527079856" lon="2.64959020829988"><ele>253.0</ele><time>2026-03-29T18:05:18.001Z</time></trkpt><trkpt lat="42.73338031168047" lon="2.6497135577099957"><ele>253.0</ele><time>2026-03-29T18:05:19.001Z</time></trkpt><trkpt lat="42.7333228539955" lon="2.6498466740376583"><ele>251.8</ele><time>2026-03-29T18:05:20.001Z</time></trkpt><trkpt lat="42.733263866523004" lon="2.6499665080979904"><ele>250.60000000000002</ele><time>2026-03-29T18:05:21.001Z</time></trkpt><trkpt lat="42.73320541854707" lon="2.650078872968099"><ele>249.39999999999998</ele><time>2026-03-29T18:05:22.001Z</time></trkpt><trkpt lat="42.733146616953015" lon="2.650191917751006"><ele>248.2</ele><time>2026-03-29T18:05:23.001Z</time></trkpt><trkpt lat="42.73308537681335" lon="2.6503124203969586"><ele>247.0</ele><time>2026-03-29T18:05:24.001Z</time></trkpt><trkpt lat="42.733029774579705" lon="2.650435723775524"><ele>246.39999999999998</ele><time>2026-03-29T18:05:25.001Z</time></trkpt><trkpt lat="42.732993860724584" lon="2.65058244061485"><ele>245.79999999999998</ele><time>2026-03-29T18:05:26.001Z</time></trkpt><trkpt lat="42.73293212862192" lon="2.650693903793949"><ele>245.2</ele><time>2026-03-29T18:05:27.001Z</time></trkpt><trkpt lat="42.73287726300649" lon="2.6508071624871685"><ele>244.6</ele><time>2026-03-29T18:05:28.001Z</time></trkpt><trkpt lat="42.732823141847625" lon="2.650910092422934"><ele>244.0</ele><time>2026-03-29T18:05:29.001Z</time></trkpt><trkpt lat="42.732782926252824" lon="2.650986576718994"><ele>244.0</ele><time>2026-03-29T18:05:30.001Z</time></trkpt><trkpt lat="42.732744143176696" lon="2.6510603365669794"><ele>243.99999999999997</ele><time>2026-03-29T18:05:31.001Z</time></trkpt><trkpt lat="42.732722489578734" lon="2.651165107061901"><ele>243.99999999999997</ele><time>2026-03-29T18:05:32.001Z</time></trkpt><trkpt lat="42.73263942260161" lon="2.651239776337095"><ele>244.0</ele><time>2026-03-29T18:05:33.001Z</time></trkpt><trkpt lat="42.73254310369654" lon="2.6513217575883"><ele>244.0</ele><time>2026-03-29T18:05:34.001Z</time></trkpt><trkpt lat="42.73245013952741" lon="2.651425575722139"><ele>243.99999999999997</ele><time>2026-03-29T18:05:35.001Z</time></trkpt><trkpt lat="42.73237368981164" lon="2.65151304830057"><ele>244.0</ele><time>2026-03-29T18:05:36.001Z</time></trkpt><trkpt lat="42.73232616379561" lon="2.651569446882075"><ele>244.0</ele><time>2026-03-29T18:05:37.001Z</time></trkpt><trkpt lat="42.73228019566265" lon="2.651646170741453"><ele>244.0</ele><time>2026-03-29T18:05:38.001Z</time></trkpt><trkpt lat="42.732225709750765" lon="2.651721733734841"><ele>243.99999999999997</ele><time>2026-03-29T18:05:39.001Z</time></trkpt><trkpt lat="42.73213458216662" lon="2.651764613572344"><ele>244.0</ele><time>2026-03-29T18:05:40.001Z</time></trkpt><trkpt lat="42.73203480526563" lon="2.6517813403286468"><ele>244.0</ele><time>2026-03-29T18:05:41.001Z</time></trkpt><trkpt lat="42.73194791563352" lon="2.6517952090262793"><ele>243.99999999999997</ele><time>2026-03-29T18:05:42.001Z</time></trkpt><trkpt lat="42.73191213370431" lon="2.651894643575715"><ele>243.99999999999997</ele><time>2026-03-29T18:05:44.001Z</time></trkpt><trkpt lat="42.73197602930585" lon="2.6520255107730737"><ele>244.0</ele><time>2026-03-29T18:05:46Z</time></trkpt><trkpt lat="42.732041170192836" lon="2.6520835391739506"><ele>244.0</ele><time>2026-03-29T18:05:47Z</time></trkpt><trkpt lat="42.73209962692036" lon="2.652184300779057"><ele>244.5</ele><time>2026-03-29T18:05:48Z</time></trkpt><trkpt lat="42.732148508789855" lon="2.652332761155703"><ele>245.0</ele><time>2026-03-29T18:05:49Z</time></trkpt><trkpt lat="42.732176787613874" lon="2.652489405937593"><ele>245.5</ele><time>2026-03-29T18:05:50Z</time></trkpt><trkpt lat="42.73220397389301" lon="2.6526739077847905"><ele>246.0</ele><time>2026-03-29T18:05:51Z</time></trkpt><trkpt lat="42.732216960482035" lon="2.6528481020028853"><ele>246.60000000000002</ele><time>2026-03-29T18:05:52Z</time></trkpt><trkpt lat="42.732218955051714" lon="2.653007922825006"><ele>247.20000000000002</ele><time>2026-03-29T18:05:53Z</time></trkpt><trkpt lat="42.732183853212405" lon="2.6531266710749595"><ele>247.79999999999998</ele><time>2026-03-29T18:05:54Z</time></trkpt><trkpt lat="42.732126851565745" lon="2.6532236132641587"><ele>248.39999999999998</ele><time>2026-03-29T18:05:55Z</time></trkpt><trkpt lat="42.732029488008536" lon="2.653314968290802"><ele>249.0</ele><time>2026-03-29T18:05:56Z</time></trkpt><trkpt lat="42.73191289466659" lon="2.6533905529706265"><ele>250.33333333333331</ele><time>2026-03-29T18:05:57Z</time></trkpt><trkpt lat="42.73177061191387" lon="2.6534528933240282"><ele>251.66666666666666</ele><time>2026-03-29T18:05:58Z</time></trkpt><trkpt lat="42.73161625203421" lon="2.653542215287578"><ele>253.0</ele><time>2026-03-29T18:05:59Z</time></trkpt><trkpt lat="42.731459924397974" lon="2.6536905378645606"><ele>253.0</ele><time>2026-03-29T18:06:00Z</time></trkpt><trkpt lat="42.73134953260154" lon="2.6538243656133704"><ele>253.0</ele><time>2026-03-29T18:06:01Z</time></trkpt><trkpt lat="42.73126586725946" lon="2.6539325275286263"><ele>253.0</ele><time>2026-03-29T18:06:02Z</time></trkpt><trkpt lat="42.731197457305086" lon="2.65407011460079"><ele>253.0</ele><time>2026-03-29T18:06:03Z</time></trkpt><trkpt lat="42.731139100259306" lon="2.654187553315037"><ele>253.0</ele><time>2026-03-29T18:06:04Z</time></trkpt><trkpt lat="42.73107330100893" lon="2.6542566885075622"><ele>253.0</ele><time>2026-03-29T18:06:05Z</time></trkpt><trkpt lat="42.73098270312099" lon="2.65433712809788"><ele>253.0</ele><time>2026-03-29T18:06:06Z</time></trkpt><trkpt lat="42.73083807442607" lon="2.6544781873683734"><ele>253.0</ele><time>2026-03-29T18:06:07Z</time></trkpt><trkpt lat="42.73069422948596" lon="2.6546249238793003"><ele>253.60000000000002</ele><time>2026-03-29T18:06:08Z</time></trkpt><trkpt lat="42.73056305283112" lon="2.654742641109709"><ele>254.20000000000002</ele><time>2026-03-29T18:06:09Z</time></trkpt><trkpt lat="42.73046314718944" lon="2.654808385842053"><ele>254.8</ele><time>2026-03-29T18:06:10Z</time></trkpt><trkpt lat="42.73038659300748" lon="2.65483964506649"><ele>255.4</ele><time>2026-03-29T18:06:11Z</time></trkpt><trkpt lat="42.730297248977" lon="2.6548313846570992"><ele>256.0</ele><time>2026-03-29T18:06:12Z</time></trkpt><trkpt lat="42.73018751231484" lon="2.6548125276173575"><ele>256.0</ele><time>2026-03-29T18:06:13Z</time></trkpt><trkpt lat="42.73009982602124" lon="2.6547573503954753"><ele>256.0</ele><time>2026-03-29T18:06:14Z</time></trkpt><trkpt lat="42.73001743455615" lon="2.654678826082092"><ele>256.0</ele><time>2026-03-29T18:06:15Z</time></trkpt><trkpt lat="42.7299331433623" lon="2.6545680761044066"><ele>256.0</ele><time>2026-03-29T18:06:16Z</time></trkpt><trkpt lat="42.72982457168215" lon="2.654423304666065"><ele>258.5</ele><time>2026-03-29T18:06:17Z</time></trkpt><trkpt lat="42.72972850746089" lon="2.6542890623560638"><ele>261.0</ele><time>2026-03-29T18:06:18Z</time></trkpt><trkpt lat="42.72962641546297" lon="2.654161708519841"><ele>263.5</ele><time>2026-03-29T18:06:19Z</time></trkpt><trkpt lat="42.729515378001906" lon="2.6540531601346"><ele>266.0</ele><time>2026-03-29T18:06:20Z</time></trkpt><trkpt lat="42.7294011309484" lon="2.6539476298860243"><ele>266.0</ele><time>2026-03-29T18:06:21Z</time></trkpt><trkpt lat="42.72926745684222" lon="2.6538451536775565"><ele>266.0</ele><time>2026-03-29T18:06:22Z</time></trkpt><trkpt lat="42.729146345683226" lon="2.653719862953513"><ele>266.0</ele><time>2026-03-29T18:06:23Z</time></trkpt><trkpt lat="42.72902713112221" lon="2.6535996191840763"><ele>266.0</ele><time>2026-03-29T18:06:24Z</time></trkpt><trkpt lat="42.728943801469136" lon="2.653507228277195"><ele>266.0</ele><time>2026-03-29T18:06:25Z</time></trkpt><trkpt lat="42.72887837713051" lon="2.653447838564121"><ele>266.0</ele><time>2026-03-29T18:06:26Z</time></trkpt><trkpt lat="42.72877793749154" lon="2.6534611380947113"><ele>266.0</ele><time>2026-03-29T18:06:28Z</time></trkpt><trkpt lat="42.728724248213716" lon="2.6535207708325803"><ele>266.0</ele><time>2026-03-29T18:06:29Z</time></trkpt><trkpt lat="42.7286623207701" lon="2.653615996887485"><ele>265.25</ele><time>2026-03-29T18:06:30Z</time></trkpt><trkpt lat="42.72862572309707" lon="2.6537448175698346"><ele>264.5</ele><time>2026-03-29T18:06:31Z</time></trkpt><trkpt lat="42.728577555300085" lon="2.653925041784207"><ele>263.75</ele><time>2026-03-29T18:06:32Z</time></trkpt><trkpt lat="42.7285166152698" lon="2.65412316988631"><ele>263.0</ele><time>2026-03-29T18:06:33Z</time></trkpt><trkpt lat="42.728437471128366" lon="2.6543567945447015"><ele>262.0</ele><time>2026-03-29T18:06:34Z</time></trkpt><trkpt lat="42.72834563400922" lon="2.654627611131534"><ele>261.0</ele><time>2026-03-29T18:06:35Z</time></trkpt><trkpt lat="42.72827515877933" lon="2.654849780782722"><ele>260.0</ele><time>2026-03-29T18:06:36Z</time></trkpt><trkpt lat="42.72821488704366" lon="2.6550688053808438"><ele>259.33333333333337</ele><time>2026-03-29T18:06:37Z</time></trkpt><trkpt lat="42.728156638310935" lon="2.6552997056570096"><ele>258.6666666666667</ele><time>2026-03-29T18:06:38Z</time></trkpt><trkpt lat="42.72810935261847" lon="2.6554825448157944"><ele>258.0</ele><time>2026-03-29T18:06:39Z</time></trkpt><trkpt lat="42.72805910117959" lon="2.6556699807086566"><ele>258.0</ele><time>2026-03-29T18:06:40Z</time></trkpt><trkpt lat="42.72801241585361" lon="2.6558759707630917"><ele>258.0</ele><time>2026-03-29T18:06:41Z</time></trkpt><trkpt lat="42.727967280241245" lon="2.6561068221817337"><ele>258.0</ele><time>2026-03-29T18:06:42Z</time></trkpt><trkpt lat="42.72793694652292" lon="2.656369669438246"><ele>258.0</ele><time>2026-03-29T18:06:43Z</time></trkpt><trkpt lat="42.727908455298916" lon="2.6566139596864353"><ele>258.0</ele><time>2026-03-29T18:06:44Z</time></trkpt><trkpt lat="42.72786768128483" lon="2.6568142400256853"><ele>258.0</ele><time>2026-03-29T18:06:45Z</time></trkpt><trkpt lat="42.727831122200044" lon="2.656994482453933"><ele>258.0</ele><time>2026-03-29T18:06:46Z</time></trkpt><trkpt lat="42.72779028472939" lon="2.6571916824682473"><ele>258.0</ele><time>2026-03-29T18:06:47Z</time></trkpt><trkpt lat="42.72775633579499" lon="2.657361341275774"><ele>258.0</ele><time>2026-03-29T18:06:48Z</time></trkpt><trkpt lat="42.72771239488084" lon="2.657519413703506"><ele>258.0</ele><time>2026-03-29T18:06:49Z</time></trkpt><trkpt lat="42.72764487481011" lon="2.657689233957343"><ele>258.5</ele><time>2026-03-29T18:06:50Z</time></trkpt><trkpt lat="42.727570016625826" lon="2.6578363754479084"><ele>259.0</ele><time>2026-03-29T18:06:51Z</time></trkpt><trkpt lat="42.72748589752804" lon="2.657970492089358"><ele>259.5</ele><time>2026-03-29T18:06:52Z</time></trkpt><trkpt lat="42.72737939080113" lon="2.6580668268265373"><ele>260.0</ele><time>2026-03-29T18:06:53Z</time></trkpt><trkpt lat="42.72724253541232" lon="2.6581720654121432"><ele>260.0</ele><time>2026-03-29T18:06:54Z</time></trkpt><trkpt lat="42.72706188738077" lon="2.658292599618598"><ele>260.0</ele><time>2026-03-29T18:06:55Z</time></trkpt><trkpt lat="42.72689263971138" lon="2.658395953824259"><ele>260.0</ele><time>2026-03-29T18:06:56Z</time></trkpt><trkpt lat="42.72676575812243" lon="2.658468965411395"><ele>260.0</ele><time>2026-03-29T18:06:57Z</time></trkpt><trkpt lat="42.72666671107517" lon="2.658511709864574"><ele>260.0</ele><time>2026-03-29T18:06:58Z</time></trkpt><trkpt lat="42.72657439459127" lon="2.6585490301539285"><ele>260.0</ele><time>2026-03-29T18:06:59Z</time></trkpt><trkpt lat="42.726498507119715" lon="2.6586264348985886"><ele>260.0</ele><time>2026-03-29T18:07:00Z</time></trkpt><trkpt lat="42.72641429937022" lon="2.6587292000827945"><ele>260.0</ele><time>2026-03-29T18:07:01Z</time></trkpt><trkpt lat="42.72631665232361" lon="2.658817507744599"><ele>259.5</ele><time>2026-03-29T18:07:02Z</time></trkpt><trkpt lat="42.72624681802729" lon="2.658916639081456"><ele>259.0</ele><time>2026-03-29T18:07:03Z</time></trkpt><trkpt lat="42.726230479226395" lon="2.659075778043251"><ele>258.5</ele><time>2026-03-29T18:07:04Z</time></trkpt><trkpt lat="42.72625642656114" lon="2.6592346957972843"><ele>258.0</ele><time>2026-03-29T18:07:05Z</time></trkpt><trkpt lat="42.72627960942229" lon="2.659401062962563"><ele>259.3333333333333</ele><time>2026-03-29T18:07:06Z</time></trkpt><trkpt lat="42.72629248653416" lon="2.6595866808854334"><ele>260.66666666666663</ele><time>2026-03-29T18:07:07Z</time></trkpt><trkpt lat="42.72629585988485" lon="2.659785753273366"><ele>262.0</ele><time>2026-03-29T18:07:08Z</time></trkpt><trkpt lat="42.72630371994626" lon="2.6600322624726496"><ele>262.0</ele><time>2026-03-29T18:07:09.001Z</time></trkpt><trkpt lat="42.72630564173793" lon="2.6602302538150413"><ele>262.0</ele><time>2026-03-29T18:07:10.001Z</time></trkpt><trkpt lat="42.7263091208973" lon="2.6603865021173396"><ele>262.0</ele><time>2026-03-29T18:07:11.001Z</time></trkpt><trkpt lat="42.726324222758585" lon="2.6605479816694606"><ele>262.0</ele><time>2026-03-29T18:07:12.001Z</time></trkpt><trkpt lat="42.72637060276526" lon="2.6607237361427334"><ele>263.66666666666663</ele><time>2026-03-29T18:07:13.001Z</time></trkpt><trkpt lat="42.72644709562723" lon="2.6609146672591284"><ele>265.3333333333333</ele><time>2026-03-29T18:07:14.001Z</time></trkpt><trkpt lat="42.72653668975346" lon="2.6611433256135717"><ele>267.0</ele><time>2026-03-29T18:07:15.001Z</time></trkpt><trkpt lat="42.726622293137495" lon="2.6613917714074917"><ele>267.0</ele><time>2026-03-29T18:07:16.001Z</time></trkpt><trkpt lat="42.726705106312764" lon="2.661629738375378"><ele>267.0</ele><time>2026-03-29T18:07:17.001Z</time></trkpt><trkpt lat="42.72676231874479" lon="2.6618134566796026"><ele>267.0</ele><time>2026-03-29T18:07:18.001Z</time></trkpt><trkpt lat="42.72681876615784" lon="2.6619864628569823"><ele>267.5</ele><time>2026-03-29T18:07:19.001Z</time></trkpt><trkpt lat="42.726847213902325" lon="2.6621345837403414"><ele>268.0</ele><time>2026-03-29T18:07:20.001Z</time></trkpt><trkpt lat="42.72685709931541" lon="2.6623408354367673"><ele>268.5</ele><time>2026-03-29T18:07:21.001Z</time></trkpt><trkpt lat="42.72685058946895" lon="2.662435960158958"><ele>269.0</ele><time>2026-03-29T18:07:22.001Z</time></trkpt><trkpt lat="42.72679972054452" lon="2.662591117506591"><ele>268.6666666666667</ele><time>2026-03-29T18:07:23.001Z</time></trkpt><trkpt lat="42.72673466871216" lon="2.662796953302647"><ele>268.3333333333333</ele><time>2026-03-29T18:07:24.001Z</time></trkpt><trkpt lat="42.7266868434447" lon="2.663058499889401"><ele>268.0</ele><time>2026-03-29T18:07:25.001Z</time></trkpt><trkpt lat="42.72663137639416" lon="2.6633317029937107"><ele>268.0</ele><time>2026-03-29T18:07:26.001Z</time></trkpt><trkpt lat="42.72655058762154" lon="2.6636110079055855"><ele>268.0</ele><time>2026-03-29T18:07:27.001Z</time></trkpt><trkpt lat="42.72645511579872" lon="2.663927506162433"><ele>268.5</ele><time>2026-03-29T18:07:28.001Z</time></trkpt><trkpt lat="42.726362185442504" lon="2.664263412943905"><ele>269.0</ele><time>2026-03-29T18:07:29.001Z</time></trkpt><trkpt lat="42.72627847093985" lon="2.664536702589029"><ele>269.0</ele><time>2026-03-29T18:07:30.001Z</time></trkpt><trkpt lat="42.726218060930705" lon="2.6647687333528265"><ele>269.0</ele><time>2026-03-29T18:07:31.001Z</time></trkpt><trkpt lat="42.72617362615919" lon="2.6649373787934683"><ele>269.0</ele><time>2026-03-29T18:07:32.001Z</time></trkpt><trkpt lat="42.72613263200392" lon="2.6650835674953375"><ele>269.0</ele><time>2026-03-29T18:07:33.001Z</time></trkpt><trkpt lat="42.72610504747366" lon="2.6651744029652673"><ele>268.8</ele><time>2026-03-29T18:07:34.001Z</time></trkpt><trkpt lat="42.726054335527174" lon="2.6652865613062193"><ele>268.59999999999997</ele><time>2026-03-29T18:07:36.001Z</time></trkpt><trkpt lat="42.72601716152175" lon="2.6654244768623423"><ele>268.4</ele><time>2026-03-29T18:07:40Z</time></trkpt><trkpt lat="42.726049877214095" lon="2.6655296422761534"><ele>268.2</ele><time>2026-03-29T18:07:41Z</time></trkpt><trkpt lat="42.726096761940894" lon="2.6656402461262116"><ele>268.0</ele><time>2026-03-29T18:07:42Z</time></trkpt><trkpt lat="42.726138046474254" lon="2.665752700445599"><ele>268.0</ele><time>2026-03-29T18:07:43Z</time></trkpt><trkpt lat="42.726180074047456" lon="2.6658671787837895"><ele>268.0</ele><time>2026-03-29T18:07:44Z</time></trkpt><trkpt lat="42.72623611589601" lon="2.6660202460042806"><ele>268.0</ele><time>2026-03-29T18:07:45Z</time></trkpt><trkpt lat="42.726332133525496" lon="2.666244983285262"><ele>268.0</ele><time>2026-03-29T18:07:46Z</time></trkpt><trkpt lat="42.72639617479013" lon="2.666471226723892"><ele>267.25</ele><time>2026-03-29T18:07:47Z</time></trkpt><trkpt lat="42.726448185376164" lon="2.6666238677050753"><ele>266.5</ele><time>2026-03-29T18:07:48Z</time></trkpt><trkpt lat="42.726527082408076" lon="2.666802266740297"><ele>265.75</ele><time>2026-03-29T18:07:49Z</time></trkpt><trkpt lat="42.72657713124662" lon="2.6670009146675313"><ele>265.0</ele><time>2026-03-29T18:07:50Z</time></trkpt><trkpt lat="42.726648760615696" lon="2.667204779333291"><ele>264.0</ele><time>2026-03-29T18:07:51Z</time></trkpt><trkpt lat="42.72671441419661" lon="2.6673916361924355"><ele>263.0</ele><time>2026-03-29T18:07:52Z</time></trkpt><trkpt lat="42.72677270991333" lon="2.667559361614661"><ele>262.0</ele><time>2026-03-29T18:07:53Z</time></trkpt><trkpt lat="42.72684003830443" lon="2.667703974812979"><ele>261.0</ele><time>2026-03-29T18:07:54Z</time></trkpt><trkpt lat="42.726874527271" lon="2.667854981466963"><ele>261.0</ele><time>2026-03-29T18:07:55Z</time></trkpt><trkpt lat="42.72693365000288" lon="2.667991980322398"><ele>261.0</ele><time>2026-03-29T18:07:56Z</time></trkpt><trkpt lat="42.72696913471958" lon="2.66812875440661"><ele>261.0</ele><time>2026-03-29T18:07:57Z</time></trkpt><trkpt lat="42.72696639259914" lon="2.668270401642682"><ele>261.0</ele><time>2026-03-29T18:07:58Z</time></trkpt><trkpt lat="42.72694326714109" lon="2.66842446782611"><ele>261.0</ele><time>2026-03-29T18:07:59Z</time></trkpt><trkpt lat="42.72689232421904" lon="2.668581372160385"><ele>261.6</ele><time>2026-03-29T18:08:00Z</time></trkpt><trkpt lat="42.72683544448322" lon="2.668748273124362"><ele>262.20000000000005</ele><time>2026-03-29T18:08:01Z</time></trkpt><trkpt lat="42.72678918764626" lon="2.6689152275309427"><ele>262.79999999999995</ele><time>2026-03-29T18:08:02Z</time></trkpt><trkpt lat="42.726740356199294" lon="2.669042297412608"><ele>263.4</ele><time>2026-03-29T18:08:03Z</time></trkpt><trkpt lat="42.72669829834739" lon="2.6691182460292167"><ele>264.0</ele><time>2026-03-29T18:08:04Z</time></trkpt><trkpt lat="42.72653383918639" lon="2.669167360563138"><ele>264.0</ele><time>2026-03-29T18:08:06Z</time></trkpt><trkpt lat="42.726388832647174" lon="2.6691731999674966"><ele>264.0</ele><time>2026-03-29T18:08:07Z</time></trkpt><trkpt lat="42.72619365368566" lon="2.669223598751072"><ele>264.0</ele><time>2026-03-29T18:08:08Z</time></trkpt><trkpt lat="42.72601936616595" lon="2.6693369242922667"><ele>263.0</ele><time>2026-03-29T18:08:09Z</time></trkpt><trkpt lat="42.72586708382166" lon="2.6694642691636417"><ele>262.0</ele><time>2026-03-29T18:08:10Z</time></trkpt><trkpt lat="42.72572504134449" lon="2.6694644199882376"><ele>261.0</ele><time>2026-03-29T18:08:11Z</time></trkpt><trkpt lat="42.72556336906318" lon="2.669430869486584"><ele>261.0</ele><time>2026-03-29T18:08:12Z</time></trkpt><trkpt lat="42.72535561134121" lon="2.669427791710406"><ele>261.0</ele><time>2026-03-29T18:08:13Z</time></trkpt><trkpt lat="42.72512455399806" lon="2.669463461168501"><ele>261.0</ele><time>2026-03-29T18:08:14Z</time></trkpt><trkpt lat="42.72486869262005" lon="2.6695624966269107"><ele>264.0</ele><time>2026-03-29T18:08:15Z</time></trkpt><trkpt lat="42.72462116776845" lon="2.669672385614738"><ele>267.0</ele><time>2026-03-29T18:08:16Z</time></trkpt><trkpt lat="42.724406458293274" lon="2.6697617614481017"><ele>264.3333333333333</ele><time>2026-03-29T18:08:17Z</time></trkpt><trkpt lat="42.72421098236795" lon="2.6698365203827583"><ele>261.66666666666663</ele><time>2026-03-29T18:08:18Z</time></trkpt><trkpt lat="42.72401968648753" lon="2.669939982873054"><ele>259.0</ele><time>2026-03-29T18:08:19Z</time></trkpt><trkpt lat="42.72383180470325" lon="2.670054204681473"><ele>262.5</ele><time>2026-03-29T18:08:20Z</time></trkpt><trkpt lat="42.72365568138483" lon="2.670332399993626"><ele>266.0</ele><time>2026-03-29T18:08:21Z</time></trkpt><trkpt lat="42.72352721189615" lon="2.670528360097375"><ele>262.33333333333337</ele><time>2026-03-29T18:08:22Z</time></trkpt><trkpt lat="42.723429728888426" lon="2.6707213812813193"><ele>258.6666666666667</ele><time>2026-03-29T18:08:23Z</time></trkpt><trkpt lat="42.72337425804707" lon="2.6709401365329977"><ele>255.0</ele><time>2026-03-29T18:08:24Z</time></trkpt><trkpt lat="42.72340857406489" lon="2.6712210992324334"><ele>255.0</ele><time>2026-03-29T18:08:25Z</time></trkpt><trkpt lat="42.72343950303583" lon="2.6714575993358096"><ele>255.0</ele><time>2026-03-29T18:08:26Z</time></trkpt><trkpt lat="42.723435858510406" lon="2.6715928795218473"><ele>255.0</ele><time>2026-03-29T18:08:27Z</time></trkpt><trkpt lat="42.723408521475776" lon="2.671704104065873"><ele>255.0</ele><time>2026-03-29T18:08:28Z</time></trkpt><trkpt lat="42.72330160006502" lon="2.671823866663549"><ele>255.0</ele><time>2026-03-29T18:08:29Z</time></trkpt><trkpt lat="42.72315870432348" lon="2.6718283694577014"><ele>255.0</ele><time>2026-03-29T18:08:30Z</time></trkpt><trkpt lat="42.723050068364344" lon="2.671752145357338"><ele>255.0</ele><time>2026-03-29T18:08:31Z</time></trkpt><trkpt lat="42.72292588156312" lon="2.671664149341007"><ele>255.0</ele><time>2026-03-29T18:08:32Z</time></trkpt><trkpt lat="42.72276873222418" lon="2.6715445132749007"><ele>255.5</ele><time>2026-03-29T18:08:33Z</time></trkpt><trkpt lat="42.7225468304909" lon="2.6713792207983103"><ele>256.0</ele><time>2026-03-29T18:08:34Z</time></trkpt><trkpt lat="42.7223768803231" lon="2.6712444017427104"><ele>252.0</ele><time>2026-03-29T18:08:35Z</time></trkpt><trkpt lat="42.72225316306607" lon="2.6710966029959846"><ele>248.0</ele><time>2026-03-29T18:08:36Z</time></trkpt><trkpt lat="42.72215266286123" lon="2.6708820383645806"><ele>244.0</ele><time>2026-03-29T18:08:37Z</time></trkpt><trkpt lat="42.72206452866918" lon="2.670660972449571"><ele>244.0</ele><time>2026-03-29T18:08:38Z</time></trkpt><trkpt lat="42.72197816050226" lon="2.670458297303262"><ele>244.0</ele><time>2026-03-29T18:08:39Z</time></trkpt><trkpt lat="42.72186070771447" lon="2.6702845458629456"><ele>244.0</ele><time>2026-03-29T18:08:40Z</time></trkpt><trkpt lat="42.721723651971125" lon="2.6701219062547112"><ele>241.66666666666666</ele><time>2026-03-29T18:08:41Z</time></trkpt><trkpt lat="42.721533073463334" lon="2.670041474732011"><ele>239.33333333333331</ele><time>2026-03-29T18:08:42Z</time></trkpt><trkpt lat="42.721320416634285" lon="2.6699970774726034"><ele>237.0</ele><time>2026-03-29T18:08:43Z</time></trkpt><trkpt lat="42.72110746400806" lon="2.669967892581397"><ele>240.5</ele><time>2026-03-29T18:08:44Z</time></trkpt><trkpt lat="42.720924406523935" lon="2.6698398129254732"><ele>244.0</ele><time>2026-03-29T18:08:45Z</time></trkpt><trkpt lat="42.72069648245453" lon="2.669700920603447"><ele>244.0</ele><time>2026-03-29T18:08:46Z</time></trkpt><trkpt lat="42.72046715934036" lon="2.6695773513464593"><ele>244.0</ele><time>2026-03-29T18:08:47Z</time></trkpt><trkpt lat="42.720207475898505" lon="2.6694228836829392"><ele>240.33333333333331</ele><time>2026-03-29T18:08:48Z</time></trkpt><trkpt lat="42.720025054737405" lon="2.66930279073317"><ele>236.66666666666669</ele><time>2026-03-29T18:08:49Z</time></trkpt><trkpt lat="42.719887474023004" lon="2.6692154551674196"><ele>233.0</ele><time>2026-03-29T18:08:50Z</time></trkpt><trkpt lat="42.719748415900796" lon="2.669133394678867"><ele>233.0</ele><time>2026-03-29T18:08:51Z</time></trkpt><trkpt lat="42.71962785372636" lon="2.669032077620755"><ele>233.0</ele><time>2026-03-29T18:08:52Z</time></trkpt><trkpt lat="42.719535517666" lon="2.6688412720528256"><ele>233.0</ele><time>2026-03-29T18:08:53Z</time></trkpt><trkpt lat="42.719422012653474" lon="2.66867102722487"><ele>235.66666666666669</ele><time>2026-03-29T18:08:54Z</time></trkpt><trkpt lat="42.71932997346912" lon="2.6685525277872335"><ele>238.33333333333331</ele><time>2026-03-29T18:08:55Z</time></trkpt><trkpt lat="42.719183704029945" lon="2.6685396449792544"><ele>241.0</ele><time>2026-03-29T18:08:56Z</time></trkpt><trkpt lat="42.719014813976955" lon="2.668613401772657"><ele>241.0</ele><time>2026-03-29T18:08:57Z</time></trkpt><trkpt lat="42.71880679111288" lon="2.668717220712899"><ele>241.0</ele><time>2026-03-29T18:08:58Z</time></trkpt><trkpt lat="42.71857411367908" lon="2.668830299904531"><ele>237.0</ele><time>2026-03-29T18:08:59Z</time></trkpt><trkpt lat="42.71832565115825" lon="2.6689685869558653"><ele>233.0</ele><time>2026-03-29T18:09:00Z</time></trkpt><trkpt lat="42.718110989367396" lon="2.6691129869368946"><ele>233.0</ele><time>2026-03-29T18:09:01Z</time></trkpt><trkpt lat="42.71791126279905" lon="2.6692214373298984"><ele>233.0</ele><time>2026-03-29T18:09:02Z</time></trkpt><trkpt lat="42.71767212894367" lon="2.6692754837801203"><ele>228.5</ele><time>2026-03-29T18:09:03Z</time></trkpt><trkpt lat="42.71740633507735" lon="2.669320607939699"><ele>224.0</ele><time>2026-03-29T18:09:04Z</time></trkpt><trkpt lat="42.717186638173835" lon="2.669364895265456"><ele>224.0</ele><time>2026-03-29T18:09:05Z</time></trkpt><trkpt lat="42.71697723111796" lon="2.6694211773958036"><ele>224.0</ele><time>2026-03-29T18:09:06Z</time></trkpt><trkpt lat="42.71673940856254" lon="2.6695396404783223"><ele>226.0</ele><time>2026-03-29T18:09:07Z</time></trkpt><trkpt lat="42.71648233082492" lon="2.6697209131330877"><ele>228.0</ele><time>2026-03-29T18:09:08Z</time></trkpt><trkpt lat="42.71625454623541" lon="2.6698743425613536"><ele>228.0</ele><time>2026-03-29T18:09:09Z</time></trkpt><trkpt lat="42.71607612502184" lon="2.6699739697720237"><ele>228.0</ele><time>2026-03-29T18:09:10Z</time></trkpt><trkpt lat="42.715939672098195" lon="2.6700412165114495"><ele>228.0</ele><time>2026-03-29T18:09:11Z</time></trkpt><trkpt lat="42.71579720749439" lon="2.6700802919716606"><ele>223.33333333333331</ele><time>2026-03-29T18:09:12Z</time></trkpt><trkpt lat="42.715618698131905" lon="2.670003628030923"><ele>218.66666666666666</ele><time>2026-03-29T18:09:13Z</time></trkpt><trkpt lat="42.715418566648644" lon="2.6699650695421493"><ele>214.0</ele><time>2026-03-29T18:09:14Z</time></trkpt><trkpt lat="42.71525260571938" lon="2.669938385517471"><ele>214.66666666666666</ele><time>2026-03-29T18:09:15.001Z</time></trkpt><trkpt lat="42.71508964918698" lon="2.6700152986759758"><ele>215.33333333333331</ele><time>2026-03-29T18:09:16.001Z</time></trkpt><trkpt lat="42.71491889429274" lon="2.6701841660556367"><ele>216.0</ele><time>2026-03-29T18:09:17.001Z</time></trkpt><trkpt lat="42.714744933659986" lon="2.670412156438314"><ele>216.0</ele><time>2026-03-29T18:09:18.001Z</time></trkpt><trkpt lat="42.71455175781728" lon="2.6706356146416526"><ele>216.0</ele><time>2026-03-29T18:09:19.001Z</time></trkpt><trkpt lat="42.71440003306633" lon="2.670810690390512"><ele>211.33333333333331</ele><time>2026-03-29T18:09:20.001Z</time></trkpt><trkpt lat="42.71429893631759" lon="2.6709255383531656"><ele>206.66666666666666</ele><time>2026-03-29T18:09:21Z</time></trkpt><trkpt lat="42.714222508678624" lon="2.6710973760841923"><ele>202.0</ele><time>2026-03-29T18:09:22Z</time></trkpt><trkpt lat="42.714170414949244" lon="2.6713655314975036"><ele>202.0</ele><time>2026-03-29T18:09:23Z</time></trkpt><trkpt lat="42.714149121592676" lon="2.671653632417441"><ele>202.0</ele><time>2026-03-29T18:09:24Z</time></trkpt><trkpt lat="42.71415085231387" lon="2.671895585265624"><ele>202.0</ele><time>2026-03-29T18:09:25Z</time></trkpt><trkpt lat="42.714212651330584" lon="2.6721363755143486"><ele>203.33333333333331</ele><time>2026-03-29T18:09:26Z</time></trkpt><trkpt lat="42.714318419630054" lon="2.6723738737027793"><ele>204.66666666666669</ele><time>2026-03-29T18:09:27Z</time></trkpt><trkpt lat="42.714450034877764" lon="2.6725407868990247"><ele>206.0</ele><time>2026-03-29T18:09:28Z</time></trkpt><trkpt lat="42.71451862489808" lon="2.6727498264353513"><ele>206.0</ele><time>2026-03-29T18:09:29Z</time></trkpt><trkpt lat="42.71456471687796" lon="2.6729835966270192"><ele>206.0</ele><time>2026-03-29T18:09:30Z</time></trkpt><trkpt lat="42.7145471476138" lon="2.6732463165337386"><ele>206.0</ele><time>2026-03-29T18:09:31Z</time></trkpt><trkpt lat="42.714467588117294" lon="2.6735215787814623"><ele>198.0</ele><time>2026-03-29T18:09:32Z</time></trkpt><trkpt lat="42.71437946444459" lon="2.673808329099337"><ele>190.0</ele><time>2026-03-29T18:09:33Z</time></trkpt><trkpt lat="42.714253767973894" lon="2.6741133464041047"><ele>190.0</ele><time>2026-03-29T18:09:34Z</time></trkpt><trkpt lat="42.71412269782285" lon="2.674446502527213"><ele>190.0</ele><time>2026-03-29T18:09:35Z</time></trkpt><trkpt lat="42.71411325798483" lon="2.6746078760426184"><ele>190.0</ele><time>2026-03-29T18:09:36Z</time></trkpt><trkpt lat="42.71405615441012" lon="2.67483166707766"><ele>190.0</ele><time>2026-03-29T18:09:37Z</time></trkpt><trkpt lat="42.714051670197826" lon="2.6751015815330708"><ele>190.0</ele><time>2026-03-29T18:09:38Z</time></trkpt><trkpt lat="42.714099309816625" lon="2.6754189772342163"><ele>190.0</ele><time>2026-03-29T18:09:39Z</time></trkpt><trkpt lat="42.71414482874059" lon="2.675767985076775"><ele>189.33333333333334</ele><time>2026-03-29T18:09:40Z</time></trkpt><trkpt lat="42.71417876647967" lon="2.676033977470689"><ele>188.66666666666666</ele><time>2026-03-29T18:09:41Z</time></trkpt><trkpt lat="42.71421820349443" lon="2.676262921437623"><ele>188.0</ele><time>2026-03-29T18:09:42Z</time></trkpt><trkpt lat="42.71430484393799" lon="2.6765074310871184"><ele>186.66666666666666</ele><time>2026-03-29T18:09:43Z</time></trkpt><trkpt lat="42.714440358805675" lon="2.676695114801292"><ele>185.33333333333334</ele><time>2026-03-29T18:09:44Z</time></trkpt><trkpt lat="42.71457705614219" lon="2.676835708425739"><ele>184.0</ele><time>2026-03-29T18:09:45Z</time></trkpt><trkpt lat="42.7146459808459" lon="2.677038587847388"><ele>184.0</ele><time>2026-03-29T18:09:46Z</time></trkpt><trkpt lat="42.714671714518815" lon="2.6772932409750285"><ele>184.0</ele><time>2026-03-29T18:09:47Z</time></trkpt><trkpt lat="42.714634211167" lon="2.6775321155747642"><ele>184.0</ele><time>2026-03-29T18:09:48Z</time></trkpt><trkpt lat="42.71456751059032" lon="2.677795366111521"><ele>180.5</ele><time>2026-03-29T18:09:49Z</time></trkpt><trkpt lat="42.71439886729865" lon="2.6779886657655534"><ele>177.0</ele><time>2026-03-29T18:09:50Z</time></trkpt><trkpt lat="42.71424536296313" lon="2.678243480821256"><ele>177.0</ele><time>2026-03-29T18:09:51Z</time></trkpt><trkpt lat="42.71412199142918" lon="2.6785176738698047"><ele>177.0</ele><time>2026-03-29T18:09:52Z</time></trkpt><trkpt lat="42.71402630197895" lon="2.6788466529032005"><ele>179.5</ele><time>2026-03-29T18:09:53Z</time></trkpt><trkpt lat="42.713964317062256" lon="2.6792045860589426"><ele>182.0</ele><time>2026-03-29T18:09:54Z</time></trkpt><trkpt lat="42.71390916800368" lon="2.6795876698511942"><ele>182.0</ele><time>2026-03-29T18:09:55Z</time></trkpt><trkpt lat="42.71387825479803" lon="2.6798632286405595"><ele>182.0</ele><time>2026-03-29T18:09:56Z</time></trkpt><trkpt lat="42.71387776366454" lon="2.680077174147011"><ele>182.0</ele><time>2026-03-29T18:09:57Z</time></trkpt><trkpt lat="42.713924297147805" lon="2.68028297174937"><ele>179.33333333333331</ele><time>2026-03-29T18:09:58Z</time></trkpt><trkpt lat="42.71401448635765" lon="2.6804838402925912"><ele>176.66666666666666</ele><time>2026-03-29T18:09:59Z</time></trkpt><trkpt lat="42.71414889545844" lon="2.6806475054115455"><ele>174.0</ele><time>2026-03-29T18:10:00Z</time></trkpt><trkpt lat="42.714318265451595" lon="2.6807929211351764"><ele>175.33333333333334</ele><time>2026-03-29T18:10:01Z</time></trkpt><trkpt lat="42.71445463426071" lon="2.6809497615303615"><ele>176.66666666666669</ele><time>2026-03-29T18:10:02Z</time></trkpt><trkpt lat="42.714516200903546" lon="2.68112982816564"><ele>178.0</ele><time>2026-03-29T18:10:03Z</time></trkpt><trkpt lat="42.71454933649415" lon="2.6813614579078053"><ele>178.0</ele><time>2026-03-29T18:10:04Z</time></trkpt><trkpt lat="42.714535857609555" lon="2.681590638322674"><ele>178.0</ele><time>2026-03-29T18:10:05Z</time></trkpt><trkpt lat="42.71447201799857" lon="2.6818235855345933"><ele>178.0</ele><time>2026-03-29T18:10:06Z</time></trkpt><trkpt lat="42.714351565602854" lon="2.6820224062487785"><ele>179.0</ele><time>2026-03-29T18:10:07Z</time></trkpt><trkpt lat="42.71421086034093" lon="2.682174557225632"><ele>180.0</ele><time>2026-03-29T18:10:08Z</time></trkpt><trkpt lat="42.71404138517581" lon="2.6822270179097174"><ele>181.0</ele><time>2026-03-29T18:10:09Z</time></trkpt><trkpt lat="42.713830930486544" lon="2.682261014825178"><ele>181.0</ele><time>2026-03-29T18:10:10Z</time></trkpt><trkpt lat="42.71360749924774" lon="2.6823430022258568"><ele>181.0</ele><time>2026-03-29T18:10:11Z</time></trkpt><trkpt lat="42.713376676681385" lon="2.6824600078469323"><ele>176.0</ele><time>2026-03-29T18:10:12Z</time></trkpt><trkpt lat="42.713128296172606" lon="2.682652772171038"><ele>171.0</ele><time>2026-03-29T18:10:13Z</time></trkpt><trkpt lat="42.71287814863176" lon="2.682863987570539"><ele>168.0</ele><time>2026-03-29T18:10:14Z</time></trkpt><trkpt lat="42.71261850257597" lon="2.6830749242878267"><ele>165.0</ele><time>2026-03-29T18:10:15Z</time></trkpt><trkpt lat="42.712398136111325" lon="2.683236178907539"><ele>165.0</ele><time>2026-03-29T18:10:16Z</time></trkpt><trkpt lat="42.712185669094495" lon="2.68337732955146"><ele>165.0</ele><time>2026-03-29T18:10:17Z</time></trkpt><trkpt lat="42.71195185963503" lon="2.683453753990283"><ele>163.5</ele><time>2026-03-29T18:10:18Z</time></trkpt><trkpt lat="42.711694706399804" lon="2.683487846003405"><ele>162.0</ele><time>2026-03-29T18:10:19Z</time></trkpt><trkpt lat="42.7114106422057" lon="2.6835069496395323"><ele>162.0</ele><time>2026-03-29T18:10:20Z</time></trkpt><trkpt lat="42.711111900615045" lon="2.683526613670253"><ele>162.0</ele><time>2026-03-29T18:10:21Z</time></trkpt><trkpt lat="42.71079330223545" lon="2.683538322872285"><ele>160.0</ele><time>2026-03-29T18:10:22Z</time></trkpt><trkpt lat="42.71043993115104" lon="2.6835760937937936"><ele>158.0</ele><time>2026-03-29T18:10:23Z</time></trkpt><trkpt lat="42.71013987514815" lon="2.6836100404419243"><ele>163.0</ele><time>2026-03-29T18:10:24Z</time></trkpt><trkpt lat="42.709864057902486" lon="2.68366087173621"><ele>168.0</ele><time>2026-03-29T18:10:25Z</time></trkpt><trkpt lat="42.70961170629657" lon="2.683701817917981"><ele>165.0</ele><time>2026-03-29T18:10:26Z</time></trkpt><trkpt lat="42.70934670529247" lon="2.683747556630825"><ele>162.0</ele><time>2026-03-29T18:10:27Z</time></trkpt><trkpt lat="42.709090457574966" lon="2.6837873905926153"><ele>162.0</ele><time>2026-03-29T18:10:28Z</time></trkpt><trkpt lat="42.708839387362644" lon="2.6838295044745517"><ele>162.0</ele><time>2026-03-29T18:10:29Z</time></trkpt><trkpt lat="42.70860613150984" lon="2.683865911843484"><ele>160.66666666666666</ele><time>2026-03-29T18:10:30Z</time></trkpt><trkpt lat="42.708385907986624" lon="2.6839172040321073"><ele>159.33333333333331</ele><time>2026-03-29T18:10:31Z</time></trkpt><trkpt lat="42.70817116397385" lon="2.6840133489009546"><ele>158.0</ele><time>2026-03-29T18:10:32Z</time></trkpt><trkpt lat="42.70795474120705" lon="2.684164874471149"><ele>156.0</ele><time>2026-03-29T18:10:33Z</time></trkpt><trkpt lat="42.70772643308867" lon="2.6843753981867677"><ele>154.0</ele><time>2026-03-29T18:10:34Z</time></trkpt><trkpt lat="42.70747161961076" lon="2.6846000778625383"><ele>154.0</ele><time>2026-03-29T18:10:35Z</time></trkpt><trkpt lat="42.70719462152925" lon="2.6848292314946396"><ele>154.0</ele><time>2026-03-29T18:10:36Z</time></trkpt><trkpt lat="42.70690675645613" lon="2.6850597650435803"><ele>153.0</ele><time>2026-03-29T18:10:37Z</time></trkpt><trkpt lat="42.70665379997364" lon="2.685269162307928"><ele>152.0</ele><time>2026-03-29T18:10:38Z</time></trkpt><trkpt lat="42.706412267197145" lon="2.685461251204248"><ele>152.0</ele><time>2026-03-29T18:10:39Z</time></trkpt><trkpt lat="42.7061871521921" lon="2.6856446840216632"><ele>152.0</ele><time>2026-03-29T18:10:40Z</time></trkpt><trkpt lat="42.70597281520266" lon="2.685823225366613"><ele>149.5</ele><time>2026-03-29T18:10:41Z</time></trkpt><trkpt lat="42.70575134753685" lon="2.6859974062195064"><ele>147.0</ele><time>2026-03-29T18:10:42Z</time></trkpt><trkpt lat="42.705518618005726" lon="2.686160655280299"><ele>145.5</ele><time>2026-03-29T18:10:43Z</time></trkpt><trkpt lat="42.70524167557003" lon="2.686287051536373"><ele>144.0</ele><time>2026-03-29T18:10:44Z</time></trkpt><trkpt lat="42.70495593331374" lon="2.6864404159231072"><ele>144.0</ele><time>2026-03-29T18:10:45Z</time></trkpt><trkpt lat="42.70469871558509" lon="2.686631939270237"><ele>144.0</ele><time>2026-03-29T18:10:46Z</time></trkpt><trkpt lat="42.70445354014874" lon="2.686810545582653"><ele>140.5</ele><time>2026-03-29T18:10:47Z</time></trkpt><trkpt lat="42.70421796582224" lon="2.6869575197763327"><ele>137.0</ele><time>2026-03-29T18:10:48Z</time></trkpt><trkpt lat="42.70397674185963" lon="2.6870190322195815"><ele>137.0</ele><time>2026-03-29T18:10:49Z</time></trkpt><trkpt lat="42.7037628917411" lon="2.687110642018379"><ele>137.0</ele><time>2026-03-29T18:10:50Z</time></trkpt><trkpt lat="42.70357533076825" lon="2.6872131706858733"><ele>137.0</ele><time>2026-03-29T18:10:51Z</time></trkpt><trkpt lat="42.703396434777495" lon="2.6874130299944308"><ele>135.0</ele><time>2026-03-29T18:10:52Z</time></trkpt><trkpt lat="42.70321391741633" lon="2.6876367666897076"><ele>133.0</ele><time>2026-03-29T18:10:53Z</time></trkpt><trkpt lat="42.70305298221984" lon="2.687823549223066"><ele>131.0</ele><time>2026-03-29T18:10:54Z</time></trkpt><trkpt lat="42.702924434940414" lon="2.687983298835411"><ele>129.0</ele><time>2026-03-29T18:10:55Z</time></trkpt><trkpt lat="42.70282192770953" lon="2.6881849073718507"><ele>127.0</ele><time>2026-03-29T18:10:56Z</time></trkpt><trkpt lat="42.702751407560115" lon="2.688457856704148"><ele>124.0</ele><time>2026-03-29T18:10:57Z</time></trkpt><trkpt lat="42.70267173836903" lon="2.688746683527252"><ele>121.0</ele><time>2026-03-29T18:10:58Z</time></trkpt><trkpt lat="42.70259982941304" lon="2.6890213003337884"><ele>118.0</ele><time>2026-03-29T18:10:59Z</time></trkpt><trkpt lat="42.702533503407736" lon="2.6892660975819744"><ele>118.66666666666667</ele><time>2026-03-29T18:11:00Z</time></trkpt><trkpt lat="42.70242777055802" lon="2.68944751590202"><ele>119.33333333333334</ele><time>2026-03-29T18:11:01Z</time></trkpt><trkpt lat="42.7022439692803" lon="2.6896047376461336"><ele>120.0</ele><time>2026-03-29T18:11:02Z</time></trkpt><trkpt lat="42.7020532164568" lon="2.689783984870655"><ele>116.0</ele><time>2026-03-29T18:11:03Z</time></trkpt><trkpt lat="42.7018777969703" lon="2.689912529570709"><ele>112.0</ele><time>2026-03-29T18:11:04Z</time></trkpt><trkpt lat="42.70176263230553" lon="2.690029010760047"><ele>108.0</ele><time>2026-03-29T18:11:05Z</time></trkpt><trkpt lat="42.70167394788964" lon="2.6901964208599503"><ele>108.33333333333334</ele><time>2026-03-29T18:11:06Z</time></trkpt><trkpt lat="42.701623578542474" lon="2.690443423349769"><ele>108.66666666666667</ele><time>2026-03-29T18:11:07Z</time></trkpt><trkpt lat="42.70161974631023" lon="2.6907276618585967"><ele>109.0</ele><time>2026-03-29T18:11:08Z</time></trkpt><trkpt lat="42.70162597056529" lon="2.6910533646471784"><ele>108.5</ele><time>2026-03-29T18:11:09Z</time></trkpt><trkpt lat="42.70159352032307" lon="2.691418300658762"><ele>108.0</ele><time>2026-03-29T18:11:10Z</time></trkpt><trkpt lat="42.701559823488736" lon="2.69172979083179"><ele>108.5</ele><time>2026-03-29T18:11:11Z</time></trkpt><trkpt lat="42.701492336903414" lon="2.692043710168116"><ele>109.0</ele><time>2026-03-29T18:11:12Z</time></trkpt><trkpt lat="42.70140247770339" lon="2.692347443402822"><ele>109.0</ele><time>2026-03-29T18:11:13Z</time></trkpt><trkpt lat="42.701323536189605" lon="2.692639442214111"><ele>109.0</ele><time>2026-03-29T18:11:14Z</time></trkpt><trkpt lat="42.70124976201735" lon="2.6928671511464426"><ele>109.0</ele><time>2026-03-29T18:11:15Z</time></trkpt><trkpt lat="42.701192797159734" lon="2.69306234935058"><ele>108.66666666666667</ele><time>2026-03-29T18:11:16Z</time></trkpt><trkpt lat="42.701120425158464" lon="2.693283058759568"><ele>108.33333333333334</ele><time>2026-03-29T18:11:17Z</time></trkpt><trkpt lat="42.701036947113934" lon="2.6935371626071802"><ele>108.0</ele><time>2026-03-29T18:11:18Z</time></trkpt><trkpt lat="42.7009525967054" lon="2.693788252518882"><ele>108.0</ele><time>2026-03-29T18:11:19Z</time></trkpt><trkpt lat="42.70088035473981" lon="2.6939949936188325"><ele>108.0</ele><time>2026-03-29T18:11:20Z</time></trkpt><trkpt lat="42.70077455509759" lon="2.6941754730146505"><ele>108.0</ele><time>2026-03-29T18:11:21Z</time></trkpt><trkpt lat="42.70062246207883" lon="2.694295252256589"><ele>108.0</ele><time>2026-03-29T18:11:22Z</time></trkpt><trkpt lat="42.70046096082085" lon="2.694398589486926"><ele>108.0</ele><time>2026-03-29T18:11:23Z</time></trkpt><trkpt lat="42.70028533414995" lon="2.6944657369036595"><ele>108.0</ele><time>2026-03-29T18:11:24Z</time></trkpt><trkpt lat="42.700133850720285" lon="2.694544525234896"><ele>107.75</ele><time>2026-03-29T18:11:25Z</time></trkpt><trkpt lat="42.7000026035829" lon="2.6946283366652692"><ele>107.5</ele><time>2026-03-29T18:11:26Z</time></trkpt><trkpt lat="42.69989204445959" lon="2.6946979592973426"><ele>107.25</ele><time>2026-03-29T18:11:27Z</time></trkpt><trkpt lat="42.69978634996488" lon="2.6947721877413553"><ele>107.0</ele><time>2026-03-29T18:11:28Z</time></trkpt><trkpt lat="42.69969972263661" lon="2.6948824148303356"><ele>107.0</ele><time>2026-03-29T18:11:29Z</time></trkpt><trkpt lat="42.69963574293606" lon="2.6950594610769145"><ele>107.0</ele><time>2026-03-29T18:11:30Z</time></trkpt><trkpt lat="42.69962116704273" lon="2.6952612230318445"><ele>107.0</ele><time>2026-03-29T18:11:31Z</time></trkpt><trkpt lat="42.69962856819468" lon="2.695485318317115"><ele>107.25</ele><time>2026-03-29T18:11:32Z</time></trkpt><trkpt lat="42.6996245174669" lon="2.695694705024844"><ele>107.5</ele><time>2026-03-29T18:11:33Z</time></trkpt><trkpt lat="42.69961726974617" lon="2.6958745504623343"><ele>107.75</ele><time>2026-03-29T18:11:34Z</time></trkpt><trkpt lat="42.699607980150994" lon="2.696040534804454"><ele>108.0</ele><time>2026-03-29T18:11:35Z</time></trkpt><trkpt lat="42.699596869782" lon="2.6961947123081074"><ele>108.4</ele><time>2026-03-29T18:11:36Z</time></trkpt><trkpt lat="42.69958379558111" lon="2.6963374631850483"><ele>108.80000000000001</ele><time>2026-03-29T18:11:37Z</time></trkpt><trkpt lat="42.69957446372693" lon="2.696474678712274"><ele>109.2</ele><time>2026-03-29T18:11:38Z</time></trkpt><trkpt lat="42.69956585432704" lon="2.6966294624379756"><ele>109.6</ele><time>2026-03-29T18:11:39Z</time></trkpt><trkpt lat="42.69954847736351" lon="2.6967915796099127"><ele>110.0</ele><time>2026-03-29T18:11:40Z</time></trkpt><trkpt lat="42.699487339834995" lon="2.6969340850906423"><ele>110.0</ele><time>2026-03-29T18:11:41Z</time></trkpt><trkpt lat="42.69939325220875" lon="2.697042185717597"><ele>110.0</ele><time>2026-03-29T18:11:42Z</time></trkpt><trkpt lat="42.69932079167298" lon="2.697142932428628"><ele>110.0</ele><time>2026-03-29T18:11:43Z</time></trkpt><trkpt lat="42.699314103886564" lon="2.6972759977514262"><ele>110.0</ele><time>2026-03-29T18:11:44Z</time></trkpt><trkpt lat="42.69936520395045" lon="2.697411437380396"><ele>110.0</ele><time>2026-03-29T18:11:45Z</time></trkpt><trkpt lat="42.69944255973757" lon="2.6975382030801356"><ele>110.0</ele><time>2026-03-29T18:11:46Z</time></trkpt><trkpt lat="42.69953097763475" lon="2.6976995656667135"><ele>110.0</ele><time>2026-03-29T18:11:47Z</time></trkpt><trkpt lat="42.699578146955204" lon="2.6978968004600827"><ele>110.0</ele><time>2026-03-29T18:11:48Z</time></trkpt><trkpt lat="42.6995948424324" lon="2.698112463164587"><ele>108.33333333333333</ele><time>2026-03-29T18:11:49Z</time></trkpt><trkpt lat="42.69960931156686" lon="2.6983288755252888"><ele>106.66666666666666</ele><time>2026-03-29T18:11:50Z</time></trkpt><trkpt lat="42.699601448774025" lon="2.698542123945021"><ele>105.0</ele><time>2026-03-29T18:11:51Z</time></trkpt><trkpt lat="42.6996015046498" lon="2.698755400881518"><ele>104.0</ele><time>2026-03-29T18:11:52Z</time></trkpt><trkpt lat="42.69960164708398" lon="2.698951531085989"><ele>103.0</ele><time>2026-03-29T18:11:53Z</time></trkpt><trkpt lat="42.6996017992789" lon="2.6991611049734843"><ele>102.0</ele><time>2026-03-29T18:11:54Z</time></trkpt><trkpt lat="42.69960198555373" lon="2.699417609218158"><ele>102.0</ele><time>2026-03-29T18:11:55Z</time></trkpt><trkpt lat="42.6996021530474" lon="2.6996482450063026"><ele>102.0</ele><time>2026-03-29T18:11:56Z</time></trkpt><trkpt lat="42.69960228238532" lon="2.69982634652799"><ele>102.0</ele><time>2026-03-29T18:11:57Z</time></trkpt><trkpt lat="42.69960224663444" lon="2.7000176333630286"><ele>102.0</ele><time>2026-03-29T18:11:58Z</time></trkpt><trkpt lat="42.699602675734795" lon="2.700266471149807"><ele>102.0</ele><time>2026-03-29T18:11:59Z</time></trkpt><trkpt lat="42.69960315374725" lon="2.700566520214249"><ele>102.0</ele><time>2026-03-29T18:12:00Z</time></trkpt><trkpt lat="42.699611263347116" lon="2.7008653935507247"><ele>102.0</ele><time>2026-03-29T18:12:01Z</time></trkpt><trkpt lat="42.69963086917531" lon="2.701180608203146"><ele>102.0</ele><time>2026-03-29T18:12:02Z</time></trkpt><trkpt lat="42.69967848240982" lon="2.7013915400481645"><ele>102.0</ele><time>2026-03-29T18:12:04Z</time></trkpt><trkpt lat="42.699700418774675" lon="2.701543248179816"><ele>102.0</ele><time>2026-03-29T18:12:05Z</time></trkpt><trkpt lat="42.69974272972496" lon="2.701688509003383"><ele>102.0</ele><time>2026-03-29T18:12:06Z</time></trkpt><trkpt lat="42.69978125264251" lon="2.7018416857861567"><ele>101.25</ele><time>2026-03-29T18:12:07Z</time></trkpt><trkpt lat="42.69982932105373" lon="2.702001862574186"><ele>100.5</ele><time>2026-03-29T18:12:08Z</time></trkpt><trkpt lat="42.69987941370174" lon="2.702168784712945"><ele>99.75</ele><time>2026-03-29T18:12:09Z</time></trkpt><trkpt lat="42.69992721845258" lon="2.7023267448584676"><ele>99.0</ele><time>2026-03-29T18:12:10Z</time></trkpt><trkpt lat="42.699974229364635" lon="2.702481690005525"><ele>99.0</ele><time>2026-03-29T18:12:11Z</time></trkpt><trkpt lat="42.70002241211286" lon="2.7026483033426114"><ele>99.0</ele><time>2026-03-29T18:12:12Z</time></trkpt><trkpt lat="42.700095230999004" lon="2.7028886012098234"><ele>99.0</ele><time>2026-03-29T18:12:13Z</time></trkpt><trkpt lat="42.700200592359145" lon="2.703179842326336"><ele>99.0</ele><time>2026-03-29T18:12:14Z</time></trkpt><trkpt lat="42.70026425558033" lon="2.703400683047605"><ele>99.0</ele><time>2026-03-29T18:12:15Z</time></trkpt><trkpt lat="42.7003210150758" lon="2.7035959607409654"><ele>99.0</ele><time>2026-03-29T18:12:16Z</time></trkpt><trkpt lat="42.70036193198096" lon="2.703783038365367"><ele>99.0</ele><time>2026-03-29T18:12:17Z</time></trkpt><trkpt lat="42.700411627165124" lon="2.703950382163658"><ele>99.0</ele><time>2026-03-29T18:12:18Z</time></trkpt><trkpt lat="42.700471782483696" lon="2.7041029137647663"><ele>99.0</ele><time>2026-03-29T18:12:19Z</time></trkpt><trkpt lat="42.70051724180779" lon="2.704269711932619"><ele>99.0</ele><time>2026-03-29T18:12:20Z</time></trkpt><trkpt lat="42.70057032789624" lon="2.7044327712127867"><ele>98.66666666666666</ele><time>2026-03-29T18:12:21Z</time></trkpt><trkpt lat="42.700609948881464" lon="2.704614990819637"><ele>98.33333333333333</ele><time>2026-03-29T18:12:22Z</time></trkpt><trkpt lat="42.70067762400729" lon="2.7048474811662495"><ele>98.0</ele><time>2026-03-29T18:12:23Z</time></trkpt><trkpt lat="42.70073078930832" lon="2.7050256730514373"><ele>98.0</ele><time>2026-03-29T18:12:24Z</time></trkpt><trkpt lat="42.700788916025886" lon="2.7051737978159225"><ele>98.0</ele><time>2026-03-29T18:12:25Z</time></trkpt><trkpt lat="42.700819418269575" lon="2.7053253162784303"><ele>98.0</ele><time>2026-03-29T18:12:26Z</time></trkpt><trkpt lat="42.70085805143572" lon="2.7054559300168877"><ele>98.0</ele><time>2026-03-29T18:12:27Z</time></trkpt><trkpt lat="42.70090294228253" lon="2.7056077002131653"><ele>98.0</ele><time>2026-03-29T18:12:28Z</time></trkpt><trkpt lat="42.70097033184914" lon="2.7058355356269534"><ele>98.0</ele><time>2026-03-29T18:12:29Z</time></trkpt><trkpt lat="42.701044853005605" lon="2.706087482228519"><ele>98.0</ele><time>2026-03-29T18:12:30Z</time></trkpt><trkpt lat="42.70110250610592" lon="2.706285781651422"><ele>98.5</ele><time>2026-03-29T18:12:31Z</time></trkpt><trkpt lat="42.70116906191849" lon="2.7064695130011236"><ele>99.0</ele><time>2026-03-29T18:12:32Z</time></trkpt><trkpt lat="42.70119140154932" lon="2.706664328148666"><ele>99.5</ele><time>2026-03-29T18:12:33Z</time></trkpt><trkpt lat="42.701211373459664" lon="2.7068535545466545"><ele>100.0</ele><time>2026-03-29T18:12:34Z</time></trkpt><trkpt lat="42.701219030578685" lon="2.707036867925526"><ele>100.0</ele><time>2026-03-29T18:12:35Z</time></trkpt><trkpt lat="42.70123148895059" lon="2.7072154887586306"><ele>100.0</ele><time>2026-03-29T18:12:36Z</time></trkpt><trkpt lat="42.701224298186716" lon="2.7073893365581747"><ele>100.0</ele><time>2026-03-29T18:12:37Z</time></trkpt><trkpt lat="42.70121979326966" lon="2.707575291862032"><ele>100.0</ele><time>2026-03-29T18:12:38Z</time></trkpt><trkpt lat="42.701215918085374" lon="2.7078069408961456"><ele>101.66666666666667</ele><time>2026-03-29T18:12:39Z</time></trkpt><trkpt lat="42.70119376256969" lon="2.7081165430935488"><ele>103.33333333333334</ele><time>2026-03-29T18:12:40Z</time></trkpt><trkpt lat="42.701197028576246" lon="2.7084020875901986"><ele>105.0</ele><time>2026-03-29T18:12:41Z</time></trkpt><trkpt lat="42.70119880967315" lon="2.708625828033159"><ele>107.5</ele><time>2026-03-29T18:12:42Z</time></trkpt><trkpt lat="42.701195034642666" lon="2.708827089021162"><ele>110.0</ele><time>2026-03-29T18:12:43Z</time></trkpt><trkpt lat="42.70119200817753" lon="2.7089822010495617"><ele>112.5</ele><time>2026-03-29T18:12:44Z</time></trkpt><trkpt lat="42.701190906530805" lon="2.7091269250219843"><ele>115.0</ele><time>2026-03-29T18:12:45Z</time></trkpt><trkpt lat="42.70118869115789" lon="2.709279252601308"><ele>115.66666666666667</ele><time>2026-03-29T18:12:46Z</time></trkpt><trkpt lat="42.701186285334394" lon="2.7094558816110617"><ele>116.33333333333334</ele><time>2026-03-29T18:12:47Z</time></trkpt><trkpt lat="42.70117462901548" lon="2.7097001591663195"><ele>117.0</ele><time>2026-03-29T18:12:48Z</time></trkpt><trkpt lat="42.70117051577092" lon="2.710002482025668"><ele>115.66666666666666</ele><time>2026-03-29T18:12:49Z</time></trkpt><trkpt lat="42.701159753037956" lon="2.7103001681010257"><ele>114.33333333333333</ele><time>2026-03-29T18:12:50Z</time></trkpt><trkpt lat="42.70116050381024" lon="2.7105930184922133"><ele>113.0</ele><time>2026-03-29T18:12:51Z</time></trkpt><trkpt lat="42.70114340011182" lon="2.710912892814804"><ele>109.5</ele><time>2026-03-29T18:12:52Z</time></trkpt><trkpt lat="42.701151532884644" lon="2.7112422094722004"><ele>106.0</ele><time>2026-03-29T18:12:53Z</time></trkpt><trkpt lat="42.70114147655805" lon="2.7116153962177783"><ele>103.5</ele><time>2026-03-29T18:12:54Z</time></trkpt><trkpt lat="42.70111774027375" lon="2.7119953434164112"><ele>101.0</ele><time>2026-03-29T18:12:55Z</time></trkpt><trkpt lat="42.70110880529037" lon="2.7123770229764914"><ele>99.5</ele><time>2026-03-29T18:12:56Z</time></trkpt><trkpt lat="42.701100008593066" lon="2.7127804228155443"><ele>98.0</ele><time>2026-03-29T18:12:57Z</time></trkpt><trkpt lat="42.70110688412126" lon="2.713158205470913"><ele>98.0</ele><time>2026-03-29T18:12:58Z</time></trkpt><trkpt lat="42.70109724799648" lon="2.71350470888622"><ele>98.0</ele><time>2026-03-29T18:12:59Z</time></trkpt><trkpt lat="42.70108896275473" lon="2.7138465790244966"><ele>97.0</ele><time>2026-03-29T18:13:00Z</time></trkpt><trkpt lat="42.7010647367608" lon="2.714193611924303"><ele>96.0</ele><time>2026-03-29T18:13:01Z</time></trkpt><trkpt lat="42.70107412584645" lon="2.7145317806067433"><ele>96.0</ele><time>2026-03-29T18:13:02Z</time></trkpt><trkpt lat="42.7010639700703" lon="2.7148739133057456"><ele>96.0</ele><time>2026-03-29T18:13:03Z</time></trkpt><trkpt lat="42.70105350459277" lon="2.7152055295973043"><ele>96.0</ele><time>2026-03-29T18:13:04Z</time></trkpt><trkpt lat="42.70104884719475" lon="2.7155362934015552"><ele>96.0</ele><time>2026-03-29T18:13:05Z</time></trkpt><trkpt lat="42.70102686734985" lon="2.7158638197310006"><ele>94.5</ele><time>2026-03-29T18:13:06Z</time></trkpt><trkpt lat="42.701019838061356" lon="2.716195960381456"><ele>93.0</ele><time>2026-03-29T18:13:07Z</time></trkpt><trkpt lat="42.70101263904718" lon="2.7165361207796535"><ele>93.0</ele><time>2026-03-29T18:13:08Z</time></trkpt><trkpt lat="42.701020025137424" lon="2.7168682517047826"><ele>93.0</ele><time>2026-03-29T18:13:09Z</time></trkpt><trkpt lat="42.70100972733219" lon="2.71720064749195"><ele>93.0</ele><time>2026-03-29T18:13:10Z</time></trkpt><trkpt lat="42.70100062275765" lon="2.7175309513764865"><ele>93.0</ele><time>2026-03-29T18:13:11Z</time></trkpt><trkpt lat="42.70098368642314" lon="2.7178681535275433"><ele>93.0</ele><time>2026-03-29T18:13:12Z</time></trkpt><trkpt lat="42.70095402250338" lon="2.7181974496251926"><ele>93.0</ele><time>2026-03-29T18:13:13Z</time></trkpt><trkpt lat="42.70088300957695" lon="2.718529960800954"><ele>93.0</ele><time>2026-03-29T18:13:14Z</time></trkpt><trkpt lat="42.70080722615412" lon="2.718877164237513"><ele>93.0</ele><time>2026-03-29T18:13:15Z</time></trkpt><trkpt lat="42.70072859527676" lon="2.719224223615642"><ele>92.5</ele><time>2026-03-29T18:13:16Z</time></trkpt><trkpt lat="42.700645777089704" lon="2.7195854472705867"><ele>92.0</ele><time>2026-03-29T18:13:17Z</time></trkpt><trkpt lat="42.70057519941283" lon="2.719959026869955"><ele>92.0</ele><time>2026-03-29T18:13:18Z</time></trkpt><trkpt lat="42.70047047318326" lon="2.7203334202106673"><ele>92.0</ele><time>2026-03-29T18:13:19Z</time></trkpt><trkpt lat="42.700381830720836" lon="2.720709602854957"><ele>92.5</ele><time>2026-03-29T18:13:20Z</time></trkpt><trkpt lat="42.70029643151001" lon="2.721076104251839"><ele>93.0</ele><time>2026-03-29T18:13:21Z</time></trkpt><trkpt lat="42.700213566625905" lon="2.7214317291963295"><ele>93.0</ele><time>2026-03-29T18:13:22Z</time></trkpt><trkpt lat="42.70013143891843" lon="2.721784190583282"><ele>93.0</ele><time>2026-03-29T18:13:23Z</time></trkpt><trkpt lat="42.70004777789778" lon="2.722144150104853"><ele>93.5</ele><time>2026-03-29T18:13:24Z</time></trkpt><trkpt lat="42.69996449177948" lon="2.722503359101194"><ele>94.0</ele><time>2026-03-29T18:13:25Z</time></trkpt><trkpt lat="42.699886842567906" lon="2.722838256642308"><ele>92.0</ele><time>2026-03-29T18:13:26Z</time></trkpt><trkpt lat="42.69981349180796" lon="2.7231559821605518"><ele>90.0</ele><time>2026-03-29T18:13:27Z</time></trkpt><trkpt lat="42.69974623833514" lon="2.723449314238513"><ele>90.0</ele><time>2026-03-29T18:13:28Z</time></trkpt><trkpt lat="42.69967870180306" lon="2.723743880756977"><ele>90.0</ele><time>2026-03-29T18:13:29Z</time></trkpt><trkpt lat="42.69961564494602" lon="2.7240189088936435"><ele>90.0</ele><time>2026-03-29T18:13:30Z</time></trkpt><trkpt lat="42.69955759786598" lon="2.724272086336087"><ele>90.0</ele><time>2026-03-29T18:13:31Z</time></trkpt><trkpt lat="42.699502840350455" lon="2.7245109162569063"><ele>90.0</ele><time>2026-03-29T18:13:32Z</time></trkpt><trkpt lat="42.69944935623961" lon="2.7247364647560004"><ele>90.0</ele><time>2026-03-29T18:13:33Z</time></trkpt><trkpt lat="42.699398378746345" lon="2.724950710563646"><ele>90.0</ele><time>2026-03-29T18:13:34Z</time></trkpt><trkpt lat="42.699365391787964" lon="2.7251539877403665"><ele>90.0</ele><time>2026-03-29T18:13:35Z</time></trkpt><trkpt lat="42.699317208247265" lon="2.725336332330419"><ele>90.0</ele><time>2026-03-29T18:13:36Z</time></trkpt><trkpt lat="42.699272873335154" lon="2.7255124573973855"><ele>90.0</ele><time>2026-03-29T18:13:37Z</time></trkpt><trkpt lat="42.6992431937737" lon="2.7256664691432486"><ele>90.0</ele><time>2026-03-29T18:13:38Z</time></trkpt><trkpt lat="42.69919389063826" lon="2.72581016474773"><ele>90.0</ele><time>2026-03-29T18:13:39Z</time></trkpt><trkpt lat="42.69916287940802" lon="2.7259418463611236"><ele>90.0</ele><time>2026-03-29T18:13:40Z</time></trkpt><trkpt lat="42.69913197337129" lon="2.726073080869385"><ele>90.0</ele><time>2026-03-29T18:13:41Z</time></trkpt><trkpt lat="42.69910159529007" lon="2.7262020737292407"><ele>90.0</ele><time>2026-03-29T18:13:42Z</time></trkpt><trkpt lat="42.69907062845877" lon="2.7263335667558484"><ele>90.25</ele><time>2026-03-29T18:13:43Z</time></trkpt><trkpt lat="42.69904870198066" lon="2.726512902496901"><ele>90.5</ele><time>2026-03-29T18:13:44Z</time></trkpt><trkpt lat="42.699008649799616" lon="2.7267391708778366"><ele>90.75</ele><time>2026-03-29T18:13:45Z</time></trkpt><trkpt lat="42.69896920112317" lon="2.7269076567985415"><ele>91.0</ele><time>2026-03-29T18:13:46Z</time></trkpt><trkpt lat="42.69892740047103" lon="2.7270711958541227"><ele>90.25</ele><time>2026-03-29T18:13:47Z</time></trkpt><trkpt lat="42.69888534630993" lon="2.727236782209183"><ele>89.5</ele><time>2026-03-29T18:13:48Z</time></trkpt><trkpt lat="42.69884894637628" lon="2.7274129880886764"><ele>88.75</ele><time>2026-03-29T18:13:49Z</time></trkpt><trkpt lat="42.698810637564414" lon="2.7275936643672365"><ele>88.0</ele><time>2026-03-29T18:13:50Z</time></trkpt><trkpt lat="42.69876806781033" lon="2.727767034282818"><ele>88.0</ele><time>2026-03-29T18:13:51Z</time></trkpt><trkpt lat="42.69872485633176" lon="2.7279356285022005"><ele>88.0</ele><time>2026-03-29T18:13:52Z</time></trkpt><trkpt lat="42.69868197947678" lon="2.728106028753485"><ele>88.0</ele><time>2026-03-29T18:13:53Z</time></trkpt><trkpt lat="42.69864332256374" lon="2.7282800219162713"><ele>88.0</ele><time>2026-03-29T18:13:54Z</time></trkpt><trkpt lat="42.69860904752845" lon="2.7284405528790443"><ele>88.5</ele><time>2026-03-29T18:13:55Z</time></trkpt><trkpt lat="42.69854811145005" lon="2.728593532458581"><ele>89.0</ele><time>2026-03-29T18:13:56Z</time></trkpt><trkpt lat="42.69849243052946" lon="2.72874520781467"><ele>89.5</ele><time>2026-03-29T18:13:57Z</time></trkpt><trkpt lat="42.698423312885076" lon="2.7288981357242705"><ele>90.0</ele><time>2026-03-29T18:13:58Z</time></trkpt><trkpt lat="42.698358424612714" lon="2.7290452684075603"><ele>90.0</ele><time>2026-03-29T18:13:59Z</time></trkpt><trkpt lat="42.698268960079204" lon="2.7291856721273415"><ele>90.0</ele><time>2026-03-29T18:14:00Z</time></trkpt><trkpt lat="42.69817604990268" lon="2.729328123143941"><ele>90.0</ele><time>2026-03-29T18:14:01Z</time></trkpt><trkpt lat="42.698094341526485" lon="2.7294678598433806"><ele>90.0</ele><time>2026-03-29T18:14:02Z</time></trkpt><trkpt lat="42.69799046202062" lon="2.729588008446648"><ele>89.5</ele><time>2026-03-29T18:14:03Z</time></trkpt><trkpt lat="42.69789473879669" lon="2.7297423348642016"><ele>89.0</ele><time>2026-03-29T18:14:04Z</time></trkpt><trkpt lat="42.697833299887016" lon="2.7299316045148907"><ele>88.5</ele><time>2026-03-29T18:14:05Z</time></trkpt><trkpt lat="42.69777267265734" lon="2.730115868012104"><ele>88.0</ele><time>2026-03-29T18:14:06Z</time></trkpt><trkpt lat="42.697717772503744" lon="2.7302687109872874"><ele>88.0</ele><time>2026-03-29T18:14:07Z</time></trkpt><trkpt lat="42.697671135449916" lon="2.7304014128023124"><ele>88.0</ele><time>2026-03-29T18:14:08Z</time></trkpt><trkpt lat="42.697605750497736" lon="2.7305391990318646"><ele>88.0</ele><time>2026-03-29T18:14:09Z</time></trkpt><trkpt lat="42.69758371937023" lon="2.7307310417629544"><ele>88.0</ele><time>2026-03-29T18:14:10Z</time></trkpt><trkpt lat="42.69757759759636" lon="2.7309373810112034"><ele>87.75</ele><time>2026-03-29T18:14:11Z</time></trkpt><trkpt lat="42.69754609087667" lon="2.731127192653313"><ele>87.5</ele><time>2026-03-29T18:14:12Z</time></trkpt><trkpt lat="42.697506612032115" lon="2.7313120864659397"><ele>87.25</ele><time>2026-03-29T18:14:13Z</time></trkpt><trkpt lat="42.69746272687912" lon="2.7315040958405925"><ele>87.0</ele><time>2026-03-29T18:14:14Z</time></trkpt><trkpt lat="42.697405319707" lon="2.7316804547381754"><ele>87.0</ele><time>2026-03-29T18:14:15Z</time></trkpt><trkpt lat="42.69733971234413" lon="2.7318499543178523"><ele>87.0</ele><time>2026-03-29T18:14:16Z</time></trkpt><trkpt lat="42.69726576417817" lon="2.732010259920847"><ele>87.0</ele><time>2026-03-29T18:14:17Z</time></trkpt><trkpt lat="42.69723191431895" lon="2.732193191323264"><ele>87.0</ele><time>2026-03-29T18:14:18Z</time></trkpt><trkpt lat="42.69717494447626" lon="2.7323640732478656"><ele>87.0</ele><time>2026-03-29T18:14:19Z</time></trkpt><trkpt lat="42.69713640345368" lon="2.732541279437759"><ele>87.0</ele><time>2026-03-29T18:14:20Z</time></trkpt><trkpt lat="42.69711569361171" lon="2.732725388332123"><ele>87.0</ele><time>2026-03-29T18:14:21Z</time></trkpt><trkpt lat="42.697067064192204" lon="2.7329032288609576"><ele>87.0</ele><time>2026-03-29T18:14:22Z</time></trkpt><trkpt lat="42.697037404906546" lon="2.7331000628167947"><ele>86.66666666666667</ele><time>2026-03-29T18:14:23Z</time></trkpt><trkpt lat="42.697012044589464" lon="2.7333004094030167"><ele>86.33333333333334</ele><time>2026-03-29T18:14:24Z</time></trkpt><trkpt lat="42.69698488297619" lon="2.733515417651716"><ele>86.0</ele><time>2026-03-29T18:14:25Z</time></trkpt><trkpt lat="42.69695740004315" lon="2.733732969432143"><ele>86.0</ele><time>2026-03-29T18:14:26Z</time></trkpt><trkpt lat="42.696931675887726" lon="2.733936601624135"><ele>86.0</ele><time>2026-03-29T18:14:27Z</time></trkpt><trkpt lat="42.69690998201138" lon="2.734110268556727"><ele>86.0</ele><time>2026-03-29T18:14:28Z</time></trkpt><trkpt lat="42.69689313339306" lon="2.734267981688722"><ele>86.0</ele><time>2026-03-29T18:14:29Z</time></trkpt><trkpt lat="42.69688108156645" lon="2.734418836875733"><ele>85.6</ele><time>2026-03-29T18:14:30Z</time></trkpt><trkpt lat="42.69688870820301" lon="2.7345641005976606"><ele>85.19999999999999</ele><time>2026-03-29T18:14:31Z</time></trkpt><trkpt lat="42.69686049665191" lon="2.7346843570535038"><ele>84.80000000000001</ele><time>2026-03-29T18:14:32Z</time></trkpt><trkpt lat="42.69680195541096" lon="2.7347601915360653"><ele>84.4</ele><time>2026-03-29T18:14:33Z</time></trkpt><trkpt lat="42.696746774293786" lon="2.7348295201263295"><ele>84.0</ele><time>2026-03-29T18:14:34Z</time></trkpt><trkpt lat="42.69674339876063" lon="2.735002551450545"><ele>84.0</ele><time>2026-03-29T18:14:36Z</time></trkpt><trkpt lat="42.69675655970963" lon="2.735092993762364"><ele>84.0</ele><time>2026-03-29T18:14:37Z</time></trkpt><trkpt lat="42.69688257037589" lon="2.7351738871681803"><ele>84.0</ele><time>2026-03-29T18:14:38Z</time></trkpt><trkpt lat="42.69689806205703" lon="2.7352881527127404"><ele>84.0</ele><time>2026-03-29T18:14:39Z</time></trkpt><trkpt lat="42.696888169999276" lon="2.735433296401019"><ele>84.0</ele><time>2026-03-29T18:14:40Z</time></trkpt><trkpt lat="42.696868039008955" lon="2.735570308632942"><ele>84.2</ele><time>2026-03-29T18:14:41Z</time></trkpt><trkpt lat="42.69685459670623" lon="2.7356922704258078"><ele>84.4</ele><time>2026-03-29T18:14:42Z</time></trkpt><trkpt lat="42.696808405654075" lon="2.735793032843029"><ele>84.6</ele><time>2026-03-29T18:14:43Z</time></trkpt><trkpt lat="42.69681807564473" lon="2.7359283560642895"><ele>84.8</ele><time>2026-03-29T18:14:44Z</time></trkpt><trkpt lat="42.696788084260504" lon="2.7361127407884736"><ele>85.0</ele><time>2026-03-29T18:14:45Z</time></trkpt><trkpt lat="42.69676281344168" lon="2.7363203030575285"><ele>85.0</ele><time>2026-03-29T18:14:46Z</time></trkpt><trkpt lat="42.69675137959783" lon="2.736488768227353"><ele>85.0</ele><time>2026-03-29T18:14:47Z</time></trkpt><trkpt lat="42.69690740754218" lon="2.736580702059095"><ele>85.0</ele><time>2026-03-29T18:14:51Z</time></trkpt><trkpt lat="42.69699872509889" lon="2.7366003293071066"><ele>85.0</ele><time>2026-03-29T18:14:52Z</time></trkpt><trkpt lat="42.69710859691354" lon="2.7366178884001893"><ele>84.66666666666666</ele><time>2026-03-29T18:14:53Z</time></trkpt><trkpt lat="42.697201040573404" lon="2.736636161643853"><ele>84.33333333333333</ele><time>2026-03-29T18:14:54Z</time></trkpt><trkpt lat="42.697289747466456" lon="2.7366772589947"><ele>84.0</ele><time>2026-03-29T18:14:55Z</time></trkpt><trkpt lat="42.697366069454596" lon="2.7367390269488"><ele>83.66666666666667</ele><time>2026-03-29T18:14:56Z</time></trkpt><trkpt lat="42.6974337488932" lon="2.736796427810027"><ele>83.33333333333334</ele><time>2026-03-29T18:14:57Z</time></trkpt><trkpt lat="42.69746834431786" lon="2.736894480862821"><ele>83.0</ele><time>2026-03-29T18:14:58Z</time></trkpt><trkpt lat="42.69757276771742" lon="2.737023524024609"><ele>83.2</ele><time>2026-03-29T18:14:59Z</time></trkpt><trkpt lat="42.69769310040341" lon="2.7370933915659563"><ele>83.4</ele><time>2026-03-29T18:15:00Z</time></trkpt><trkpt lat="42.69778517785731" lon="2.73712040239944"><ele>83.60000000000001</ele><time>2026-03-29T18:15:01Z</time></trkpt><trkpt lat="42.69786930849963" lon="2.7371409299028673"><ele>83.80000000000001</ele><time>2026-03-29T18:15:02Z</time></trkpt><trkpt lat="42.69794697844362" lon="2.737171934802968"><ele>84.0</ele><time>2026-03-29T18:15:03Z</time></trkpt><trkpt lat="42.698013325439355" lon="2.737199539454494"><ele>84.0</ele><time>2026-03-29T18:15:04Z</time></trkpt><trkpt lat="42.698094176157625" lon="2.7372134613909744"><ele>84.0</ele><time>2026-03-29T18:15:06Z</time></trkpt><trkpt lat="42.698073955885384" lon="2.7373842474169408"><ele>84.0</ele><time>2026-03-29T18:16:47Z</time></trkpt></trkseg></trk></gpx>